Provisional Data: Choconut Creek near Vestal Center, NY


Please select a monitoring station.
Please select start date.
Please select start date.

Toggle Unit: C/F Toggle Unit: C/F
Sample Time Temperature (C) Temperature (F) Specific Conductivity (mS/cm) pH   Turbidity (NTU+) DO (mg/L)
10/22/2021 12:00:00 AM 14.23 57.614 0.081 6.82 11.18 9.71
10/22/2021 12:15:00 AM 14.2 57.56 0.081 6.83 13.3 9.72
10/22/2021 12:30:00 AM 14.17 57.506 0.081 6.84 15.62 9.73
10/22/2021 12:45:00 AM 14.14 57.452 0.081 6.81 13.18 9.73
10/22/2021 1:00:00 AM 14.1 57.38 0.081 6.84 8.58 9.73
10/22/2021 1:15:00 AM 14.06 57.308 0.082 6.84 8.4 9.74
10/22/2021 1:30:00 AM 14.01 57.218 0.082 6.9 12.43 9.74
10/22/2021 1:45:00 AM 13.96 57.128 0.083 6.8 12.93 9.74
10/22/2021 2:00:00 AM 13.91 57.038 0.084 6.66 11.73 9.74
10/22/2021 2:15:00 AM 13.87 56.966 0.084 6.82 11.82 9.75
10/22/2021 2:30:00 AM 13.82 56.876 0.085 6.83 14.13 9.76
10/22/2021 2:45:00 AM 13.76 56.768 0.085 6.83 8.59 9.77
10/22/2021 3:00:00 AM 13.71 56.678 0.085 6.84 12.02 9.78
10/22/2021 3:15:00 AM 13.66 56.588 0.085 6.74 11.73 9.8
10/22/2021 3:30:00 AM 13.61 56.498 0.086 6.76 7.68 9.81
10/22/2021 3:45:00 AM 13.57 56.426 0.086 6.82 11.79 9.82
10/22/2021 4:00:00 AM 13.53 56.354 0.086 6.86 7.84 9.84
10/22/2021 4:15:00 AM 13.5 56.3 0.086 6.85 7.55 9.86
10/22/2021 4:30:00 AM 13.47 56.246 0.086 6.89 7.49 9.87
10/22/2021 4:45:00 AM 13.43 56.174 0.086 6.85 7.25 9.89
10/22/2021 5:00:00 AM 13.38 56.084 0.086 6.87 11.84 9.9
10/22/2021 5:15:00 AM 13.32 55.976 0.086 6.83 12.56 9.91
10/22/2021 5:30:00 AM 13.27 55.886 0.086 6.88 13.12 9.93
10/22/2021 5:45:00 AM 13.22 55.796 0.085 6.93 12.22 9.95
10/22/2021 6:00:00 AM 13.18 55.724 0.085 6.86 12.51 9.96
10/22/2021 6:15:00 AM 13.15 55.67 0.085 6.77 7.26 9.95
10/22/2021 6:30:00 AM 13.12 55.616 0.085 6.74 13.35 9.94
10/22/2021 6:45:00 AM 13.1 55.58 0.085 6.85 7.87 9.96
10/22/2021 7:00:00 AM 13.08 55.544 0.085 6.89 14.48 9.96
10/22/2021 7:15:00 AM 13.07 55.526 0.085 6.87 10.24 10
10/22/2021 7:30:00 AM 13.05 55.49 0.084 6.86 12.69 10.02
10/22/2021 7:45:00 AM 13.03 55.454 0.084 6.87 12.69 10.04
10/22/2021 8:00:00 AM 13.02 55.436 0.084 6.81 12.68 10.08
10/22/2021 8:15:00 AM 13.01 55.418 0.084 6.85 10.85 10.12
10/22/2021 8:30:00 AM 13 55.4 0.083 6.89 11.32 10.15
10/22/2021 8:45:00 AM 12.99 55.382 0.083 6.84 13.03 10.18
10/22/2021 9:00:00 AM 12.98 55.364 0.083 6.88 12.57 10.21
10/22/2021 9:15:00 AM 12.97 55.346 0.083 6.88 12.68 10.27
10/22/2021 9:30:00 AM 12.96 55.328 0.082 6.9 13.31 10.33
10/22/2021 9:45:00 AM 12.96 55.328 0.082 6.88 13.82 10.44
10/22/2021 10:00:00 AM 12.96 55.328 0.082 6.93 13.91 10.58
10/22/2021 10:15:00 AM 12.99 55.382 0.082 6.94 13.88 10.76
10/22/2021 10:30:00 AM 13.03 55.454 0.082 6.99 7.38 10.93
10/22/2021 10:45:00 AM 13.06 55.508 0.081 7 12.65 11.06
10/22/2021 11:00:00 AM 13.08 55.544 0.081 7.02 12.6 11.14
10/22/2021 11:15:00 AM 13.08 55.544 0.081 7 11.49 11.11
10/22/2021 11:30:00 AM 13.07 55.526 0.081 7.02 11.3 11.09
10/22/2021 11:45:00 AM 13.05 55.49 0.081 7.03 12.23 11.1
10/22/2021 12:00:00 PM 13.03 55.454 0.081 7.02 11.45 11.11
10/22/2021 12:15:00 PM 13.03 55.454 0.081 7.03 11.53 11.19
10/22/2021 12:30:00 PM 13.04 55.472 0.08 7.06 11.83 11.32
10/22/2021 12:45:00 PM 13.05 55.49 0.08 7.05 11.54 11.38
10/22/2021 1:00:00 PM 13.08 55.544 0.08 7.1 12.04 11.5
10/22/2021 1:15:00 PM 13.11 55.598 0.08 7.14 11.62 11.63
10/22/2021 1:30:00 PM 13.18 55.724 0.08 7.17 10.76 11.76
10/22/2021 1:45:00 PM 13.21 55.778 0.08 7.2 11.32 11.82
10/22/2021 2:00:00 PM 13.28 55.904 0.08 7.22 10.52 11.92
10/22/2021 2:15:00 PM 13.33 55.994 0.08 7.24 10.02 11.96
10/22/2021 2:30:00 PM 13.4 56.12 0.08 7.26 10.3 12.03
10/22/2021 2:45:00 PM 13.44 56.192 0.08 7.28 10.86 12.08
10/22/2021 3:00:00 PM 13.46 56.228 0.08 7.29 10.46 12.08
10/22/2021 3:15:00 PM 13.46 56.228 0.08 7.29 11.13 12.07
10/22/2021 3:30:00 PM 13.49 56.282 0.08 7.31 10.61 12.11
10/22/2021 3:45:00 PM 13.48 56.264 0.08 7.36 10.77 12.06
10/22/2021 4:00:00 PM 13.48 56.264 0.08 7.29 11.13 12.02
10/22/2021 4:15:00 PM 13.47 56.246 0.08 7.3 10.36 11.98
10/22/2021 4:30:00 PM 13.48 56.264 0.08 7.31 11.31 11.98
10/22/2021 4:45:00 PM 13.47 56.246 0.08 7.3 11.3 11.93
10/22/2021 5:00:00 PM 13.42 56.156 0.08 7.26 11.17 11.77
10/22/2021 5:15:00 PM 13.37 56.066 0.08 7.22 11.15 11.65
10/22/2021 5:30:00 PM 13.36 56.048 0.079 7.22 10.05 11.63
10/22/2021 5:45:00 PM 13.33 55.994 0.08 7.2 10.67 11.53
10/22/2021 6:00:00 PM 13.28 55.904 0.08 7.09 12.63 11.36
10/22/2021 6:15:00 PM 13.24 55.832 0.08 7.14 11.29 11.23
10/22/2021 6:30:00 PM 13.19 55.742 0.08 7.09 12.05 11.12
10/22/2021 6:45:00 PM 13.13 55.634 0.08 7.09 10.73 11.01
10/22/2021 7:00:00 PM 13.08 55.544 0.08 7.06 10.6 10.91
10/22/2021 7:15:00 PM 13.02 55.436 0.08 7.05 11.35 10.83
10/22/2021 7:30:00 PM 12.97 55.346 0.08 7.02 10.86 10.77
10/22/2021 7:45:00 PM 12.92 55.256 0.08 7.03 12.08 10.72
10/22/2021 8:00:00 PM 12.88 55.184 0.08 7.02 10.31 10.68
10/22/2021 8:15:00 PM 12.84 55.112 0.08 6.98 10.54 10.64
10/22/2021 8:30:00 PM 12.8 55.04 0.08 6.95 9.91 10.6
10/22/2021 8:45:00 PM 12.76 54.968 0.08 6.98 10.36 10.56
10/22/2021 9:00:00 PM 12.71 54.878 0.08 6.98 10.47 10.51
10/22/2021 9:15:00 PM 12.65 54.77 0.08 6.93 10.53 10.48
10/22/2021 9:30:00 PM 12.59 54.662 0.08 6.97 10.2 10.45
10/22/2021 9:45:00 PM 12.53 54.554 0.08 6.97 11.39 10.42
10/22/2021 10:00:00 PM 12.47 54.446 0.08 6.96 11.44 10.4
10/22/2021 10:15:00 PM 12.4 54.32 0.081 6.94 10.94 10.39
10/22/2021 10:30:00 PM 12.33 54.194 0.081 6.85 10.51 10.38
10/22/2021 10:45:00 PM 12.27 54.086 0.081 6.94 10.93 10.37
10/22/2021 11:00:00 PM 12.2 53.96 0.081 6.93 10.72 10.37
10/22/2021 11:15:00 PM 12.14 53.852 0.081 6.92 11.22 10.37
10/22/2021 11:30:00 PM 12.08 53.744 0.081 6.91 10.96 10.37
10/22/2021 11:45:00 PM 12.02 53.636 0.081 6.92 10.93 10.37
10/23/2021 12:00:00 AM 11.97 53.546 0.081 6.87 11.06 10.36
10/23/2021 12:15:00 AM 11.92 53.456 0.081 6.9 11.78 10.36
10/23/2021 12:30:00 AM 11.87 53.366 0.081 6.79 10.99 10.36
10/23/2021 12:45:00 AM 11.81 53.258 0.081 6.89 10.64 10.37
10/23/2021 1:00:00 AM 11.75 53.15 0.081 6.89 11.27 10.38
10/23/2021 1:15:00 AM 11.69 53.042 0.081 6.87 9.78 10.39
10/23/2021 1:30:00 AM 11.63 52.934 0.081 6.9 10.71 10.39
10/23/2021 1:45:00 AM 11.57 52.826 0.081 6.91 10.68 10.41
10/23/2021 2:00:00 AM 11.52 52.736 0.081 6.79 10.57 10.42
10/23/2021 2:15:00 AM 11.47 52.646 0.081 6.88 11 10.43
10/23/2021 2:30:00 AM 11.42 52.556 0.081 6.9 10.86 10.44
10/23/2021 2:45:00 AM 11.37 52.466 0.081 6.91 11.33 10.45
10/23/2021 3:00:00 AM 11.32 52.376 0.081 6.88 10.93 10.46
10/23/2021 3:15:00 AM 11.29 52.322 0.081 6.89 11.21 10.46
10/23/2021 3:30:00 AM 11.25 52.25 0.082 6.82 10.47 10.48
10/23/2021 3:45:00 AM 11.2 52.16 0.081 6.9 10.88 10.49
10/23/2021 4:00:00 AM 11.16 52.088 0.081 6.9 10.65 10.5
10/23/2021 4:15:00 AM 11.12 52.016 0.081 6.87 11.64 10.51
10/23/2021 4:30:00 AM 11.08 51.944 0.082 6.8 10 10.52
10/23/2021 4:45:00 AM 11.04 51.872 0.082 6.89 9.93 10.53
10/23/2021 5:00:00 AM 11.01 51.818 0.082 6.88 10.09 10.54
10/23/2021 5:15:00 AM 10.98 51.764 0.082 6.88 10.33 10.55
10/23/2021 5:30:00 AM 10.94 51.692 0.082 6.89 10.18 10.56
10/23/2021 5:45:00 AM 10.9 51.62 0.082 6.87 10.31 10.57
10/23/2021 6:00:00 AM 10.87 51.566 0.082 6.88 10.54 10.58
10/23/2021 6:15:00 AM 10.84 51.512 0.082 6.89 10.44 10.59
10/23/2021 6:30:00 AM 10.81 51.458 0.082 6.89 10.67 10.6
10/23/2021 6:45:00 AM 10.79 51.422 0.082 6.89 10.43 10.6
10/23/2021 7:00:00 AM 10.76 51.368 0.082 6.88 9.94 10.62
10/23/2021 7:15:00 AM 10.74 51.332 0.082 6.89 10.56 10.62
10/23/2021 7:30:00 AM 10.72 51.296 0.082 6.88 9.96 10.63
10/23/2021 7:45:00 AM 10.7 51.26 0.082 6.89 10.02 10.66
10/23/2021 8:00:00 AM 10.67 51.206 0.082 6.89 9.69 10.7
10/23/2021 8:15:00 AM 10.66 51.188 0.082 6.84 10.33 10.78
10/23/2021 8:30:00 AM 10.66 51.188 0.082 6.9 10.33 10.89
10/23/2021 8:45:00 AM 10.66 51.188 0.081 6.91 9.62 11.03
10/23/2021 9:00:00 AM 10.67 51.206 0.081 6.94 10.26 11.18
10/23/2021 9:15:00 AM 10.69 51.242 0.081 6.95 9.97 11.34
10/23/2021 9:30:00 AM 10.72 51.296 0.081 6.98 9.88 11.51
10/23/2021 9:45:00 AM 10.77 51.386 0.081 6.99 9.42 11.66
10/23/2021 10:00:00 AM 10.81 51.458 0.081 7.02 10.42 11.79
10/23/2021 10:15:00 AM 10.87 51.566 0.081 7.06 9.83 11.93
10/23/2021 10:30:00 AM 10.91 51.638 0.081 7.06 9.58 12
10/23/2021 10:45:00 AM 10.94 51.692 0.081 6.93 9.87 12.07
10/23/2021 11:00:00 AM 11.01 51.818 0.081 7.09 9.73 12.18
10/23/2021 11:15:00 AM 11.08 51.944 0.081 7.12 9.42 12.29
10/23/2021 11:30:00 AM 11.16 52.088 0.081 7.14 9.71 12.35
10/23/2021 11:45:00 AM 11.19 52.142 0.081 7.09 9.7 12.41
10/23/2021 12:00:00 PM 11.24 52.232 0.081 7.18 9.39 12.48
10/23/2021 12:15:00 PM 11.28 52.304 0.081 7.19 10.03 12.51
10/23/2021 12:30:00 PM 11.31 52.358 0.081 7.23 10.02 12.52
10/23/2021 12:45:00 PM 11.35 52.43 0.08 7.24 9.42 12.57
10/23/2021 1:00:00 PM 11.4 52.52 0.08 7.27 9.25 12.64
10/23/2021 1:15:00 PM 11.43 52.574 0.08 7.25 9.7 12.65
10/23/2021 1:30:00 PM 11.45 52.61 0.08 7.25 8.89 12.64
10/23/2021 1:45:00 PM 11.47 52.646 0.08 7.28 9.82 12.62
10/23/2021 2:00:00 PM 11.51 52.718 0.08 7.29 9.49 12.67
10/23/2021 2:15:00 PM 11.56 52.808 0.08 7.31 9.86 12.7
10/23/2021 2:30:00 PM 11.61 52.898 0.08 7.34 9.71 12.73
10/23/2021 2:45:00 PM 11.63 52.934 0.08 7.19 9.11 12.69
10/23/2021 3:00:00 PM 11.64 52.952 0.08 7.34 8.34 12.63
10/23/2021 3:15:00 PM 11.66 52.988 0.08 7.31 9.45 12.58
10/23/2021 3:30:00 PM 11.68 53.024 0.08 7.3 8.89 12.54
10/23/2021 3:45:00 PM 11.7 53.06 0.08 7.33 9.52 12.52
10/23/2021 4:00:00 PM 11.7 53.06 0.08 7.3 9.49 12.45
10/23/2021 4:15:00 PM 11.7 53.06 0.08 7.13 10.11 12.39
10/23/2021 4:30:00 PM 11.71 53.078 0.08 7.15 10.84 12.34
10/23/2021 4:45:00 PM 11.72 53.096 0.08 7.27 9.52 12.28
10/23/2021 5:00:00 PM 11.73 53.114 0.08 7.26 9.43 12.21
10/23/2021 5:15:00 PM 11.73 53.114 0.08 7.23 9.49 12.07
10/23/2021 5:30:00 PM 11.73 53.114 0.08 7.2 9.39 11.93
10/23/2021 5:45:00 PM 11.73 53.114 0.08 7.18 9.19 11.82
10/23/2021 6:00:00 PM 11.72 53.096 0.08 7.08 9.57 11.73
10/23/2021 6:15:00 PM 11.71 53.078 0.08 7.14 10.07 11.6
10/23/2021 6:30:00 PM 11.7 53.06 0.08 6.92 9.37 11.47
10/23/2021 6:45:00 PM 11.67 53.006 0.08 7.09 8.85 11.37
10/23/2021 7:00:00 PM 11.63 52.934 0.08 7.08 9.45 11.3
10/23/2021 7:15:00 PM 11.62 52.916 0.08 7.02 9.98 11.24
10/23/2021 7:30:00 PM 11.59 52.862 0.08 6.95 10.02 11.18
10/23/2021 7:45:00 PM 11.56 52.808 0.08 7.03 10.43 11.12
10/23/2021 8:00:00 PM 11.52 52.736 0.08 7.02 9.63 11.08
10/23/2021 8:15:00 PM 11.49 52.682 0.08 6.94 9.45 11.03
10/23/2021 8:30:00 PM 11.46 52.628 0.08 7 9.42 10.98
10/23/2021 8:45:00 PM 11.45 52.61 0.08 7 10.24 10.93
10/23/2021 9:00:00 PM 11.45 52.61 0.08 7 10.97 10.89
10/23/2021 9:15:00 PM 11.44 52.592 0.08 6.96 9.36 10.85
10/23/2021 9:30:00 PM 11.43 52.574 0.081 6.87 9.66 10.8
10/23/2021 9:45:00 PM 11.41 52.538 0.081 6.81 9.39 10.77
10/23/2021 10:00:00 PM 11.39 52.502 0.081 6.94 9.72 10.74
10/23/2021 10:15:00 PM 11.36 52.448 0.081 6.94 9.57 10.71
10/23/2021 10:30:00 PM 11.33 52.394 0.081 6.95 9.14 10.69
10/23/2021 10:45:00 PM 11.3 52.34 0.081 6.86 9.06 10.67
10/23/2021 11:00:00 PM 11.27 52.286 0.081 6.93 9.59 10.66
10/23/2021 11:15:00 PM 11.24 52.232 0.081 6.93 10.14 10.65
10/23/2021 11:30:00 PM 11.21 52.178 0.081 6.93 9.72 10.63
10/23/2021 11:45:00 PM 11.18 52.124 0.081 6.83 9.28 10.63
10/24/2021 12:00:00 AM 11.15 52.07 0.081 6.75 9.83 10.63
10/24/2021 12:15:00 AM 11.11 51.998 0.081 6.9 9.36 10.63
10/24/2021 12:30:00 AM 11.08 51.944 0.081 6.85 10.24 10.63
10/24/2021 12:45:00 AM 11.04 51.872 0.081 6.92 9.23 10.62
10/24/2021 1:00:00 AM 11.01 51.818 0.081 6.92 9.75 10.63
10/24/2021 1:15:00 AM 10.98 51.764 0.081 6.91 9.5 10.63
10/24/2021 1:30:00 AM 10.95 51.71 0.082 6.88 9.68 10.63
10/24/2021 1:45:00 AM 10.92 51.656 0.082 6.88 9.87 10.62
10/24/2021 2:00:00 AM 10.89 51.602 0.082 6.9 9.46 10.63
10/24/2021 2:15:00 AM 10.87 51.566 0.082 6.89 10.08 10.64
10/24/2021 2:30:00 AM 10.85 51.53 0.082 6.89 9.42 10.64
10/24/2021 2:45:00 AM 10.82 51.476 0.082 6.89 9.69 10.64
10/24/2021 3:00:00 AM 10.79 51.422 0.082 6.89 9.38 10.64
10/24/2021 3:15:00 AM 10.75 51.35 0.082 6.88 9.42 10.65
10/24/2021 3:30:00 AM 10.73 51.314 0.082 6.89 9.07 10.65
10/24/2021 3:45:00 AM 10.71 51.278 0.082 6.89 9.2 10.66
10/24/2021 4:00:00 AM 10.68 51.224 0.082 6.88 9.41 10.66
10/24/2021 4:15:00 AM 10.65 51.17 0.082 6.88 9.94 10.67
10/24/2021 4:30:00 AM 10.62 51.116 0.082 6.88 10.51 10.67
10/24/2021 4:45:00 AM 10.59 51.062 0.082 6.88 9.73 10.68
10/24/2021 5:00:00 AM 10.57 51.026 0.082 6.88 9.31 10.68
10/24/2021 5:15:00 AM 10.55 50.99 0.082 6.88 9.39 10.69
10/24/2021 5:30:00 AM 10.53 50.954 0.082 6.89 9.65 10.7
10/24/2021 5:45:00 AM 10.5 50.9 0.082 6.87 9.67 10.71
10/24/2021 6:00:00 AM 10.47 50.846 0.082 6.89 9.7 10.71
10/24/2021 6:15:00 AM 10.45 50.81 0.082 6.89 10.26 10.72
10/24/2021 6:30:00 AM 10.42 50.756 0.082 6.88 9.91 10.73
10/24/2021 6:45:00 AM 10.4 50.72 0.082 6.89 9.42 10.74
10/24/2021 7:00:00 AM 10.38 50.684 0.082 6.87 10.35 10.75
10/24/2021 7:15:00 AM 10.35 50.63 0.082 6.88 10.32 10.75
10/24/2021 7:30:00 AM 10.33 50.594 0.082 6.88 9.69 10.77
10/24/2021 7:45:00 AM 10.32 50.576 0.082 6.88 9.89 10.8
10/24/2021 8:00:00 AM 10.31 50.558 0.082 6.88 9.89 10.85
10/24/2021 8:15:00 AM 10.3 50.54 0.082 6.89 9.98 10.92
10/24/2021 8:30:00 AM 10.3 50.54 0.082 6.89 10.58 11.02
10/24/2021 8:45:00 AM 10.3 50.54 0.082 6.91 9.65 11.14
10/24/2021 9:00:00 AM 10.3 50.54 0.082 6.92 9.99 11.27
10/24/2021 9:15:00 AM 10.31 50.558 0.082 6.93 10.6 11.41
10/24/2021 9:30:00 AM 10.33 50.594 0.082 6.95 10.22 11.56
10/24/2021 9:45:00 AM 10.35 50.63 0.082 6.91 9.75 11.68
10/24/2021 10:00:00 AM 10.37 50.666 0.081 6.98 9.77 11.76
10/24/2021 10:15:00 AM 10.39 50.702 0.081 7.01 10.27 11.9
10/24/2021 10:30:00 AM 10.44 50.792 0.081 7.03 9.75 12.06
10/24/2021 10:45:00 AM 10.49 50.882 0.081 7.05 9.79 12.17
10/24/2021 11:00:00 AM 10.55 50.99 0.081 7.08 9.86 12.28
10/24/2021 11:15:00 AM 10.61 51.098 0.081 7.1 9.66 12.39
10/24/2021 11:30:00 AM 10.7 51.26 0.081 7.12 9.78 12.51
10/24/2021 11:45:00 AM 10.79 51.422 0.081 7.16 10.37 12.6
10/24/2021 12:00:00 PM 10.86 51.548 0.081 7.17 10.07 12.68
10/24/2021 12:15:00 PM 10.95 51.71 0.081 7.21 9.7 12.75
10/24/2021 12:30:00 PM 11.03 51.854 0.081 7.23 10.33 12.79
10/24/2021 12:45:00 PM 11.06 51.908 0.081 7.08 10.24 12.8
10/24/2021 1:00:00 PM 11.08 51.944 0.081 7.25 9.62 12.82
10/24/2021 1:15:00 PM 11.11 51.998 0.081 7.27 9.84 12.82
10/24/2021 1:30:00 PM 11.12 52.016 0.081 7.07 9.32 12.82
10/24/2021 1:45:00 PM 11.14 52.052 0.081 7.3 9.04 12.84
10/24/2021 2:00:00 PM 11.14 52.052 0.081 7.12 9.64 12.77
10/24/2021 2:15:00 PM 11.13 52.034 0.081 7.15 9.48 12.67
10/24/2021 2:30:00 PM 11.15 52.07 0.081 7.26 11.74 12.67
10/24/2021 2:45:00 PM 11.21 52.178 0.081 7.29 10.24 12.78
10/24/2021 3:00:00 PM 11.26 52.268 0.081 7.29 9.5 12.83
10/24/2021 3:15:00 PM 11.29 52.322 0.081 7.3 10.15 12.77
10/24/2021 3:30:00 PM 11.31 52.358 0.081 7.29 10.12 12.7
10/24/2021 3:45:00 PM 11.33 52.394 0.081 7.27 10.81 12.61
10/24/2021 4:00:00 PM 11.35 52.43 0.081 7.25 10.69 12.53
10/24/2021 4:15:00 PM 11.37 52.466 0.081 7.28 11.63 12.51
10/24/2021 4:30:00 PM 11.37 52.466 0.081 7.24 11.32 12.39
10/24/2021 4:45:00 PM 11.36 52.448 0.081 7.21 12.7 12.23
10/24/2021 5:00:00 PM 11.36 52.448 0.081 7.08 12.44 12.12
10/24/2021 5:15:00 PM 11.37 52.466 0.081 7.15 11.94 12.06
10/24/2021 5:30:00 PM 11.37 52.466 0.081 7.15 11.64 11.93
10/24/2021 5:45:00 PM 11.37 52.466 0.081 6.97 10.59 11.79
10/24/2021 6:00:00 PM 11.37 52.466 0.081 7.11 12.05 11.69
10/24/2021 6:15:00 PM 11.38 52.484 0.081 7.09 13.75 11.59
10/24/2021 6:30:00 PM 11.39 52.502 0.081 7.07 13.01 11.52
10/24/2021 6:45:00 PM 11.39 52.502 0.081 7.04 13.5 11.44
10/24/2021 7:00:00 PM 11.39 52.502 0.081 7.05 12.47 11.36
10/24/2021 7:15:00 PM 11.39 52.502 0.081 7.04 10.71 11.29
10/24/2021 7:30:00 PM 11.39 52.502 0.081 6.91 11.46 11.22
10/24/2021 7:45:00 PM 11.39 52.502 0.081 7.01 11.65 11.17
10/24/2021 8:00:00 PM 11.39 52.502 0.081 7 10.7 11.11
10/24/2021 8:15:00 PM 11.39 52.502 0.081 6.97 9.98 11.06
10/24/2021 8:30:00 PM 11.39 52.502 0.081 6.99 10.33 11.02
10/24/2021 8:45:00 PM 11.39 52.502 0.081 6.96 10.52 10.97
10/24/2021 9:00:00 PM 11.39 52.502 0.081 6.95 10.93 10.92
10/24/2021 9:15:00 PM 11.39 52.502 0.081 6.95 9.56 10.88
10/24/2021 9:30:00 PM 11.39 52.502 0.081 6.95 9.97 10.84
10/24/2021 9:45:00 PM 11.39 52.502 0.084 6.79 9.96 10.81
10/24/2021 10:00:00 PM 11.39 52.502 0.085 6.94 9.98 10.77
10/24/2021 10:15:00 PM 11.38 52.484 0.085 6.9 10.26 10.74
10/24/2021 10:30:00 PM 11.38 52.484 0.085 6.92 10.74 10.71
10/24/2021 10:45:00 PM 11.38 52.484 0.085 6.92 10.57 10.69
10/24/2021 11:00:00 PM 11.37 52.466 0.085 6.77 11.91 10.67
10/24/2021 11:15:00 PM 11.36 52.448 0.085 6.9 10.92 10.65
10/24/2021 11:30:00 PM 11.35 52.43 0.085 6.91 11.43 10.64
10/24/2021 11:45:00 PM 11.34 52.412 0.085 6.9 11.7 10.63
10/25/2021 12:00:00 AM 11.33 52.394 0.085 6.89 11.78 10.62
10/25/2021 12:15:00 AM 11.33 52.394 0.085 6.9 12.51 10.61
10/25/2021 12:30:00 AM 11.32 52.376 0.085 6.73 13.57 10.59
10/25/2021 12:45:00 AM 11.31 52.358 0.085 6.87 12.83 10.59
10/25/2021 1:00:00 AM 11.3 52.34 0.086 6.86 12.8 10.57
10/25/2021 1:15:00 AM 11.29 52.322 0.087 6.78 11.81 10.56
10/25/2021 1:30:00 AM 11.28 52.304 0.089 6.92 12.19 10.55
10/25/2021 1:45:00 AM 11.27 52.286 0.089 6.84 11.51 10.55
10/25/2021 2:00:00 AM 11.26 52.268 0.09 6.87 12.08 10.54
10/25/2021 2:15:00 AM 11.25 52.25 0.091 6.87 11.55 10.55
10/25/2021 2:30:00 AM 11.23 52.214 0.091 6.88 12.27 10.55
10/25/2021 2:45:00 AM 11.2 52.16 0.091 6.87 12.87 10.57
10/25/2021 3:00:00 AM 11.16 52.088 0.091 6.88 7.7 10.6
10/25/2021 3:15:00 AM 11.14 52.052 0.092 6.9 11.29 10.63
10/25/2021 3:30:00 AM 11.12 52.016 0.093 6.9 8.52 10.65
10/25/2021 3:45:00 AM 11.11 51.998 0.093 6.89 9.7 10.67
10/25/2021 4:00:00 AM 11.1 51.98 0.093 6.93 9.41 10.68
10/25/2021 4:15:00 AM 11.09 51.962 0.092 6.8 9.78 10.69
10/25/2021 4:30:00 AM 11.08 51.944 0.091 6.89 10.74 10.7
10/25/2021 4:45:00 AM 11.07 51.926 0.091 6.93 11.55 10.69
10/25/2021 5:00:00 AM 11.06 51.908 0.09 6.92 10.03 10.7
10/25/2021 5:15:00 AM 11.05 51.89 0.09 6.93 10.33 10.71
10/25/2021 5:30:00 AM 11.03 51.854 0.089 6.93 10.82 10.72
10/25/2021 5:45:00 AM 11.01 51.818 0.089 6.94 10.88 10.72
10/25/2021 6:00:00 AM 10.99 51.782 0.088 6.92 11.72 10.74
10/25/2021 6:15:00 AM 10.97 51.746 0.088 6.96 12.02 10.76
10/25/2021 6:30:00 AM 10.95 51.71 0.087 6.88 11.42 10.76
10/25/2021 6:45:00 AM 10.94 51.692 0.087 6.86 11.62 10.77
10/25/2021 7:00:00 AM 10.93 51.674 0.087 6.93 11.84 10.78
10/25/2021 7:15:00 AM 10.92 51.656 0.086 6.92 12.1 10.78
10/25/2021 7:30:00 AM 10.91 51.638 0.085 6.92 11.64 10.79
10/25/2021 7:45:00 AM 10.91 51.638 0.085 6.94 11.2 10.81
10/25/2021 8:00:00 AM 10.9 51.62 0.084 6.79 11.2 10.83
10/25/2021 8:15:00 AM 10.89 51.602 0.083 6.91 13.97 10.87
10/25/2021 8:30:00 AM 10.9 51.62 0.083 6.93 10.82 10.93
10/25/2021 8:45:00 AM 10.91 51.638 0.083 6.93 11.62 10.97
10/25/2021 9:00:00 AM 10.93 51.674 0.082 6.94 12.28 11.03
10/25/2021 9:15:00 AM 10.95 51.71 0.082 6.96 12.61 11.09
10/25/2021 9:30:00 AM 10.98 51.764 0.082 6.97 15.95 11.14
10/25/2021 9:45:00 AM 11.05 51.89 0.082 6.81 14.67 11.24
10/25/2021 10:00:00 AM 11.12 52.016 0.082 6.99 12.27 11.32
10/25/2021 10:15:00 AM 11.18 52.124 0.082 6.91 11.62 11.36
10/25/2021 10:30:00 AM 11.26 52.268 0.082 6.99 11.61 11.43
10/25/2021 10:45:00 AM 11.36 52.448 0.081 7.01 11.62 11.49
10/25/2021 11:00:00 AM 11.48 52.664 0.081 7.03 14.53 11.58
10/25/2021 11:15:00 AM 11.71 53.078 0.087 7.46 6.56 11.01
10/25/2021 11:30:00 AM 11.82 53.276 0.086 7.1 6.22 11.12
10/25/2021 11:45:00 AM 11.97 53.546 0.085 7.06 6.18 11.18
10/25/2021 12:00:00 PM 12.13 53.834 0.085 7.12 6.32 11.23
10/25/2021 12:15:00 PM 12.28 54.104 0.085 7.2 6 11.29
10/25/2021 12:30:00 PM 12.45 54.41 0.084 7.25 5.96 11.33
10/25/2021 12:45:00 PM 12.61 54.698 0.084 7.28 5.72 11.36
10/25/2021 1:00:00 PM 12.78 55.004 0.084 7.3 5.69 11.38
10/25/2021 1:15:00 PM 12.94 55.292 0.084 7.32 5.46 11.42
10/25/2021 1:30:00 PM 13.09 55.562 0.084 7.34 5.2 11.44
10/25/2021 1:45:00 PM 13.22 55.796 0.084 7.37 5.5 11.44
10/25/2021 2:00:00 PM 13.35 56.03 0.084 7.38 5.3 11.44
10/25/2021 2:15:00 PM 13.46 56.228 0.084 7.4 5.15 11.44
10/25/2021 2:30:00 PM 13.56 56.408 0.084 7.42 5.09 11.42
10/25/2021 2:45:00 PM 13.65 56.57 0.084 7.42 4.87 11.4
10/25/2021 3:00:00 PM 13.72 56.696 0.084 7.42 5.01 11.35
10/25/2021 3:15:00 PM 13.77 56.786 0.083 7.43 4.83 11.31
10/25/2021 3:30:00 PM 13.81 56.858 0.083 7.43 4.66 11.24
10/25/2021 3:45:00 PM 13.81 56.858 0.084 7.39 4.43 11.12
10/25/2021 4:00:00 PM 13.83 56.894 0.083 7.39 4.51 11.1
10/25/2021 4:15:00 PM 13.85 56.93 0.083 7.38 4.54 11.03
10/25/2021 4:30:00 PM 13.89 57.002 0.083 7.37 4.43 10.94
10/25/2021 4:45:00 PM 13.95 57.11 0.083 7.36 4.26 10.9
10/25/2021 5:00:00 PM 14 57.2 0.083 7.34 4.36 10.78
10/25/2021 5:15:00 PM 14.03 57.254 0.083 7.32 4.33 10.67
10/25/2021 5:30:00 PM 14.05 57.29 0.083 7.29 4.27 10.54
10/25/2021 5:45:00 PM 14.08 57.344 0.083 7.26 4.32 10.4
10/25/2021 6:00:00 PM 14.1 57.38 0.083 7.23 4.16 10.29
10/25/2021 6:15:00 PM 14.13 57.434 0.083 7.21 4.18 10.19
10/25/2021 6:30:00 PM 14.15 57.47 0.083 7.19 4.41 10.1
10/25/2021 6:45:00 PM 14.16 57.488 0.083 7.17 4.28 10.03
10/25/2021 7:00:00 PM 14.16 57.488 0.084 7.15 4.39 9.96
10/25/2021 7:15:00 PM 14.15 57.47 0.084 7.14 4.17 9.89
10/25/2021 7:30:00 PM 14.13 57.434 0.084 7.12 4.38 9.83
10/25/2021 7:45:00 PM 14.1 57.38 0.084 7.11 4.23 9.77
10/25/2021 8:00:00 PM 14.06 57.308 0.084 7.1 4.03 9.72
10/25/2021 8:15:00 PM 14.03 57.254 0.084 7.08 4.07 9.66
10/25/2021 8:30:00 PM 13.99 57.182 0.084 7.07 4.23 9.63
10/25/2021 8:45:00 PM 13.96 57.128 0.084 7.07 4.03 9.59
10/25/2021 9:00:00 PM 13.92 57.056 0.084 7.06 4.17 9.56
10/25/2021 9:15:00 PM 13.89 57.002 0.084 7.05 3.81 9.54
10/25/2021 9:30:00 PM 13.86 56.948 0.084 7.04 4.01 9.52
10/25/2021 9:45:00 PM 13.83 56.894 0.084 7.04 4.14 9.51
10/25/2021 10:00:00 PM 13.8 56.84 0.085 7.03 4.29 9.5
10/25/2021 10:15:00 PM 13.76 56.768 0.085 7.02 4.11 9.48
10/25/2021 10:30:00 PM 13.73 56.714 0.085 7.02 3.97 9.47
10/25/2021 10:45:00 PM 13.7 56.66 0.085 7.01 3.86 9.47
10/25/2021 11:00:00 PM 13.68 56.624 0.085 7.03 3.92 9.46
10/25/2021 11:15:00 PM 13.64 56.552 0.085 7.03 3.89 9.45
10/25/2021 11:30:00 PM 13.61 56.498 0.085 7.03 3.98 9.44
10/25/2021 11:45:00 PM 13.58 56.444 0.085 7.02 4 9.44
10/26/2021 12:00:00 AM 13.55 56.39 0.085 7.02 3.93 9.43
10/26/2021 12:15:00 AM 13.52 56.336 0.085 7.01 4.05 9.43
10/26/2021 12:30:00 AM 13.48 56.264 0.085 7.01 4.04 9.43
10/26/2021 12:45:00 AM 13.45 56.21 0.086 7.01 3.99 9.43
10/26/2021 1:00:00 AM 13.42 56.156 0.086 7 3.99 9.43
10/26/2021 1:15:00 AM 13.4 56.12 0.086 7 4.06 9.43
10/26/2021 1:30:00 AM 13.37 56.066 0.086 7 3.97 9.44
10/26/2021 1:45:00 AM 13.34 56.012 0.086 6.99 3.89 9.43
10/26/2021 2:00:00 AM 13.32 55.976 0.086 6.99 3.86 9.44
10/26/2021 2:15:00 AM 13.29 55.922 0.086 7 3.92 9.45
10/26/2021 2:30:00 AM 13.27 55.886 0.086 6.99 4.09 9.45
10/26/2021 2:45:00 AM 13.26 55.868 0.086 6.99 3.78 9.45
10/26/2021 3:00:00 AM 13.24 55.832 0.086 7 3.8 9.45
10/26/2021 3:15:00 AM 13.22 55.796 0.086 6.99 3.71 9.45
10/26/2021 3:30:00 AM 13.21 55.778 0.086 6.99 3.93 9.46
10/26/2021 3:45:00 AM 13.19 55.742 0.086 6.99 3.79 9.46
10/26/2021 4:00:00 AM 13.18 55.724 0.086 7 4 9.46
10/26/2021 4:15:00 AM 13.17 55.706 0.086 6.99 4.05 9.47
10/26/2021 4:30:00 AM 13.15 55.67 0.086 7 4.3 9.47
10/26/2021 4:45:00 AM 13.14 55.652 0.086 7 5.49 9.48
10/26/2021 5:00:00 AM 13.13 55.634 0.086 7.01 6.66 9.49
10/26/2021 5:15:00 AM 13.12 55.616 0.086 7.01 5.36 9.49
10/26/2021 5:30:00 AM 13.11 55.598 0.086 7.01 5.83 9.48
10/26/2021 5:45:00 AM 13.1 55.58 0.086 7 5.03 9.49
10/26/2021 6:00:00 AM 13.09 55.562 0.087 7 5.14 9.49
10/26/2021 6:15:00 AM 13.08 55.544 0.088 7.01 5.06 9.49
10/26/2021 6:30:00 AM 13.07 55.526 0.089 7.01 4.89 9.49
10/26/2021 6:45:00 AM 13.06 55.508 0.089 7.01 4.72 9.5
10/26/2021 7:00:00 AM 13.04 55.472 0.09 7.01 4.65 9.5
10/26/2021 7:15:00 AM 13.03 55.454 0.09 7.02 4.57 9.51
10/26/2021 7:30:00 AM 13.01 55.418 0.091 7.02 4.39 9.52
10/26/2021 7:45:00 AM 12.99 55.382 0.092 7.03 4.72 9.54
10/26/2021 8:00:00 AM 12.97 55.346 0.092 7.03 5.02 9.56
10/26/2021 8:15:00 AM 12.96 55.328 0.093 7.05 4.81 9.59
10/26/2021 8:30:00 AM 12.95 55.31 0.093 7.06 4.95 9.63
10/26/2021 8:45:00 AM 12.95 55.31 0.094 7.08 5 9.66
10/26/2021 9:00:00 AM 12.94 55.292 0.094 7.08 5.01 9.69
10/26/2021 9:15:00 AM 12.94 55.292 0.094 7.09 5.34 9.72
10/26/2021 9:30:00 AM 12.94 55.292 0.094 7.1 5.78 9.74
10/26/2021 9:45:00 AM 12.94 55.292 0.093 7.11 6.61 9.79
10/26/2021 10:00:00 AM 12.94 55.292 0.093 7.13 8.42 9.84
10/26/2021 10:15:00 AM 12.94 55.292 0.093 7.14 8.5 9.86
10/26/2021 10:30:00 AM 12.93 55.274 0.093 7.14 9.36 9.89
10/26/2021 10:45:00 AM 12.93 55.274 0.093 7.14 12.93 9.91
10/26/2021 11:00:00 AM 12.93 55.274 0.093 7.16 10.47 9.93
10/26/2021 11:15:00 AM 12.92 55.256 0.093 7.16 16.25 9.93
10/26/2021 11:30:00 AM 12.91 55.238 0.094 7.18 18.64 9.95
10/26/2021 11:45:00 AM 12.89 55.202 0.094 7.19 42.13 9.96
10/26/2021 12:00:00 PM 12.89 55.202 0.096 7.2 37.76 9.98
10/26/2021 12:15:00 PM 12.89 55.202 0.096 7.21 39.49 10
10/26/2021 12:30:00 PM 12.87 55.166 0.097 7.19 47.35 10.03
10/26/2021 12:45:00 PM 12.83 55.094 0.096 7.17 83.76 10.06
10/26/2021 1:00:00 PM 12.78 55.004 0.09 7.16 145.96 10.09
10/26/2021 1:15:00 PM 12.74 54.932 0.084 7.13 256.12 10.1
10/26/2021 1:30:00 PM 12.71 54.878 0.078 7.1 130.15 10.1
10/26/2021 1:45:00 PM 12.68 54.824 0.074 7.05 131.36 10.09
10/26/2021 2:00:00 PM 12.66 54.788 0.069 7 150 10.1
10/26/2021 2:15:00 PM 12.63 54.734 0.064 6.93 177.68 10.09
10/26/2021 2:30:00 PM 12.6 54.68 0.063 6.92 237.04 10.07
10/26/2021 2:45:00 PM 12.57 54.626 0.058 6.91 266.23 10.08
10/26/2021 3:00:00 PM 12.54 54.572 0.056 6.9 289.58 10.07
10/26/2021 3:15:00 PM 12.53 54.554 0.028 6.88 306.51 10.08
10/26/2021 3:30:00 PM 12.5 54.5 0.052 6.79 3603.64 10.08
10/26/2021 3:45:00 PM 12.48 54.464 0.05 6.84 3736.04 10.08
10/26/2021 4:00:00 PM 12.46 54.428 0.052 6.73 668.86 10.06
10/26/2021 4:15:00 PM 12.43 54.374 0.052 6.72 849.35 10.05
10/26/2021 4:30:00 PM 12.41 54.338 0.05 6.72 726.42 10.05
10/26/2021 4:45:00 PM 12.39 54.302 0.05 6.74 653.34 10.03
10/26/2021 5:00:00 PM 12.37 54.266 0.05 6.75 583.26 10.02
10/26/2021 5:15:00 PM 12.36 54.248 0.05 6.76 535.48 10.02
10/26/2021 5:30:00 PM 12.34 54.212 0.049 6.79 550.56 10.02
10/26/2021 5:45:00 PM 12.32 54.176 0.049 6.77 613.98 10.01
10/26/2021 6:00:00 PM 12.29 54.122 0.048 6.76 664.6 10.01
10/26/2021 6:15:00 PM 12.28 54.104 0.049 6.76 647.53 10.01
10/26/2021 6:30:00 PM 12.26 54.068 0.049 6.76 712.19 10
10/26/2021 6:45:00 PM 12.24 54.032 0.049 6.71 665.36 9.98
10/26/2021 7:00:00 PM 12.23 54.014 0.049 6.69 544.07 9.99
10/26/2021 7:15:00 PM 12.22 53.996 0.049 6.73 372.54 9.98
10/26/2021 7:30:00 PM 12.22 53.996 0.049 6.74 329.76 9.98
10/26/2021 7:45:00 PM 12.21 53.978 0.049 6.67 328.07 9.97
10/26/2021 8:00:00 PM 12.21 53.978 0.048 6.7 849.28 9.95
10/26/2021 8:15:00 PM 12.21 53.978 0.051 6.68 165.07 9.93
10/26/2021 8:30:00 PM 12.21 53.978 0.056 6.7 156.52 9.92
10/26/2021 8:45:00 PM 12.22 53.996 0.06 6.71 139.99 9.89
10/26/2021 9:00:00 PM 12.22 53.996 0.039 6.7 175.58 9.86
10/26/2021 9:15:00 PM 12.22 53.996 0.043 6.69 127.5 9.9
10/26/2021 9:30:00 PM 12.22 53.996 0.043 6.69 128.25 9.85
10/26/2021 9:45:00 PM 12.23 54.014 0.044 6.68 120.44 9.87
10/26/2021 10:00:00 PM 12.23 54.014 0.044 6.7 116.35 9.87
10/26/2021 10:15:00 PM 12.24 54.032 0.05 6.7 103.18 9.85
10/26/2021 10:30:00 PM 12.24 54.032 0.051 6.72 102.25 9.84
10/26/2021 10:45:00 PM 12.25 54.05 0.051 6.7 87.39 9.85
10/26/2021 11:00:00 PM 12.25 54.05 0.043 6.7 88.57 9.85
10/26/2021 11:15:00 PM 12.25 54.05 0.049 6.72 78.41 9.83
10/26/2021 11:30:00 PM 12.26 54.068 0.048 6.72 80.74 9.89
10/26/2021 11:45:00 PM 12.26 54.068 0.05 6.73 77.01 9.84
10/27/2021 12:00:00 AM 12.26 54.068 0.051 6.72 74.33 9.84
10/27/2021 12:15:00 AM 12.26 54.068 0.045 6.73 70.87 9.92
10/27/2021 12:30:00 AM 12.26 54.068 0.05 6.74 712.13 10
10/27/2021 12:45:00 AM 12.25 54.05 0.049 6.77 1433.02 9.99
10/27/2021 1:00:00 AM 12.25 54.05 0.049 6.74 1313.14 9.99
10/27/2021 1:15:00 AM 12.25 54.05 0.049 6.74 2373.75 9.97
10/27/2021 1:30:00 AM 12.25 54.05 0.05 6.78 2294.07 9.98
10/27/2021 1:45:00 AM 12.25 54.05 0.05 6.78 2470.46 9.99
10/27/2021 2:00:00 AM 12.24 54.032 0.05 6.75 1205.74 9.97
10/27/2021 2:15:00 AM 12.24 54.032 0.044 6.78 2294.81 9.96
10/27/2021 2:30:00 AM 12.24 54.032 0.048 6.76 2438.97 9.97
10/27/2021 2:45:00 AM 12.24 54.032 0.047 6.77 2673.4 9.96
10/27/2021 3:00:00 AM 12.24 54.032 0.048 6.78 2488.52 9.93
10/27/2021 3:15:00 AM 12.23 54.014 0.044 6.77 2849.25 9.94
10/27/2021 3:30:00 AM 12.23 54.014 0.049 6.76 2682.57 9.97
10/27/2021 3:45:00 AM 12.23 54.014 0.029 6.76 3150.48 9.99
10/27/2021 4:00:00 AM 12.22 53.996 0.051 6.76 1110.37 10.04
10/27/2021 4:15:00 AM 12.22 53.996 0.051 6.76 483.66 10.08
10/27/2021 4:30:00 AM 12.21 53.978 0.051 6.77 42.63 10.08
10/27/2021 4:45:00 AM 12.2 53.96 0.051 6.78 42.94 10.09
10/27/2021 5:00:00 AM 12.19 53.942 0.052 6.78 48.61 10.09
10/27/2021 5:15:00 AM 12.19 53.942 0.052 6.79 41.46 10.09
10/27/2021 5:30:00 AM 12.18 53.924 0.052 6.8 42.34 10.09
10/27/2021 5:45:00 AM 12.16 53.888 0.052 6.79 46.06 10.1
10/27/2021 6:00:00 AM 12.15 53.87 0.054 6.79 48.74 10.1
10/27/2021 6:15:00 AM 12.14 53.852 0.052 6.77 47.25 10.1
10/27/2021 6:30:00 AM 12.12 53.816 0.052 6.78 708.84 10.11
10/27/2021 6:45:00 AM 12.11 53.798 0.052 6.8 53.15 10.11
10/27/2021 7:00:00 AM 12.09 53.762 0.052 6.79 41.74 10.12
10/27/2021 7:15:00 AM 12.08 53.744 0.052 6.79 43.82 10.12
10/27/2021 7:30:00 AM 12.06 53.708 0.053 6.78 37.04 10.13
10/27/2021 7:45:00 AM 12.04 53.672 0.053 6.79 61.37 10.13
10/27/2021 8:00:00 AM 12.03 53.654 0.053 6.79 37.18 10.13
10/27/2021 8:15:00 AM 12.01 53.618 0.053 6.81 69.87 10.14
10/27/2021 8:30:00 AM 12 53.6 0.053 6.79 35.92 10.15
10/27/2021 8:45:00 AM 11.98 53.564 0.053 6.81 36.68 10.17
10/27/2021 9:00:00 AM 11.97 53.546 0.053 6.8 34.95 10.17
10/27/2021 9:15:00 AM 11.97 53.546 0.053 6.81 31.94 10.18
10/27/2021 9:30:00 AM 11.96 53.528 0.053 6.79 31.84 10.19
10/27/2021 9:45:00 AM 11.95 53.51 0.054 6.81 33.33 10.19
10/27/2021 10:00:00 AM 11.95 53.51 0.054 6.82 32.66 10.2
10/27/2021 10:15:00 AM 11.94 53.492 0.054 6.8 31.84 10.21
10/27/2021 10:30:00 AM 11.94 53.492 0.053 6.79 38.83 10.21
10/27/2021 10:45:00 AM 11.94 53.492 0.054 6.81 32.37 10.21
10/27/2021 11:00:00 AM 11.94 53.492 0.054 6.8 30.53 10.22
10/27/2021 11:15:00 AM 11.95 53.51 0.054 6.81 30.76 10.22
10/27/2021 11:30:00 AM 11.96 53.528 0.054 6.82 30.08 10.23
10/27/2021 11:45:00 AM 11.95 53.51 0.054 6.82 29.19 10.23
10/27/2021 12:00:00 PM 11.99 53.582 0.054 6.81 33.27 10.24
10/27/2021 12:15:00 PM 12.03 53.654 0.054 6.82 29.46 10.25
10/27/2021 12:30:00 PM 12.06 53.708 0.054 6.81 40.28 10.24
10/27/2021 12:45:00 PM 12.09 53.762 0.054 6.82 42 10.24
10/27/2021 1:00:00 PM 12.12 53.816 0.055 6.82 31.53 10.24
10/27/2021 1:15:00 PM 12.15 53.87 0.055 6.84 30.27 10.25
10/27/2021 1:30:00 PM 12.17 53.906 0.055 6.84 27.45 10.25
10/27/2021 1:45:00 PM 12.21 53.978 0.055 6.84 26.7 10.25
10/27/2021 2:00:00 PM 12.25 54.05 0.055 6.82 24.91 10.25
10/27/2021 2:15:00 PM 12.29 54.122 0.055 6.83 29.26 10.24
10/27/2021 2:30:00 PM 12.31 54.158 0.055 6.83 27.16 10.24
10/27/2021 2:45:00 PM 12.33 54.194 0.055 6.84 25.72 10.24
10/27/2021 3:00:00 PM 12.37 54.266 0.055 6.85 28.69 10.23
10/27/2021 3:15:00 PM 12.4 54.32 0.054 6.85 30 10.23
10/27/2021 3:30:00 PM 12.43 54.374 0.056 6.85 39.98 10.22
10/27/2021 3:45:00 PM 12.44 54.392 0.055 6.85 90.79 10.21
10/27/2021 4:00:00 PM 12.45 54.41 0.056 6.87 21.25 10.2
10/27/2021 4:15:00 PM 12.45 54.41 0.056 6.87 31 10.2
10/27/2021 4:30:00 PM 12.44 54.392 0.056 6.86 3681.48 10.19
10/27/2021 4:45:00 PM 12.42 54.356 0.055 6.85 918.05 10.18
10/27/2021 5:00:00 PM 12.4 54.32 0.056 6.84 55.15 10.18
10/27/2021 5:15:00 PM 12.37 54.266 0.056 6.85 21.59 10.17
10/27/2021 5:30:00 PM 12.34 54.212 0.056 6.86 22.3 10.18
10/27/2021 5:45:00 PM 12.3 54.14 0.056 6.85 22.87 10.17
10/27/2021 6:00:00 PM 12.26 54.068 0.056 6.84 20.61 10.17
10/27/2021 6:15:00 PM 12.22 53.996 0.056 6.84 21.22 10.17
10/27/2021 6:30:00 PM 12.17 53.906 0.056 6.84 21.45 10.18
10/27/2021 6:45:00 PM 12.12 53.816 0.057 6.84 20.05 10.18
10/27/2021 7:00:00 PM 12.08 53.744 0.056 6.83 19.55 10.18
10/27/2021 7:15:00 PM 12.04 53.672 0.057 6.84 19.89 10.19
10/27/2021 7:30:00 PM 12.01 53.618 0.057 6.84 21.04 10.2
10/27/2021 7:45:00 PM 11.97 53.546 0.057 6.82 14.84 10.2
10/27/2021 8:00:00 PM 11.93 53.474 0.057 6.84 20.63 10.21
10/27/2021 8:15:00 PM 11.89 53.402 0.057 6.83 20.06 10.22
10/27/2021 8:30:00 PM 11.84 53.312 0.057 6.83 21.3 10.24
10/27/2021 8:45:00 PM 11.8 53.24 0.057 6.83 52.61 10.25
10/27/2021 9:00:00 PM 11.76 53.168 0.057 6.83 20.25 10.25
10/27/2021 9:15:00 PM 11.72 53.096 0.057 6.83 62.94 10.26
10/27/2021 9:30:00 PM 11.67 53.006 0.057 6.87 18.22 10.26
10/27/2021 9:45:00 PM 11.63 52.934 0.057 6.84 9033.83 10.26
10/27/2021 10:00:00 PM 11.58 52.844 0.057 6.84 3420.83 10.28
10/27/2021 10:15:00 PM 11.54 52.772 0.058 6.82 6338.47 10.28
10/27/2021 10:30:00 PM 11.49 52.682 0.057 6.81 3505.04 10.29
10/27/2021 10:45:00 PM 11.44 52.592 0.058 6.82 23.84 10.3
10/27/2021 11:00:00 PM 11.39 52.502 0.058 6.82 280.71 10.31
10/27/2021 11:15:00 PM 11.34 52.412 0.058 6.82 26.26 10.33
10/27/2021 11:30:00 PM 11.29 52.322 0.058 6.82 13.76 10.33
10/27/2021 11:45:00 PM 11.24 52.232 0.058 6.82 28.85 10.35
10/28/2021 12:00:00 AM 11.19 52.142 0.058 6.81 13.9 10.36
10/28/2021 12:15:00 AM 11.14 52.052 0.058 6.81 18.84 10.38
10/28/2021 12:30:00 AM 11.09 51.962 0.058 6.81 17.57 10.39
10/28/2021 12:45:00 AM 11.04 51.872 0.058 6.8 18.72 10.4
10/28/2021 1:00:00 AM 10.99 51.782 0.058 6.8 15.26 10.41
10/28/2021 1:15:00 AM 10.94 51.692 0.058 6.8 19.33 10.42
10/28/2021 1:30:00 AM 10.9 51.62 0.059 6.8 17.63 10.42
10/28/2021 1:45:00 AM 10.86 51.548 0.059 6.8 14.14 10.44
10/28/2021 2:00:00 AM 10.81 51.458 0.059 6.8 17.88 10.45
10/28/2021 2:15:00 AM 10.77 51.386 0.059 6.8 20.06 10.46
10/28/2021 2:30:00 AM 10.73 51.314 0.059 6.83 19.88 10.47
10/28/2021 2:45:00 AM 10.69 51.242 0.059 6.81 15.79 10.48
10/28/2021 3:00:00 AM 10.65 51.17 0.059 6.81 16.62 10.49
10/28/2021 3:15:00 AM 10.61 51.098 0.059 6.8 84.77 10.51
10/28/2021 3:30:00 AM 10.58 51.044 0.059 6.82 273.17 10.52
10/28/2021 3:45:00 AM 10.54 50.972 0.059 6.81 37.88 10.53
10/28/2021 4:00:00 AM 10.51 50.918 0.059 6.82 987.71 10.54
10/28/2021 4:15:00 AM 10.46 50.828 0.059 6.81 489.57 10.56
10/28/2021 4:30:00 AM 10.41 50.738 0.059 6.8 6771.66 10.56
10/28/2021 4:45:00 AM 10.36 50.648 0.059 6.84 14.98 10.58
10/28/2021 5:00:00 AM 10.31 50.558 0.059 6.82 19.14 10.58
10/28/2021 5:15:00 AM 10.26 50.468 0.059 6.81 14.33 10.59
10/28/2021 5:30:00 AM 10.22 50.396 0.059 6.81 15.26 10.6
10/28/2021 5:45:00 AM 10.17 50.306 0.059 6.82 16.64 10.61
10/28/2021 6:00:00 AM 10.12 50.216 0.059 6.81 16.84 10.62
10/28/2021 6:15:00 AM 10.08 50.144 0.059 6.82 14.02 10.64
10/28/2021 6:30:00 AM 10.04 50.072 0.06 6.81 15.99 10.65
10/28/2021 6:45:00 AM 10 50 0.06 6.81 12.31 10.66
10/28/2021 7:00:00 AM 9.96 49.928 0.06 6.82 15.82 10.68
10/28/2021 7:15:00 AM 9.93 49.874 0.06 6.82 7657.82 10.69
10/28/2021 7:30:00 AM 9.9 49.82 0.06 6.82 15.03 10.69
10/28/2021 7:45:00 AM 9.88 49.784 0.06 6.81 5952.72 10.71
10/28/2021 8:00:00 AM 9.86 49.748 0.058 6.81 3680.26 10.71
10/28/2021 8:15:00 AM 9.83 49.694 0.06 6.81 5168.95 10.73
10/28/2021 8:30:00 AM 9.82 49.676 0.06 6.82 3253.59 10.74
10/28/2021 8:45:00 AM 9.8 49.64 0.06 6.81 14.23 10.75
10/28/2021 9:00:00 AM 9.79 49.622 0.061 6.77 16.88 10.76
10/28/2021 9:15:00 AM 9.77 49.586 0.06 6.82 14.46 10.77
10/28/2021 9:30:00 AM 9.77 49.586 0.06 6.82 15.79 10.79
10/28/2021 9:45:00 AM 9.79 49.622 0.06 6.83 16.76 10.8
10/28/2021 10:00:00 AM 9.81 49.658 0.06 6.83 15.82 10.81
10/28/2021 10:15:00 AM 9.83 49.694 0.06 6.83 16.17 10.83
10/28/2021 10:30:00 AM 9.85 49.73 0.061 6.84 18.37 10.84
10/28/2021 10:45:00 AM 9.89 49.802 0.061 6.85 15.99 10.84
10/28/2021 11:00:00 AM 9.94 49.892 0.06 6.85 16.64 10.85
10/28/2021 11:15:00 AM 10.02 50.036 0.061 6.85 16.75 10.84
10/28/2021 11:30:00 AM 10.12 50.216 0.061 6.85 20.84 10.84
10/28/2021 11:45:00 AM 10.22 50.396 0.061 6.85 14.43 10.83
10/28/2021 12:00:00 PM 10.34 50.612 0.061 6.86 13.7 10.83
10/28/2021 12:15:00 PM 10.45 50.81 0.061 6.86 13.15 10.81
10/28/2021 12:30:00 PM 10.56 51.008 0.061 6.86 14.22 10.81
10/28/2021 12:45:00 PM 10.67 51.206 0.061 6.87 13.83 10.78
10/28/2021 1:00:00 PM 10.8 51.44 0.061 6.87 13.26 10.76
10/28/2021 1:15:00 PM 10.93 51.674 0.061 6.88 10.71 10.73
10/28/2021 1:30:00 PM 11.06 51.908 0.061 6.88 12.46 10.71
10/28/2021 1:45:00 PM 11.2 52.16 0.061 6.88 13.89 10.68
10/28/2021 2:00:00 PM 11.33 52.394 0.061 6.88 13.97 10.64
10/28/2021 2:15:00 PM 11.45 52.61 0.061 6.89 13.68 10.61
10/28/2021 2:30:00 PM 11.57 52.826 0.061 6.89 13.09 10.58
10/28/2021 2:45:00 PM 11.67 53.006 0.061 6.89 12.44 10.55
10/28/2021 3:00:00 PM 11.77 53.186 0.061 6.9 17.24 10.52
10/28/2021 3:15:00 PM 11.85 53.33 0.061 6.9 16.69 10.48
10/28/2021 3:30:00 PM 11.92 53.456 0.061 6.9 16.27 10.44
10/28/2021 3:45:00 PM 11.97 53.546 0.061 6.89 14.45 10.42
10/28/2021 4:00:00 PM 12.02 53.636 0.062 6.9 13.67 10.39
10/28/2021 4:15:00 PM 12.06 53.708 0.062 6.9 14.87 10.35
10/28/2021 4:30:00 PM 12.08 53.744 0.061 6.9 11.33 10.33
10/28/2021 4:45:00 PM 12.08 53.744 0.062 6.89 13.46 10.32
10/28/2021 5:00:00 PM 12.07 53.726 0.062 6.89 12.93 10.3
10/28/2021 5:15:00 PM 12.05 53.69 0.062 6.89 13.33 10.28
10/28/2021 5:30:00 PM 12.02 53.636 0.062 6.89 12.6 10.27
10/28/2021 5:45:00 PM 11.99 53.582 0.062 6.89 13.27 10.27
10/28/2021 6:00:00 PM 11.96 53.528 0.062 6.89 15.21 10.25
10/28/2021 6:15:00 PM 11.92 53.456 0.062 6.88 10.96 10.26
10/28/2021 6:30:00 PM 11.88 53.384 0.062 6.88 11.24 10.26
10/28/2021 6:45:00 PM 11.83 53.294 0.062 6.88 16.41 10.24
10/28/2021 7:00:00 PM 11.79 53.222 0.062 6.88 13.27 10.26
10/28/2021 7:15:00 PM 11.75 53.15 0.062 6.87 14.16 10.25
10/28/2021 7:30:00 PM 11.7 53.06 0.062 6.87 14.6 10.26
10/28/2021 7:45:00 PM 11.65 52.97 0.062 6.87 12.22 10.26
10/28/2021 8:00:00 PM 11.59 52.862 0.062 6.87 12.07 10.26
10/28/2021 8:15:00 PM 11.53 52.754 0.062 6.86 14.76 10.27
10/28/2021 8:30:00 PM 11.48 52.664 0.062 6.86 11.62 10.28
10/28/2021 8:45:00 PM 11.42 52.556 0.062 6.86 12.65 10.28
10/28/2021 9:00:00 PM 11.37 52.466 0.063 6.86 13.51 10.29
10/28/2021 9:15:00 PM 11.32 52.376 0.063 6.85 14.03 10.3
10/28/2021 9:30:00 PM 11.27 52.286 0.063 6.85 13.68 10.32
10/28/2021 9:45:00 PM 11.22 52.196 0.063 6.85 13.5 10.32
10/28/2021 10:00:00 PM 11.18 52.124 0.063 6.86 13.95 10.34
10/28/2021 10:15:00 PM 11.13 52.034 0.063 6.85 13.03 10.35
10/28/2021 10:30:00 PM 11.09 51.962 0.063 6.84 12.53 10.35
10/28/2021 10:45:00 PM 11.04 51.872 0.063 6.85 13.08 10.37
10/28/2021 11:00:00 PM 11 51.8 0.063 6.85 13.56 10.37
10/28/2021 11:15:00 PM 10.95 51.71 0.063 6.85 12.86 10.38
10/28/2021 11:30:00 PM 10.91 51.638 0.063 6.85 12.97 10.39
10/28/2021 11:45:00 PM 10.86 51.548 0.063 6.85 13.11 10.4
10/29/2021 12:00:00 AM 10.82 51.476 0.063 6.85 13.03 10.41
10/29/2021 12:15:00 AM 10.77 51.386 0.063 6.85 13.48 10.42
10/29/2021 12:30:00 AM 10.72 51.296 0.063 6.85 13.14 10.43
10/29/2021 12:45:00 AM 10.69 51.242 0.063 6.85 12.73 10.44
10/29/2021 1:00:00 AM 10.65 51.17 0.063 6.86 13.06 10.46
10/29/2021 1:15:00 AM 10.62 51.116 0.063 6.86 13.74 10.47
10/29/2021 1:30:00 AM 10.59 51.062 0.063 6.85 12.89 10.48
10/29/2021 1:45:00 AM 10.57 51.026 0.064 6.85 12.9 10.48
10/29/2021 2:00:00 AM 10.54 50.972 0.064 6.85 12.63 10.49
10/29/2021 2:15:00 AM 10.52 50.936 0.064 6.86 12.66 10.5
10/29/2021 2:30:00 AM 10.51 50.918 0.064 6.86 12.79 10.51
10/29/2021 2:45:00 AM 10.49 50.882 0.064 6.85 12.19 10.51
10/29/2021 3:00:00 AM 10.48 50.864 0.064 6.86 12.36 10.51
10/29/2021 3:15:00 AM 10.46 50.828 0.064 6.86 12.36 10.51
10/29/2021 3:30:00 AM 10.46 50.828 0.064 6.86 12.81 10.51
10/29/2021 3:45:00 AM 10.45 50.81 0.064 6.86 12.89 10.51
10/29/2021 4:00:00 AM 10.46 50.828 0.064 6.87 12.94 10.51
10/29/2021 4:15:00 AM 10.48 50.864 0.064 6.86 13.55 10.51
10/29/2021 4:30:00 AM 10.5 50.9 0.064 6.87 12.27 10.51
10/29/2021 4:45:00 AM 10.52 50.936 0.064 6.88 13.96 10.51
10/29/2021 5:00:00 AM 10.52 50.936 0.064 6.87 19.88 10.51
10/29/2021 5:15:00 AM 10.52 50.936 0.063 6.87 14.27 10.5
10/29/2021 5:30:00 AM 10.53 50.954 0.064 6.87 10.35 10.5
10/29/2021 5:45:00 AM 10.54 50.972 0.064 6.87 10.84 10.5
10/29/2021 6:00:00 AM 10.55 50.99 0.064 6.87 11.31 10.5
10/29/2021 6:15:00 AM 10.55 50.99 0.064 6.86 10.94 10.5
10/29/2021 6:30:00 AM 10.56 51.008 0.064 6.88 10.9 10.5
10/29/2021 6:45:00 AM 10.56 51.008 0.064 6.86 11.16 10.5
10/29/2021 7:00:00 AM 10.56 51.008 0.065 6.88 11.86 10.49
10/29/2021 7:15:00 AM 10.56 51.008 0.064 6.86 11.16 10.49
10/29/2021 7:30:00 AM 10.57 51.026 0.064 6.87 10.96 10.49
10/29/2021 7:45:00 AM 10.58 51.044 0.064 6.86 10.65 10.49
10/29/2021 8:00:00 AM 10.58 51.044 0.065 6.88 11.47 10.5
10/29/2021 8:15:00 AM 10.58 51.044 0.065 6.88 10.5 10.5
10/29/2021 8:30:00 AM 10.58 51.044 0.065 6.87 10.8 10.5
10/29/2021 8:45:00 AM 10.59 51.062 0.065 6.88 11.11 10.51
10/29/2021 9:00:00 AM 10.59 51.062 0.065 6.88 11.49 10.52
10/29/2021 9:15:00 AM 10.59 51.062 0.065 6.88 10.97 10.53
10/29/2021 9:30:00 AM 10.6 51.08 0.065 6.88 9.91 10.54
10/29/2021 9:45:00 AM 10.61 51.098 0.065 6.89 9.49 10.55
10/29/2021 10:00:00 AM 10.62 51.116 0.065 6.89 9.14 10.57
10/29/2021 10:15:00 AM 10.65 51.17 0.065 6.9 9 10.58
10/29/2021 10:30:00 AM 10.65 51.17 0.065 6.91 9.23 10.58
10/29/2021 10:45:00 AM 10.66 51.188 0.065 6.9 8.45 10.59
10/29/2021 11:00:00 AM 10.7 51.26 0.065 6.91 8.67 10.6
10/29/2021 11:15:00 AM 10.76 51.368 0.065 6.91 8.37 10.61
10/29/2021 11:30:00 AM 10.81 51.458 0.065 6.91 8.54 10.61
10/29/2021 11:45:00 AM 10.86 51.548 0.065 6.91 8.34 10.61
10/29/2021 12:00:00 PM 10.89 51.602 0.065 6.91 8.21 10.62
10/29/2021 12:15:00 PM 10.92 51.656 0.065 6.92 8.3 10.62
10/29/2021 12:30:00 PM 10.97 51.746 0.065 6.92 7.62 10.62
10/29/2021 12:45:00 PM 11 51.8 0.065 6.92 7.94 10.62
10/29/2021 1:00:00 PM 11.12 52.016 0.065 6.93 8.03 10.63
10/29/2021 1:15:00 PM 11.23 52.214 0.065 6.94 8.04 10.61
10/29/2021 1:30:00 PM 11.35 52.43 0.065 6.93 7.49 10.59
10/29/2021 1:45:00 PM 11.44 52.592 0.065 6.93 7.98 10.57
10/29/2021 2:00:00 PM 11.51 52.718 0.066 6.92 8.47 10.56
10/29/2021 2:15:00 PM 11.52 52.736 0.065 6.93 7.78 10.54
10/29/2021 2:30:00 PM 11.52 52.736 0.066 6.94 7.93 10.54
10/29/2021 2:45:00 PM 11.54 52.772 0.065 6.96 7.68 10.53
10/29/2021 3:00:00 PM 11.59 52.862 0.065 6.95 7.59 10.53
10/29/2021 3:15:00 PM 11.63 52.934 0.066 6.95 7.66 10.51
10/29/2021 3:30:00 PM 11.67 53.006 0.065 6.96 7.56 10.49
10/29/2021 3:45:00 PM 11.69 53.042 0.066 6.95 7.6 10.47
10/29/2021 4:00:00 PM 11.71 53.078 0.066 6.94 7.44 10.45
10/29/2021 4:15:00 PM 11.72 53.096 0.066 6.94 7.68 10.41
10/29/2021 4:30:00 PM 11.71 53.078 0.066 6.93 7.34 10.39
10/29/2021 4:45:00 PM 11.7 53.06 0.066 6.93 7.46 10.38
10/29/2021 5:00:00 PM 11.68 53.024 0.066 6.93 7.4 10.36
10/29/2021 5:15:00 PM 11.65 52.97 0.066 6.92 7.4 10.34
10/29/2021 5:30:00 PM 11.63 52.934 0.066 6.92 7.37 10.32
10/29/2021 5:45:00 PM 11.6 52.88 0.066 6.91 7.44 10.3
10/29/2021 6:00:00 PM 11.57 52.826 0.066 6.93 7.54 10.29
10/29/2021 6:15:00 PM 11.53 52.754 0.066 6.92 7.81 10.29
10/29/2021 6:30:00 PM 11.5 52.7 0.066 6.92 7.83 10.28
10/29/2021 6:45:00 PM 11.47 52.646 0.066 6.92 7.55 10.27
10/29/2021 7:00:00 PM 11.43 52.574 0.066 6.92 8.4 10.27
10/29/2021 7:15:00 PM 11.4 52.52 0.066 6.91 8.06 10.26
10/29/2021 7:30:00 PM 11.36 52.448 0.066 6.91 7.74 10.26
10/29/2021 7:45:00 PM 11.32 52.376 0.066 6.91 7.96 10.26
10/29/2021 8:00:00 PM 11.29 52.322 0.066 6.91 8.58 10.27
10/29/2021 8:15:00 PM 11.24 52.232 0.066 6.91 8.29 10.28
10/29/2021 8:30:00 PM 11.21 52.178 0.066 6.91 8.08 10.28
10/29/2021 8:45:00 PM 11.17 52.106 0.066 6.92 8.49 10.28
10/29/2021 9:00:00 PM 11.14 52.052 0.066 6.91 8.31 10.29
10/29/2021 9:15:00 PM 11.1 51.98 0.066 6.91 8.17 10.29
10/29/2021 9:30:00 PM 11.06 51.908 0.066 6.91 9.11 10.31
10/29/2021 9:45:00 PM 11 51.8 0.066 6.91 23.49 10.33
10/29/2021 10:00:00 PM 10.95 51.71 0.066 6.92 15.46 10.36
10/29/2021 10:15:00 PM 10.88 51.584 0.066 6.93 33.44 10.38
10/29/2021 10:30:00 PM 10.84 51.512 0.068 6.94 45.5 10.39
10/29/2021 10:45:00 PM 10.79 51.422 0.07 6.96 30.88 10.41
10/29/2021 11:00:00 PM 10.72 51.296 0.069 6.98 39.59 10.44
10/29/2021 11:15:00 PM 10.63 51.134 0.068 6.95 167.13 10.49
10/29/2021 11:30:00 PM 10.5 50.9 0.072 7 50.45 10.58
10/29/2021 11:45:00 PM 10.42 50.756 0.067 7.01 319.13 10.63
10/30/2021 12:00:00 AM 10.35 50.63 0.066 6.99 75.61 10.63
10/30/2021 12:15:00 AM 10.31 50.558 0.064 6.96 61.41 10.69
10/30/2021 12:30:00 AM 10.27 50.486 0.062 6.96 67.49 10.71
10/30/2021 12:45:00 AM 10.24 50.432 0.06 6.96 67.1 10.71
10/30/2021 1:00:00 AM 10.23 50.414 0.057 6.93 70.23 10.7
10/30/2021 1:15:00 AM 10.23 50.414 0.057 6.91 66.84 10.68
10/30/2021 1:30:00 AM 10.21 50.378 0.034 6.9 70.73 10.68
10/30/2021 1:45:00 AM 10.19 50.342 0.057 6.91 71.16 10.68
10/30/2021 2:00:00 AM 10.18 50.324 0.032 6.93 67.32 10.68
10/30/2021 2:15:00 AM 10.17 50.306 0.033 6.92 64.2 10.68
10/30/2021 2:30:00 AM 10.16 50.288 0.053 6.9 60.07 10.67
10/30/2021 2:45:00 AM 10.17 50.306 0.043 6.89 55.32 10.67
10/30/2021 3:00:00 AM 10.17 50.306 0.052 6.89 44.73 10.66
10/30/2021 3:15:00 AM 10.17 50.306 0.043 6.89 45.17 10.64
10/30/2021 3:30:00 AM 10.18 50.324 0.053 6.88 41.7 10.63
10/30/2021 3:45:00 AM 10.18 50.324 0.033 6.89 42.53 10.62
10/30/2021 4:00:00 AM 10.19 50.342 0.053 6.88 48.71 10.61
10/30/2021 4:15:00 AM 10.19 50.342 0.033 6.88 40.64 10.6
10/30/2021 4:30:00 AM 10.2 50.36 0.053 6.87 25.11 10.59
10/30/2021 4:45:00 AM 10.21 50.378 0.053 6.88 26.65 10.58
10/30/2021 5:00:00 AM 10.22 50.396 0.054 6.86 28.34 10.58
10/30/2021 5:15:00 AM 10.23 50.414 0.054 6.87 25.72 10.57
10/30/2021 5:30:00 AM 10.24 50.432 0.054 6.87 22.54 10.56
10/30/2021 5:45:00 AM 10.26 50.468 0.054 6.87 26.73 10.56
10/30/2021 6:00:00 AM 10.27 50.486 0.029 6.88 25.32 10.56
10/30/2021 6:15:00 AM 10.28 50.504 0.056 6.87 19.67 10.55
10/30/2021 6:30:00 AM 10.29 50.522 0.055 6.86 32.11 10.55
10/30/2021 6:45:00 AM 10.31 50.558 0.055 6.86 21.74 10.54
10/30/2021 7:00:00 AM 10.32 50.576 0.056 6.84 16.88 10.54
10/30/2021 7:15:00 AM 10.33 50.594 0.056 6.85 18.21 10.53
10/30/2021 7:30:00 AM 10.35 50.63 0.056 6.84 21.99 10.53
10/30/2021 7:45:00 AM 10.36 50.648 0.056 6.84 16.11 10.53
10/30/2021 8:00:00 AM 10.37 50.666 0.056 6.84 18.05 10.52
10/30/2021 8:15:00 AM 10.39 50.702 0.057 6.84 13.83 10.52
10/30/2021 8:30:00 AM 10.41 50.738 0.057 6.84 16.92 10.51
10/30/2021 8:45:00 AM 10.43 50.774 0.057 6.84 13.11 10.52
10/30/2021 9:00:00 AM 10.45 50.81 0.057 6.84 10.68 10.51
10/30/2021 9:15:00 AM 10.48 50.864 0.057 6.84 13.29 10.52
10/30/2021 9:30:00 AM 10.51 50.918 0.057 6.84 17.8 10.51
10/30/2021 9:45:00 AM 10.54 50.972 0.057 6.84 14.55 10.51
10/30/2021 10:00:00 AM 10.57 51.026 0.058 6.84 12.78 10.52
10/30/2021 10:15:00 AM 10.61 51.098 0.058 6.85 47.91 10.52
10/30/2021 10:30:00 AM 10.64 51.152 0.058 6.85 17.81 10.51
10/30/2021 10:45:00 AM 10.68 51.224 0.058 6.85 16.57 10.51
10/30/2021 11:00:00 AM 10.73 51.314 0.058 6.86 19.81 10.51
10/30/2021 11:15:00 AM 10.77 51.386 0.029 6.87 14.7 10.51
10/30/2021 11:30:00 AM 10.8 51.44 0.059 6.86 29.79 10.49
10/30/2021 11:45:00 AM 10.83 51.494 0.058 6.87 29.04 10.5
10/30/2021 12:00:00 PM 10.88 51.584 0.058 6.86 20.27 10.48
10/30/2021 12:15:00 PM 10.93 51.674 0.058 6.86 15.8 10.49
10/30/2021 12:30:00 PM 10.97 51.746 0.051 6.86 15.38 10.48
10/30/2021 12:45:00 PM 11.01 51.818 0.059 6.86 10.73 10.47
10/30/2021 1:00:00 PM 11.05 51.89 0.058 6.87 13.59 10.46
10/30/2021 1:15:00 PM 11.11 51.998 0.059 6.87 431.9 10.48
10/30/2021 1:30:00 PM 11.16 52.088 0.059 6.88 13.53 10.47
10/30/2021 1:45:00 PM 11.2 52.16 0.06 6.88 7913.78 10.43
10/30/2021 2:00:00 PM 11.24 52.232 0.06 6.88 14.12 10.46
10/30/2021 2:15:00 PM 11.29 52.322 0.06 6.89 14.52 10.44
10/30/2021 2:30:00 PM 11.33 52.394 0.06 6.89 14.89 10.43
10/30/2021 2:45:00 PM 11.36 52.448 0.06 6.89 14.32 10.41
10/30/2021 3:00:00 PM 11.38 52.484 0.06 6.89 10.56 10.34
10/30/2021 3:15:00 PM 11.41 52.538 0.06 6.9 13.32 10.36
10/30/2021 3:30:00 PM 11.43 52.574 0.06 6.89 232.95 10.38
10/30/2021 3:45:00 PM 11.46 52.628 0.06 6.89 28.94 10.35
10/30/2021 4:00:00 PM 11.5 52.7 0.06 6.9 21.11 10.37
10/30/2021 4:15:00 PM 11.52 52.736 0.06 6.89 21.93 10.36
10/30/2021 4:30:00 PM 11.52 52.736 0.059 6.88 22.09 10.34
10/30/2021 4:45:00 PM 11.53 52.754 0.06 6.89 21.36 10.33
10/30/2021 5:00:00 PM 11.54 52.772 0.06 6.88 21.34 10.32
10/30/2021 5:15:00 PM 11.54 52.772 0.06 6.88 21.51 10.31
10/30/2021 5:30:00 PM 11.55 52.79 0.06 6.88 20.44 10.29
10/30/2021 5:45:00 PM 11.55 52.79 0.06 6.87 21.04 10.29
10/30/2021 6:00:00 PM 11.55 52.79 0.057 6.87 21.18 10.28
10/30/2021 6:15:00 PM 11.54 52.772 0.06 6.87 21.28 10.26
10/30/2021 6:30:00 PM 11.53 52.754 0.06 6.86 19.96 10.24
10/30/2021 6:45:00 PM 11.51 52.718 0.06 6.87 17.78 10.24
10/30/2021 7:00:00 PM 11.49 52.682 0.06 6.86 19.9 10.24
10/30/2021 7:15:00 PM 11.47 52.646 0.06 6.86 19.55 10.24
10/30/2021 7:30:00 PM 11.44 52.592 0.06 6.85 20.02 10.24
10/30/2021 7:45:00 PM 11.41 52.538 0.06 6.85 19.59 10.24
10/30/2021 8:00:00 PM 11.38 52.484 0.06 6.85 19.06 10.25
10/30/2021 8:15:00 PM 11.35 52.43 0.06 6.85 21.71 10.25
10/30/2021 8:30:00 PM 11.32 52.376 0.06 6.84 22.13 10.25
10/30/2021 8:45:00 PM 11.29 52.322 0.061 6.85 24.41 10.26
10/30/2021 9:00:00 PM 11.26 52.268 0.061 6.85 27.65 10.26
10/30/2021 9:15:00 PM 11.23 52.214 0.061 6.85 21.24 10.26
10/30/2021 9:30:00 PM 11.19 52.142 0.061 6.85 26.1 10.27
10/30/2021 9:45:00 PM 11.15 52.07 0.061 6.85 23.74 10.29
10/30/2021 10:00:00 PM 11.11 51.998 0.061 6.84 20.4 10.3
10/30/2021 10:15:00 PM 11.08 51.944 0.061 6.85 21.99 10.31
10/30/2021 10:30:00 PM 11.05 51.89 0.061 6.84 25.41 10.32
10/30/2021 10:45:00 PM 11.01 51.818 0.061 6.84 44.53 10.32
10/30/2021 11:00:00 PM 10.98 51.764 0.061 6.84 11.81 10.33
10/30/2021 11:15:00 PM 10.95 51.71 0.061 6.85 11.74 10.34
10/30/2021 11:30:00 PM 10.92 51.656 0.061 6.84 12.18 10.34
10/30/2021 11:45:00 PM 10.88 51.584 0.061 6.84 11.61 10.35
10/31/2021 12:00:00 AM 10.85 51.53 0.061 6.84 12.04 10.35
10/31/2021 12:15:00 AM 10.82 51.476 0.061 6.84 11.4 10.36
10/31/2021 12:30:00 AM 10.8 51.44 0.061 6.84 10.9 10.36
10/31/2021 12:45:00 AM 10.77 51.386 0.062 6.84 11.39 10.37
10/31/2021 1:00:00 AM 10.75 51.35 0.062 6.84 11.55 10.37
10/31/2021 1:15:00 AM 10.73 51.314 0.062 6.84 11.39 10.38
10/31/2021 1:30:00 AM 10.7 51.26 0.062 6.85 11.44 10.38
10/31/2021 1:45:00 AM 10.68 51.224 0.061 6.85 11.52 10.39
10/31/2021 2:00:00 AM 10.66 51.188 0.062 6.85 10.1 10.39
10/31/2021 2:15:00 AM 10.64 51.152 0.062 6.85 10.41 10.4
10/31/2021 2:30:00 AM 10.61 51.098 0.062 6.85 10.54 10.41
10/31/2021 2:45:00 AM 10.59 51.062 0.062 6.85 10.4 10.42
10/31/2021 3:00:00 AM 10.57 51.026 0.062 6.85 10.43 10.41
10/31/2021 3:15:00 AM 10.56 51.008 0.062 6.85 10.87 10.42
10/31/2021 3:30:00 AM 10.55 50.99 0.062 6.85 10.98 10.42
10/31/2021 3:45:00 AM 10.54 50.972 0.062 6.85 9.97 10.42
10/31/2021 4:00:00 AM 10.53 50.954 0.062 6.85 10.13 10.42
10/31/2021 4:15:00 AM 10.52 50.936 0.062 6.85 10.31 10.42
10/31/2021 4:30:00 AM 10.51 50.918 0.062 6.85 10.04 10.43
10/31/2021 4:45:00 AM 10.5 50.9 0.062 6.85 9.71 10.43
10/31/2021 5:00:00 AM 10.5 50.9 0.062 6.85 10.12 10.43
10/31/2021 5:15:00 AM 10.49 50.882 0.062 6.85 10.29 10.44
10/31/2021 5:30:00 AM 10.48 50.864 0.062 6.85 10.97 10.43
10/31/2021 5:45:00 AM 10.48 50.864 0.062 6.85 10.24 10.44
10/31/2021 6:00:00 AM 10.47 50.846 0.062 6.86 10.28 10.44
10/31/2021 6:15:00 AM 10.47 50.846 0.062 6.86 10.08 10.44
10/31/2021 6:30:00 AM 10.46 50.828 0.062 6.86 10.18 10.44
10/31/2021 6:45:00 AM 10.46 50.828 0.062 6.86 10.21 10.44
10/31/2021 7:00:00 AM 10.45 50.81 0.062 6.86 9.7 10.45
10/31/2021 7:15:00 AM 10.45 50.81 0.063 6.86 9.78 10.44
10/31/2021 7:30:00 AM 10.45 50.81 0.062 6.86 9.76 10.45
10/31/2021 7:45:00 AM 10.45 50.81 0.063 6.87 9.64 10.45
10/31/2021 8:00:00 AM 10.45 50.81 0.062 6.86 9.99 10.45
10/31/2021 8:15:00 AM 10.45 50.81 0.062 6.86 10.32 10.45
10/31/2021 8:30:00 AM 10.46 50.828 0.062 6.86 10.43 10.46
10/31/2021 8:45:00 AM 10.46 50.828 0.062 6.87 9.47 10.46
10/31/2021 9:00:00 AM 10.47 50.846 0.062 6.87 10.54 10.46
10/31/2021 9:15:00 AM 10.48 50.864 0.063 6.87 9.39 10.47
10/31/2021 9:30:00 AM 10.5 50.9 0.063 6.87 9.65 10.47
10/31/2021 9:45:00 AM 10.51 50.918 0.063 6.87 9.01 10.48
10/31/2021 10:00:00 AM 10.53 50.954 0.062 6.87 9.89 10.49
10/31/2021 10:15:00 AM 10.56 51.008 0.063 6.88 9.48 10.49
10/31/2021 10:30:00 AM 10.59 51.062 0.062 6.88 9.91 10.51
10/31/2021 10:45:00 AM 10.63 51.134 0.063 6.88 9.51 10.51
10/31/2021 11:00:00 AM 10.68 51.224 0.062 6.89 9.14 10.52
10/31/2021 11:15:00 AM 10.75 51.35 0.062 6.9 9.33 10.54
10/31/2021 11:30:00 AM 10.82 51.476 0.062 6.9 9.1 10.54
10/31/2021 11:45:00 AM 10.9 51.62 0.063 6.91 9.35 10.54
10/31/2021 12:00:00 PM 10.97 51.746 0.062 6.92 8.92 10.55
10/31/2021 12:15:00 PM 11.03 51.854 0.062 6.92 9.07 10.55
10/31/2021 12:30:00 PM 11.1 51.98 0.062 6.93 9.16 10.56
10/31/2021 12:45:00 PM 11.17 52.106 0.062 6.93 8.89 10.56
10/31/2021 1:00:00 PM 11.24 52.232 0.062 6.94 8.98 10.55
10/31/2021 1:15:00 PM 11.31 52.358 0.062 6.94 8.99 10.55
10/31/2021 1:30:00 PM 11.37 52.466 0.062 6.94 9.14 10.53
10/31/2021 1:45:00 PM 11.43 52.574 0.062 6.95 9.35 10.52
10/31/2021 2:00:00 PM 11.5 52.7 0.062 6.95 9.1 10.51
10/31/2021 2:15:00 PM 11.54 52.772 0.062 6.96 9.21 10.49
10/31/2021 2:30:00 PM 11.56 52.808 0.062 6.94 8.9 10.48
10/31/2021 2:45:00 PM 11.6 52.88 0.062 6.95 9.35 10.46
10/31/2021 3:00:00 PM 11.63 52.934 0.062 6.95 9.06 10.43
10/31/2021 3:15:00 PM 11.68 53.024 0.062 6.95 9.56 10.42
10/31/2021 3:30:00 PM 11.74 53.132 0.062 6.95 9.45 10.42
10/31/2021 3:45:00 PM 11.79 53.222 0.062 6.96 8.84 10.41
10/31/2021 4:00:00 PM 11.81 53.258 0.062 6.95 9.03 10.39
10/31/2021 4:15:00 PM 11.84 53.312 0.062 6.95 9.19 10.38
10/31/2021 4:30:00 PM 11.86 53.348 0.062 6.95 9.38 10.36
10/31/2021 4:45:00 PM 11.87 53.366 0.062 6.95 9.39 10.33
10/31/2021 5:00:00 PM 11.87 53.366 0.062 6.94 9.19 10.33
10/31/2021 5:15:00 PM 11.87 53.366 0.062 6.94 9.01 10.32
10/31/2021 5:30:00 PM 11.85 53.33 0.062 6.94 8.89 10.3
10/31/2021 5:45:00 PM 11.84 53.312 0.062 6.94 8.89 10.29
10/31/2021 6:00:00 PM 11.82 53.276 0.062 6.93 8.52 10.27
10/31/2021 6:15:00 PM 11.8 53.24 0.062 6.93 9.03 10.26
10/31/2021 6:30:00 PM 11.78 53.204 0.062 6.93 8.65 10.27
10/31/2021 6:45:00 PM 11.76 53.168 0.062 6.92 9.45 10.25
10/31/2021 7:00:00 PM 11.74 53.132 0.062 6.92 9.1 10.26
10/31/2021 7:15:00 PM 11.72 53.096 0.062 6.92 9.3 10.25
10/31/2021 7:30:00 PM 11.7 53.06 0.038 6.92 8.39 10.25
10/31/2021 7:45:00 PM 11.68 53.024 0.062 6.91 9.33 10.25
10/31/2021 8:00:00 PM 11.66 52.988 0.062 6.91 9.28 10.24
10/31/2021 8:15:00 PM 11.61 52.898 0.062 6.91 9.08 10.24
10/31/2021 8:30:00 PM 11.58 52.844 0.062 6.91 9.36 10.25
10/31/2021 8:45:00 PM 11.55 52.79 0.063 6.91 8.87 10.25
10/31/2021 9:00:00 PM 11.51 52.718 0.062 6.91 9.42 10.25
10/31/2021 9:15:00 PM 11.48 52.664 0.063 6.91 8.96 10.26
10/31/2021 9:30:00 PM 11.45 52.61 0.063 6.9 9.25 10.26
10/31/2021 9:45:00 PM 11.42 52.556 0.063 6.9 9.43 10.27
10/31/2021 10:00:00 PM 11.39 52.502 0.063 6.9 9.56 10.28
10/31/2021 10:15:00 PM 11.35 52.43 0.063 6.9 12.45 10.28
10/31/2021 10:30:00 PM 11.32 52.376 0.063 6.9 10.2 10.29
10/31/2021 10:45:00 PM 11.29 52.322 0.059 6.9 10.11 10.3
10/31/2021 11:00:00 PM 11.27 52.286 0.054 6.9 9.99 10.31
10/31/2021 11:15:00 PM 11.25 52.25 0.063 6.89 12.74 10.32
10/31/2021 11:30:00 PM 11.23 52.214 0.063 6.9 8.98 10.33
10/31/2021 11:45:00 PM 11.2 52.16 0.063 6.9 9.25 10.34
11/1/2021 12:00:00 AM 11.18 52.124 0.063 6.9 9.62 10.34
11/1/2021 12:15:00 AM 11.15 52.07 0.062 6.89 10.34 10.35
11/1/2021 12:30:00 AM 11.14 52.052 0.062 6.89 9.82 10.36
11/1/2021 12:45:00 AM 11.12 52.016 0.063 6.89 9.42 10.36
11/1/2021 1:00:00 AM 11.1 51.98 0.063 6.9 9.3 10.37
11/1/2021 1:15:00 AM 11.08 51.944 0.063 6.9 9.03 10.37
11/1/2021 1:30:00 AM 11.07 51.926 0.063 6.9 9.08 10.37
11/1/2021 1:45:00 AM 11.05 51.89 0.063 6.9 9.67 10.38
11/1/2021 2:00:00 AM 11.04 51.872 0.063 6.9 9 10.38
11/1/2021 2:15:00 AM 11.03 51.854 0.063 6.9 9.07 10.39
11/1/2021 2:30:00 AM 11.02 51.836 0.063 6.9 9.25 10.39
11/1/2021 2:45:00 AM 11.01 51.818 0.063 6.89 9.19 10.39
11/1/2021 3:00:00 AM 11 51.8 0.063 6.9 8.82 10.4
11/1/2021 3:15:00 AM 10.99 51.782 0.063 6.9 9.04 10.4
11/1/2021 3:30:00 AM 10.97 51.746 0.063 6.9 8.7 10.4
11/1/2021 3:45:00 AM 10.96 51.728 0.063 6.9 8.89 10.4
11/1/2021 4:00:00 AM 10.95 51.71 0.063 6.9 9.04 10.41
11/1/2021 4:15:00 AM 10.93 51.674 0.064 6.89 8.83 10.41
11/1/2021 4:30:00 AM 10.92 51.656 0.063 6.9 8.86 10.42
11/1/2021 4:45:00 AM 10.9 51.62 0.064 6.9 8.83 10.42
11/1/2021 5:00:00 AM 10.89 51.602 0.063 6.91 8.88 10.43
11/1/2021 5:15:00 AM 10.87 51.566 0.064 6.91 8.73 10.43
11/1/2021 5:30:00 AM 10.86 51.548 0.064 6.9 8.52 10.43
11/1/2021 5:45:00 AM 10.84 51.512 0.064 6.91 8.7 10.44
11/1/2021 6:00:00 AM 10.82 51.476 0.064 6.91 8.79 10.45
11/1/2021 6:15:00 AM 10.79 51.422 0.064 6.91 8.68 10.45
11/1/2021 6:30:00 AM 10.75 51.35 0.064 6.91 8.66 10.46
11/1/2021 6:45:00 AM 10.71 51.278 0.064 6.91 9.28 10.47
11/1/2021 7:00:00 AM 10.66 51.188 0.064 6.91 8.7 10.48
11/1/2021 7:15:00 AM 10.62 51.116 0.064 6.91 9.06 10.5
11/1/2021 7:30:00 AM 10.57 51.026 0.064 6.92 8.99 10.52
11/1/2021 7:45:00 AM 10.52 50.936 0.063 6.92 9.43 10.53
11/1/2021 8:00:00 AM 10.48 50.864 0.064 6.92 8.75 10.55
11/1/2021 8:15:00 AM 10.43 50.774 0.064 6.92 8.74 10.56
11/1/2021 8:30:00 AM 10.39 50.702 0.064 6.92 8.65 10.58
11/1/2021 8:45:00 AM 10.35 50.63 0.064 6.92 8.45 10.59
11/1/2021 9:00:00 AM 10.31 50.558 0.064 6.93 8.45 10.62
11/1/2021 9:15:00 AM 10.27 50.486 0.064 6.92 8.08 10.64
11/1/2021 9:30:00 AM 10.25 50.45 0.064 6.93 8.13 10.66
11/1/2021 9:45:00 AM 10.23 50.414 0.064 6.93 8.42 10.69
11/1/2021 10:00:00 AM 10.23 50.414 0.064 6.93 8.42 10.72
11/1/2021 10:15:00 AM 10.24 50.432 0.064 6.94 8.07 10.75
11/1/2021 10:30:00 AM 10.25 50.45 0.064 6.94 8.25 10.77
11/1/2021 10:45:00 AM 10.25 50.45 0.064 6.95 7.8 10.79
11/1/2021 11:00:00 AM 10.29 50.522 0.064 6.94 8.23 10.81
11/1/2021 11:15:00 AM 10.36 50.648 0.064 6.94 8.49 10.83
11/1/2021 11:30:00 AM 10.41 50.738 0.064 6.95 8.37 10.85
11/1/2021 11:45:00 AM 10.43 50.774 0.064 6.96 7.89 10.86
11/1/2021 12:00:00 PM 10.43 50.774 0.064 6.96 9.51 10.88
11/1/2021 12:15:00 PM 10.47 50.846 0.064 6.96 8.59 10.89
11/1/2021 12:30:00 PM 10.49 50.882 0.064 6.97 8.38 10.91
11/1/2021 12:45:00 PM 10.5 50.9 0.064 6.97 8.18 10.89
11/1/2021 1:00:00 PM 10.5 50.9 0.064 6.97 8.71 10.89
11/1/2021 1:15:00 PM 10.51 50.918 0.064 6.98 8.38 10.9
11/1/2021 1:30:00 PM 10.6 51.08 0.064 6.98 8.2 10.9
11/1/2021 1:45:00 PM 10.71 51.278 0.064 6.98 7.81 10.89
11/1/2021 2:00:00 PM 10.88 51.584 0.064 6.99 8.61 10.88
11/1/2021 2:15:00 PM 10.97 51.746 0.064 6.99 7.82 10.86
11/1/2021 2:30:00 PM 10.95 51.71 0.064 6.99 7.44 10.85
11/1/2021 2:45:00 PM 10.97 51.746 0.064 6.99 7.86 10.84
11/1/2021 3:00:00 PM 11.03 51.854 0.064 6.98 7.6 10.83
11/1/2021 3:15:00 PM 11.03 51.854 0.065 6.98 7.73 10.83
11/1/2021 3:30:00 PM 11.04 51.872 0.065 6.99 7.62 10.82
11/1/2021 3:45:00 PM 11.04 51.872 0.065 6.99 7.82 10.8
11/1/2021 4:00:00 PM 11.05 51.89 0.065 6.98 7.82 10.79
11/1/2021 4:15:00 PM 11.07 51.926 0.065 6.99 7.4 10.77
11/1/2021 4:30:00 PM 11.09 51.962 0.065 6.98 7.89 10.74
11/1/2021 4:45:00 PM 11.11 51.998 0.065 6.99 7.62 10.72
11/1/2021 5:00:00 PM 11.14 52.052 0.065 6.96 7.72 10.69
11/1/2021 5:15:00 PM 11.15 52.07 0.065 6.96 8.02 10.66
11/1/2021 5:30:00 PM 11.15 52.07 0.065 6.96 7.91 10.64
11/1/2021 5:45:00 PM 11.11 51.998 0.065 6.96 8 10.62
11/1/2021 6:00:00 PM 11.06 51.908 0.065 6.98 7.7 10.61
11/1/2021 6:15:00 PM 10.97 51.746 0.065 6.97 7.96 10.6
11/1/2021 6:30:00 PM 10.88 51.584 0.065 6.97 7.83 10.61
11/1/2021 6:45:00 PM 10.78 51.404 0.065 6.97 7.86 10.61
11/1/2021 7:00:00 PM 10.68 51.224 0.065 6.96 7.75 10.63
11/1/2021 7:15:00 PM 10.59 51.062 0.065 6.95 8.11 10.64
11/1/2021 7:30:00 PM 10.5 50.9 0.065 6.96 11.65 10.65
11/1/2021 7:45:00 PM 10.42 50.756 0.065 6.95 10.66 10.65
11/1/2021 8:00:00 PM 10.34 50.612 0.066 6.96 9.04 10.66
11/1/2021 8:15:00 PM 10.26 50.468 0.066 6.96 11.07 10.67
11/1/2021 8:30:00 PM 10.19 50.342 0.067 6.96 8.16 10.68
11/1/2021 8:45:00 PM 10.11 50.198 0.067 6.96 8.18 10.7
11/1/2021 9:00:00 PM 10.03 50.054 0.067 6.96 10.98 10.71
11/1/2021 9:15:00 PM 9.95 49.91 0.067 6.96 10.05 10.73
11/1/2021 9:30:00 PM 9.88 49.784 0.067 6.96 8.95 10.75
11/1/2021 9:45:00 PM 9.8 49.64 0.067 6.94 8.62 10.77
11/1/2021 10:00:00 PM 9.72 49.496 0.067 6.94 8.35 10.78
11/1/2021 10:15:00 PM 9.65 49.37 0.067 6.93 8.5 10.8
11/1/2021 10:30:00 PM 9.57 49.226 0.067 6.93 8.09 10.82
11/1/2021 10:45:00 PM 9.51 49.118 0.067 6.93 8.11 10.83
11/1/2021 11:00:00 PM 9.46 49.028 0.066 6.93 7.94 10.85
11/1/2021 11:15:00 PM 9.42 48.956 0.066 6.92 7.73 10.86
11/1/2021 11:30:00 PM 9.37 48.866 0.066 6.93 7.93 10.89
11/1/2021 11:45:00 PM 9.32 48.776 0.066 6.92 7.98 10.9
11/2/2021 12:00:00 AM 9.28 48.704 0.066 6.93 7.83 10.91
11/2/2021 12:15:00 AM 9.24 48.632 0.066 6.93 7.88 10.92
11/2/2021 12:30:00 AM 9.21 48.578 0.066 6.93 8.2 10.94
11/2/2021 12:45:00 AM 9.17 48.506 0.066 6.93 9.73 10.95
11/2/2021 1:00:00 AM 9.14 48.452 0.066 6.93 12.74 10.95
11/2/2021 1:15:00 AM 9.11 48.398 0.066 6.93 13.8 10.97
11/2/2021 1:30:00 AM 9.08 48.344 0.066 6.92 19.13 10.97
11/2/2021 1:45:00 AM 9.05 48.29 0.066 6.92 20.58 10.98
11/2/2021 2:00:00 AM 9.02 48.236 0.066 6.92 17.19 10.98
11/2/2021 2:15:00 AM 9 48.2 0.066 6.93 13.76 10.99
11/2/2021 2:30:00 AM 8.98 48.164 0.066 6.93 16.43 11
11/2/2021 2:45:00 AM 8.96 48.128 0.066 6.93 17.35 11.01
11/2/2021 3:00:00 AM 8.94 48.092 0.066 6.91 13.55 11.01
11/2/2021 3:15:00 AM 8.92 48.056 0.066 6.91 11.54 11.01
11/2/2021 3:30:00 AM 8.9 48.02 0.066 6.9 9.75 11.02
11/2/2021 3:45:00 AM 8.89 48.002 0.066 6.91 8.91 11.02
11/2/2021 4:00:00 AM 8.87 47.966 0.066 6.91 8.55 11.03
11/2/2021 4:15:00 AM 8.86 47.948 0.066 6.92 8.56 11.03
11/2/2021 4:30:00 AM 8.85 47.93 0.066 6.92 8.08 11.03
11/2/2021 4:45:00 AM 8.84 47.912 0.067 6.92 8.49 11.04
11/2/2021 5:00:00 AM 8.82 47.876 0.066 6.91 7.97 11.04
11/2/2021 5:15:00 AM 8.81 47.858 0.066 6.92 15.17 11.04
11/2/2021 5:30:00 AM 8.8 47.84 0.066 6.91 12.44 11.05
11/2/2021 5:45:00 AM 8.78 47.804 0.066 6.92 9.75 11.05
11/2/2021 6:00:00 AM 8.76 47.768 0.066 6.92 11.16 11.06
11/2/2021 6:15:00 AM 8.73 47.714 0.067 6.92 9.85 11.07
11/2/2021 6:30:00 AM 8.71 47.678 0.067 6.92 9.18 11.07
11/2/2021 6:45:00 AM 8.69 47.642 0.067 6.93 8.96 11.07
11/2/2021 7:00:00 AM 8.67 47.606 0.067 6.92 12.89 11.08
11/2/2021 7:15:00 AM 8.65 47.57 0.067 6.92 10.29 11.09
11/2/2021 7:30:00 AM 8.62 47.516 0.067 6.92 8.79 11.09
11/2/2021 7:45:00 AM 8.6 47.48 0.067 6.91 8.49 11.11
11/2/2021 8:00:00 AM 8.58 47.444 0.067 6.89 8.19 11.11
11/2/2021 8:15:00 AM 8.56 47.408 0.067 6.92 8.26 11.13
11/2/2021 8:30:00 AM 8.54 47.372 0.067 6.92 7.67 11.15
11/2/2021 8:45:00 AM 8.53 47.354 0.067 6.93 9.09 11.17
11/2/2021 9:00:00 AM 8.53 47.354 0.067 6.92 9.17 11.19
11/2/2021 9:15:00 AM 8.54 47.372 0.067 6.93 10.23 11.2
11/2/2021 9:30:00 AM 8.57 47.426 0.067 6.93 8.68 11.23
11/2/2021 9:45:00 AM 8.61 47.498 0.067 6.94 8.63 11.25
11/2/2021 10:00:00 AM 8.66 47.588 0.067 6.94 8.28 11.27
11/2/2021 10:15:00 AM 8.69 47.642 0.067 6.96 7.87 11.27
11/2/2021 10:30:00 AM 8.73 47.714 0.067 6.96 7.71 11.29
11/2/2021 10:45:00 AM 8.77 47.786 0.067 6.96 9.5 11.3
11/2/2021 11:00:00 AM 8.83 47.894 0.067 6.97 7.93 11.31
11/2/2021 11:15:00 AM 8.87 47.966 0.067 6.97 7.41 11.31
11/2/2021 11:30:00 AM 8.95 48.11 0.067 6.97 7.41 11.32
11/2/2021 11:45:00 AM 9.04 48.272 0.067 6.95 6.99 11.33
11/2/2021 12:00:00 PM 9.13 48.434 0.067 6.99 7.11 11.33
11/2/2021 12:15:00 PM 9.19 48.542 0.067 6.99 7.02 11.33
11/2/2021 12:30:00 PM 9.23 48.614 0.067 6.99 8 11.33
11/2/2021 12:45:00 PM 9.28 48.704 0.067 6.99 7.66 11.33
11/2/2021 1:00:00 PM 9.31 48.758 0.067 7 7.06 11.31
11/2/2021 1:15:00 PM 9.31 48.758 0.067 6.99 10.01 11.28
11/2/2021 1:30:00 PM 9.35 48.83 0.067 7 8.74 11.28
11/2/2021 1:45:00 PM 9.37 48.866 0.067 7.01 8.09 11.27
11/2/2021 2:00:00 PM 9.44 48.992 0.067 7.03 7.66 11.28
11/2/2021 2:15:00 PM 9.5 49.1 0.067 7.02 9.59 11.27
11/2/2021 2:30:00 PM 9.49 49.082 0.067 7.01 23.93 11.21
11/2/2021 2:45:00 PM 9.47 49.046 0.067 7 15.94 11.2
11/2/2021 3:00:00 PM 9.46 49.028 0.067 7.01 11.75 11.19
11/2/2021 3:15:00 PM 9.49 49.082 0.067 7.02 10.07 11.18
11/2/2021 3:30:00 PM 9.5 49.1 0.067 7.01 8.93 11.16
11/2/2021 3:45:00 PM 9.5 49.1 0.067 7.01 8.23 11.13
11/2/2021 4:00:00 PM 9.52 49.136 0.067 7 7.8 11.13
11/2/2021 4:15:00 PM 9.53 49.154 0.067 7 7.81 11.13
11/2/2021 4:30:00 PM 9.55 49.19 0.067 7 7.93 11.11
11/2/2021 4:45:00 PM 9.55 49.19 0.067 7.01 7.67 11.09
11/2/2021 5:00:00 PM 9.55 49.19 0.067 7 7.76 11.08
11/2/2021 5:15:00 PM 9.53 49.154 0.067 7 7.6 11.06
11/2/2021 5:30:00 PM 9.51 49.118 0.067 7 7.31 11.05
11/2/2021 5:45:00 PM 9.48 49.064 0.067 7 6.73 11.03
11/2/2021 6:00:00 PM 9.45 49.01 0.067 6.99 7.89 11.02
11/2/2021 6:15:00 PM 9.42 48.956 0.067 6.99 7.08 11.01
11/2/2021 6:30:00 PM 9.39 48.902 0.067 6.99 7.14 11.01
11/2/2021 6:45:00 PM 9.35 48.83 0.067 6.99 6.94 11.01
11/2/2021 7:00:00 PM 9.32 48.776 0.067 6.98 6.56 11.01
11/2/2021 7:15:00 PM 9.29 48.722 0.067 6.97 9.65 11
11/2/2021 7:30:00 PM 9.25 48.65 0.067 6.98 8.81 11
11/2/2021 7:45:00 PM 9.21 48.578 0.067 6.98 7.53 11
11/2/2021 8:00:00 PM 9.16 48.488 0.032 6.97 6.68 11
11/2/2021 8:15:00 PM 9.11 48.398 0.068 6.97 7.34 11
11/2/2021 8:30:00 PM 9.06 48.308 0.03 6.97 5.95 11
11/2/2021 8:45:00 PM 9.02 48.236 0.067 6.97 7.24 11.02
11/2/2021 9:00:00 PM 8.98 48.164 0.067 6.96 12.56 11.02
11/2/2021 9:15:00 PM 8.94 48.092 0.068 6.96 9.67 11.02
11/2/2021 9:30:00 PM 8.89 48.002 0.068 6.96 7.91 11.03
11/2/2021 9:45:00 PM 8.84 47.912 0.068 6.95 7.2 11.03
11/2/2021 10:00:00 PM 8.78 47.804 0.068 6.95 6.96 11.05
11/2/2021 10:15:00 PM 8.72 47.696 0.068 6.94 7.05 11.06
11/2/2021 10:30:00 PM 8.67 47.606 0.068 6.95 7.17 11.08
11/2/2021 10:45:00 PM 8.62 47.516 0.068 6.94 6.85 11.09
11/2/2021 11:00:00 PM 8.57 47.426 0.068 6.94 6.96 11.1
11/2/2021 11:15:00 PM 8.51 47.318 0.068 6.94 7.28 11.12
11/2/2021 11:30:00 PM 8.45 47.21 0.068 6.94 7.08 11.13
11/2/2021 11:45:00 PM 8.39 47.102 0.068 6.95 7.04 11.14
11/3/2021 12:00:00 AM 8.33 46.994 0.068 6.94 6.84 11.15
11/3/2021 12:15:00 AM 8.27 46.886 0.068 6.95 6.76 11.16
11/3/2021 12:30:00 AM 8.22 46.796 0.068 6.94 7.84 11.18
11/3/2021 12:45:00 AM 8.16 46.688 0.068 6.94 8.11 11.2
11/3/2021 1:00:00 AM 8.1 46.58 0.068 6.95 7.58 11.22
11/3/2021 1:15:00 AM 8.05 46.49 0.068 6.95 7.33 11.23
11/3/2021 1:30:00 AM 7.99 46.382 0.068 6.95 7.34 11.25
11/3/2021 1:45:00 AM 7.94 46.292 0.068 6.94 7.48 11.27
11/3/2021 2:00:00 AM 7.88 46.184 0.068 6.94 7.58 11.28
11/3/2021 2:15:00 AM 7.83 46.094 0.068 6.95 15.22 11.29
11/3/2021 2:30:00 AM 7.78 46.004 0.068 6.94 14.54 11.31
11/3/2021 2:45:00 AM 7.73 45.914 0.068 6.95 11.83 11.32
11/3/2021 3:00:00 AM 7.68 45.824 0.068 6.95 9.51 11.34
11/3/2021 3:15:00 AM 7.63 45.734 0.068 6.95 9.06 11.35
11/3/2021 3:30:00 AM 7.58 45.644 0.068 6.94 8.03 11.36
11/3/2021 3:45:00 AM 7.54 45.572 0.068 6.94 7.69 11.38
11/3/2021 4:00:00 AM 7.5 45.5 0.068 6.95 10.23 11.39
11/3/2021 4:15:00 AM 7.46 45.428 0.068 6.94 13.46 11.4
11/3/2021 4:30:00 AM 7.41 45.338 0.068 6.95 10.67 11.42
11/3/2021 4:45:00 AM 7.37 45.266 0.068 6.95 8.85 11.43
11/3/2021 5:00:00 AM 7.33 45.194 0.068 6.93 8 11.45
11/3/2021 5:15:00 AM 7.3 45.14 0.068 6.94 7.17 11.46
11/3/2021 5:30:00 AM 7.27 45.086 0.068 6.93 6.65 11.47
11/3/2021 5:45:00 AM 7.25 45.05 0.068 6.94 6.76 11.49
11/3/2021 6:00:00 AM 7.22 44.996 0.068 6.93 6.39 11.5
11/3/2021 6:15:00 AM 7.19 44.942 0.069 6.94 6.27 11.51
11/3/2021 6:30:00 AM 7.16 44.888 0.069 6.94 6.2 11.52
11/3/2021 6:45:00 AM 7.13 44.834 0.069 6.94 6.41 11.52
11/3/2021 7:00:00 AM 7.1 44.78 0.069 6.95 6.18 11.53
11/3/2021 7:15:00 AM 7.08 44.744 0.069 6.95 6.3 11.54
11/3/2021 7:30:00 AM 7.06 44.708 0.069 6.94 5.98 11.54
11/3/2021 7:45:00 AM 7.05 44.69 0.069 6.94 6.03 11.55
11/3/2021 8:00:00 AM 7.04 44.672 0.069 6.95 6.12 11.56
11/3/2021 8:15:00 AM 7.03 44.654 0.069 6.94 5.9 11.57
11/3/2021 8:30:00 AM 7.02 44.636 0.069 6.94 5.82 11.59
11/3/2021 8:45:00 AM 7.01 44.618 0.069 6.95 5.69 11.6
11/3/2021 9:00:00 AM 7.01 44.618 0.069 6.95 5.86 11.62
11/3/2021 9:15:00 AM 7.03 44.654 0.069 6.95 5.69 11.64
11/3/2021 9:30:00 AM 7.06 44.708 0.069 6.96 6.15 11.67
11/3/2021 9:45:00 AM 7.09 44.762 0.069 6.96 5.63 11.7
11/3/2021 10:00:00 AM 7.11 44.798 0.069 6.97 5.66 11.71
11/3/2021 10:15:00 AM 7.13 44.834 0.069 6.96 5.54 11.71
11/3/2021 10:30:00 AM 7.19 44.942 0.069 6.97 5.77 11.74
11/3/2021 10:45:00 AM 7.24 45.032 0.069 6.97 5.53 11.75
11/3/2021 11:00:00 AM 7.3 45.14 0.069 6.98 5.59 11.76
11/3/2021 11:15:00 AM 7.37 45.266 0.068 6.99 6.79 11.77
11/3/2021 11:30:00 AM 7.43 45.374 0.069 6.99 8.73 11.77
11/3/2021 11:45:00 AM 7.49 45.482 0.069 6.99 9.52 11.78
11/3/2021 12:00:00 PM 7.57 45.626 0.069 6.99 8.01 11.78
11/3/2021 12:15:00 PM 7.58 45.644 0.069 6.99 7 11.76
11/3/2021 12:30:00 PM 7.59 45.662 0.069 6.99 6.46 11.77
11/3/2021 12:45:00 PM 7.62 45.716 0.069 7 5.85 11.78
11/3/2021 1:00:00 PM 7.67 45.806 0.069 7 5.92 11.78
11/3/2021 1:15:00 PM 7.75 45.95 0.069 7.01 5.7 11.79
11/3/2021 1:30:00 PM 7.83 46.094 0.069 7.01 5.89 11.77
11/3/2021 1:45:00 PM 7.88 46.184 0.069 7.02 6.41 11.74
11/3/2021 2:00:00 PM 7.94 46.292 0.069 7.02 6.09 11.75
11/3/2021 2:15:00 PM 7.99 46.382 0.068 7.03 5.79 11.73
11/3/2021 2:30:00 PM 8.03 46.454 0.069 7.05 5.59 11.71
11/3/2021 2:45:00 PM 8.1 46.58 0.068 7.03 5.34 11.71
11/3/2021 3:00:00 PM 8.14 46.652 0.069 7.02 4.99 11.68
11/3/2021 3:15:00 PM 8.19 46.742 0.069 7.02 5.14 11.67
11/3/2021 3:30:00 PM 8.24 46.832 0.069 7.01 5.1 11.66
11/3/2021 3:45:00 PM 8.29 46.922 0.069 7.03 4.92 11.65
11/3/2021 4:00:00 PM 8.34 47.012 0.069 7.03 5.34 11.65
11/3/2021 4:15:00 PM 8.37 47.066 0.069 7.04 5.13 11.64
11/3/2021 4:30:00 PM 8.37 47.066 0.069 7.05 4.98 11.62
11/3/2021 4:45:00 PM 8.36 47.048 0.069 7.07 5.01 11.61
11/3/2021 5:00:00 PM 8.34 47.012 0.069 7.05 8.6 11.58
11/3/2021 5:15:00 PM 8.31 46.958 0.069 7.04 12.42 11.56
11/3/2021 5:30:00 PM 8.27 46.886 0.069 7.03 12 11.54
11/3/2021 5:45:00 PM 8.24 46.832 0.069 7.01 9.71 11.52
11/3/2021 6:00:00 PM 8.2 46.76 0.069 7.01 8.45 11.5
11/3/2021 6:15:00 PM 8.16 46.688 0.069 7 7.8 11.48
11/3/2021 6:30:00 PM 8.12 46.616 0.069 7 7.24 11.47
11/3/2021 6:45:00 PM 8.08 46.544 0.069 6.99 7.06 11.46
11/3/2021 7:00:00 PM 8.05 46.49 0.069 6.99 6.95 11.44
11/3/2021 7:15:00 PM 8.02 46.436 0.069 6.98 6.42 11.44
11/3/2021 7:30:00 PM 7.99 46.382 0.069 6.98 6.45 11.43
11/3/2021 7:45:00 PM 7.95 46.31 0.069 7.01 6.35 11.42
11/3/2021 8:00:00 PM 7.91 46.238 0.069 7.02 6.26 11.43
11/3/2021 8:15:00 PM 7.85 46.13 0.069 7 6.52 11.42
11/3/2021 8:30:00 PM 7.8 46.04 0.069 6.99 6.43 11.42
11/3/2021 8:45:00 PM 7.74 45.932 0.069 6.99 6.39 11.42
11/3/2021 9:00:00 PM 7.68 45.824 0.069 6.98 6.55 11.42
11/3/2021 9:15:00 PM 7.63 45.734 0.069 6.97 6.51 11.43
11/3/2021 9:30:00 PM 7.57 45.626 0.07 6.96 6.83 11.44
11/3/2021 9:45:00 PM 7.51 45.518 0.07 6.95 7.11 11.45
11/3/2021 10:00:00 PM 7.46 45.428 0.069 6.95 6.88 11.47
11/3/2021 10:15:00 PM 7.4 45.32 0.069 6.94 7.21 11.48
11/3/2021 10:30:00 PM 7.34 45.212 0.069 6.93 7.66 11.49
11/3/2021 10:45:00 PM 7.28 45.104 0.07 6.93 7.23 11.51
11/3/2021 11:00:00 PM 7.22 44.996 0.07 6.93 6.89 11.53
11/3/2021 11:15:00 PM 7.16 44.888 0.07 6.91 6.86 11.54
11/3/2021 11:30:00 PM 7.11 44.798 0.07 6.92 6.79 11.56
11/3/2021 11:45:00 PM 7.05 44.69 0.07 6.92 6.64 11.56
11/4/2021 12:00:00 AM 6.99 44.582 0.07 6.93 6.43 11.58
11/4/2021 12:15:00 AM 6.94 44.492 0.07 6.93 5.96 11.59
11/4/2021 12:30:00 AM 6.89 44.402 0.07 6.93 5.84 11.61
11/4/2021 12:45:00 AM 6.85 44.33 0.07 6.93 6.33 11.63
11/4/2021 1:00:00 AM 6.8 44.24 0.07 6.94 5.71 11.65
11/4/2021 1:15:00 AM 6.74 44.132 0.07 6.93 5.61 11.67
11/4/2021 1:30:00 AM 6.69 44.042 0.07 6.93 5.52 11.69
11/4/2021 1:45:00 AM 6.63 43.934 0.07 6.95 5.63 11.7
11/4/2021 2:00:00 AM 6.58 43.844 0.07 6.95 5.52 11.72
11/4/2021 2:15:00 AM 6.53 43.754 0.07 6.93 5.53 11.73
11/4/2021 2:30:00 AM 6.49 43.682 0.07 6.94 5.18 11.75
11/4/2021 2:45:00 AM 6.44 43.592 0.07 6.93 5.5 11.76
11/4/2021 3:00:00 AM 6.4 43.52 0.07 6.94 5.16 11.77
11/4/2021 3:15:00 AM 6.35 43.43 0.07 6.94 5.17 11.78
11/4/2021 3:30:00 AM 6.31 43.358 0.07 6.95 5.19 11.79
11/4/2021 3:45:00 AM 6.26 43.268 0.07 6.94 5.15 11.8
11/4/2021 4:00:00 AM 6.22 43.196 0.07 6.94 5.01 11.82
11/4/2021 4:15:00 AM 6.18 43.124 0.07 6.94 5.25 11.83
11/4/2021 4:30:00 AM 6.13 43.034 0.07 6.95 5.13 11.85
11/4/2021 4:45:00 AM 6.09 42.962 0.07 6.92 5.02 11.87
11/4/2021 5:00:00 AM 6.05 42.89 0.07 6.93 5.13 11.88
11/4/2021 5:15:00 AM 6.01 42.818 0.07 6.94 5.38 11.9
11/4/2021 5:30:00 AM 5.98 42.764 0.07 6.95 5.21 11.9
11/4/2021 5:45:00 AM 5.94 42.692 0.07 6.94 5.04 11.92
11/4/2021 6:00:00 AM 5.9 42.62 0.07 6.95 5.13 11.93
11/4/2021 6:15:00 AM 5.86 42.548 0.07 6.94 5.12 11.94
11/4/2021 6:30:00 AM 5.82 42.476 0.07 6.93 4.94 11.95
11/4/2021 6:45:00 AM 5.79 42.422 0.07 6.94 4.82 11.96
11/4/2021 7:00:00 AM 5.75 42.35 0.071 6.94 4.81 11.97
11/4/2021 7:15:00 AM 5.71 42.278 0.07 6.95 4.99 11.98
11/4/2021 7:30:00 AM 5.68 42.224 0.071 6.95 5.23 12
11/4/2021 7:45:00 AM 5.65 42.17 0.071 6.95 5.12 12.01
11/4/2021 8:00:00 AM 5.62 42.116 0.071 6.95 5.02 12.03
11/4/2021 8:15:00 AM 5.62 42.116 0.071 6.95 4.71 12.05
11/4/2021 8:30:00 AM 5.62 42.116 0.071 6.95 4.76 12.07
11/4/2021 8:45:00 AM 5.63 42.134 0.071 6.94 4.58 12.1
11/4/2021 9:00:00 AM 5.64 42.152 0.071 6.95 4.63 12.12
11/4/2021 9:15:00 AM 5.66 42.188 0.071 6.97 4.63 12.14
11/4/2021 9:30:00 AM 5.69 42.242 0.071 6.96 4.68 12.17
11/4/2021 9:45:00 AM 5.72 42.296 0.07 6.96 4.58 12.19
11/4/2021 10:00:00 AM 5.75 42.35 0.071 6.96 4.94 12.2
11/4/2021 10:15:00 AM 5.8 42.44 0.071 6.96 4.66 12.23
11/4/2021 10:30:00 AM 5.88 42.584 0.071 6.98 4.69 12.25
11/4/2021 10:45:00 AM 5.97 42.746 0.07 6.99 4.51 12.25
11/4/2021 11:00:00 AM 6.08 42.944 0.071 6.97 4.6 12.26
11/4/2021 11:15:00 AM 6.19 43.142 0.07 6.97 4.59 12.25
11/4/2021 11:30:00 AM 6.3 43.34 0.07 7.01 4.37 12.25
11/4/2021 11:45:00 AM 6.38 43.484 0.071 6.99 4.54 12.25
11/4/2021 12:00:00 PM 6.48 43.664 0.071 7 4.4 12.25
11/4/2021 12:15:00 PM 6.54 43.772 0.07 6.99 4.32 12.24
11/4/2021 12:30:00 PM 6.6 43.88 0.07 7.01 4.62 12.23
11/4/2021 12:45:00 PM 6.66 43.988 0.07 7 4.38 12.22
11/4/2021 1:00:00 PM 6.71 44.078 0.07 7.01 4.47 12.21
11/4/2021 1:15:00 PM 6.79 44.222 0.07 7 4.32 12.2
11/4/2021 1:30:00 PM 6.84 44.312 0.07 7.02 4.65 12.17
11/4/2021 1:45:00 PM 6.9 44.42 0.07 7 4.58 12.16
11/4/2021 2:00:00 PM 6.98 44.564 0.07 7.03 4.48 12.14
11/4/2021 2:15:00 PM 7.06 44.708 0.07 7.02 4.67 12.13
11/4/2021 2:30:00 PM 7.11 44.798 0.07 7.01 4.6 12.1
11/4/2021 2:45:00 PM 7.15 44.87 0.07 7.03 5 12.07
11/4/2021 3:00:00 PM 7.2 44.96 0.07 7.03 4.68 12.04
11/4/2021 3:15:00 PM 7.22 44.996 0.07 7.03 4.57 12.01
11/4/2021 3:30:00 PM 7.26 45.068 0.07 7.03 4.55 11.97
11/4/2021 3:45:00 PM 7.32 45.176 0.07 7.03 4.51 11.97
11/4/2021 4:00:00 PM 7.38 45.284 0.07 7.02 4.48 11.96
11/4/2021 4:15:00 PM 7.43 45.374 0.071 7.01 4.53 11.93
11/4/2021 4:30:00 PM 7.48 45.464 0.07 7.04 4.39 11.92
11/4/2021 4:45:00 PM 7.5 45.5 0.07 7.04 4.38 11.89
11/4/2021 5:00:00 PM 7.51 45.518 0.071 7.01 4.49 11.85
11/4/2021 5:15:00 PM 7.51 45.518 0.07 7.04 4.54 11.82
11/4/2021 5:30:00 PM 7.51 45.518 0.07 7.03 4.4 11.79
11/4/2021 5:45:00 PM 7.5 45.5 0.07 7.01 4.25 11.76
11/4/2021 6:00:00 PM 7.48 45.464 0.071 7.02 4.5 11.73
11/4/2021 6:15:00 PM 7.45 45.41 0.071 7.02 4.38 11.71
11/4/2021 6:30:00 PM 7.43 45.374 0.071 6.98 4.43 11.69
11/4/2021 6:45:00 PM 7.42 45.356 0.071 6.99 4.31 11.68
11/4/2021 7:00:00 PM 7.4 45.32 0.07 6.99 4.65 11.66
11/4/2021 7:15:00 PM 7.37 45.266 0.071 7 4.66 11.65
11/4/2021 7:30:00 PM 7.35 45.23 0.071 7 5.33 11.64
11/4/2021 7:45:00 PM 7.32 45.176 0.071 7 4.54 11.63
11/4/2021 8:00:00 PM 7.28 45.104 0.071 6.99 4.82 11.62
11/4/2021 8:15:00 PM 7.25 45.05 0.071 7 4.5 11.62
11/4/2021 8:30:00 PM 7.2 44.96 0.071 6.98 4.54 11.61
11/4/2021 8:45:00 PM 7.16 44.888 0.071 6.98 4.57 11.61
11/4/2021 9:00:00 PM 7.12 44.816 0.071 6.99 4.52 11.61
11/4/2021 9:15:00 PM 7.08 44.744 0.071 6.96 4.47 11.6
11/4/2021 9:30:00 PM 7.04 44.672 0.071 6.97 4.47 11.61
11/4/2021 9:45:00 PM 6.99 44.582 0.071 6.98 4.45 11.61
11/4/2021 10:00:00 PM 6.95 44.51 0.071 6.99 4.49 11.62
11/4/2021 10:15:00 PM 6.9 44.42 0.071 6.97 4.83 11.62
11/4/2021 10:30:00 PM 6.85 44.33 0.071 6.97 4.56 11.63
11/4/2021 10:45:00 PM 6.8 44.24 0.071 6.95 5.14 11.64
11/4/2021 11:00:00 PM 6.76 44.168 0.071 6.97 4.82 11.66
11/4/2021 11:15:00 PM 6.71 44.078 0.071 6.97 4.98 11.67
11/4/2021 11:30:00 PM 6.65 43.97 0.071 6.97 4.69 11.68
11/4/2021 11:45:00 PM 6.6 43.88 0.071 6.97 4.62 11.7
11/5/2021 12:00:00 AM 6.55 43.79 0.071 7.01 4.91 11.71
11/5/2021 12:15:00 AM 6.49 43.682 0.071 6.99 5.15 11.72
11/5/2021 12:30:00 AM 6.44 43.592 0.071 7 5.26 11.74
11/5/2021 12:45:00 AM 6.38 43.484 0.071 6.98 5.42 11.75
11/5/2021 1:00:00 AM 6.33 43.394 0.071 6.98 5.62 11.76
11/5/2021 1:15:00 AM 6.28 43.304 0.071 6.97 5.2 11.78
11/5/2021 1:30:00 AM 6.22 43.196 0.072 6.98 5.43 11.8
11/5/2021 1:45:00 AM 6.17 43.106 0.072 6.98 5.32 11.82
11/5/2021 2:00:00 AM 6.12 43.016 0.072 6.96 5.56 11.83
11/5/2021 2:15:00 AM 6.06 42.908 0.072 6.98 5.15 11.85
11/5/2021 2:30:00 AM 6.01 42.818 0.072 6.95 4.9 11.87
11/5/2021 2:45:00 AM 5.96 42.728 0.072 6.97 4.86 11.88
11/5/2021 3:00:00 AM 5.91 42.638 0.072 6.97 4.74 11.9
11/5/2021 3:15:00 AM 5.85 42.53 0.072 6.96 4.8 11.92
11/5/2021 3:30:00 AM 5.8 42.44 0.072 6.97 4.6 11.93
11/5/2021 3:45:00 AM 5.75 42.35 0.072 6.97 4.57 11.95
11/5/2021 4:00:00 AM 5.7 42.26 0.072 6.97 4.45 11.96
11/5/2021 4:15:00 AM 5.65 42.17 0.072 6.96 4.33 11.98
11/5/2021 4:30:00 AM 5.6 42.08 0.072 6.97 4.35 12
11/5/2021 4:45:00 AM 5.55 41.99 0.072 6.98 4.44 12.01
11/5/2021 5:00:00 AM 5.51 41.918 0.072 6.97 4.33 12.03
11/5/2021 5:15:00 AM 5.46 41.828 0.072 6.97 4.4 12.04
11/5/2021 5:30:00 AM 5.41 41.738 0.072 6.97 4.35 12.06
11/5/2021 5:45:00 AM 5.37 41.666 0.072 6.97 4.73 12.08
11/5/2021 6:00:00 AM 5.32 41.576 0.072 6.96 4.88 12.1
11/5/2021 6:15:00 AM 5.28 41.504 0.072 6.96 4.68 12.11
11/5/2021 6:30:00 AM 5.24 41.432 0.072 6.97 4.65 12.13
11/5/2021 6:45:00 AM 5.19 41.342 0.072 6.98 4.43 12.15
11/5/2021 7:00:00 AM 5.15 41.27 0.072 6.97 4.38 12.15
11/5/2021 7:15:00 AM 5.11 41.198 0.072 6.97 4.48 12.17
11/5/2021 7:30:00 AM 5.06 41.108 0.072 6.96 9.5 12.19
11/5/2021 7:45:00 AM 5.02 41.036 0.072 6.97 9.83 12.2
11/5/2021 8:00:00 AM 4.99 40.982 0.072 6.97 9.01 12.22
11/5/2021 8:15:00 AM 4.95 40.91 0.072 6.96 7.67 12.25
11/5/2021 8:30:00 AM 4.92 40.856 0.072 6.97 6.44 12.28
11/5/2021 8:45:00 AM 4.89 40.802 0.072 6.97 5.71 12.3
11/5/2021 9:00:00 AM 4.88 40.784 0.072 6.98 5.32 12.33
11/5/2021 9:15:00 AM 4.87 40.766 0.072 6.98 5.13 12.36
11/5/2021 9:30:00 AM 4.87 40.766 0.072 6.99 4.84 12.39
11/5/2021 9:45:00 AM 4.88 40.784 0.072 7 4.46 12.41
11/5/2021 10:00:00 AM 4.91 40.838 0.072 7.01 4.44 12.43
11/5/2021 10:15:00 AM 4.95 40.91 0.072 6.99 4.26 12.45
11/5/2021 10:30:00 AM 5 41 0.072 7 4.3 12.47
11/5/2021 10:45:00 AM 5.07 41.126 0.072 7 4.07 12.48
11/5/2021 11:00:00 AM 5.16 41.288 0.072 7.02 4.31 12.5
11/5/2021 11:15:00 AM 5.26 41.468 0.072 7.03 4.47 12.51
11/5/2021 11:30:00 AM 5.38 41.684 0.072 7.01 4.08 12.51
11/5/2021 11:45:00 AM 5.51 41.918 0.072 7.02 4.14 12.51
11/5/2021 12:00:00 PM 5.65 42.17 0.072 7.02 4.09 12.5
11/5/2021 12:15:00 PM 5.8 42.44 0.072 7.04 4.09 12.49
11/5/2021 12:30:00 PM 5.95 42.71 0.072 7.05 4.02 12.49
11/5/2021 12:45:00 PM 6.1 42.98 0.072 7.06 4.21 12.48
11/5/2021 1:00:00 PM 6.25 43.25 0.072 7.06 4.23 12.45
11/5/2021 1:15:00 PM 6.39 43.502 0.072 7.07 109.39 12.43
11/5/2021 1:30:00 PM 6.51 43.718 0.072 7.06 4.24 12.42
11/5/2021 1:45:00 PM 6.63 43.934 0.072 7.05 3.98 12.4
11/5/2021 2:00:00 PM 6.73 44.114 0.072 7.07 4.06 12.37
11/5/2021 2:15:00 PM 6.81 44.258 0.072 7.08 3.91 12.34
11/5/2021 2:30:00 PM 6.88 44.384 0.072 7.06 4.18 12.32
11/5/2021 2:45:00 PM 6.95 44.51 0.072 7.06 3.97 12.29
11/5/2021 3:00:00 PM 7.01 44.618 0.072 7.06 3.99 12.27
11/5/2021 3:15:00 PM 7.05 44.69 0.072 7.07 4.25 12.25
11/5/2021 3:30:00 PM 7.1 44.78 0.072 7.07 4.01 12.23
11/5/2021 3:45:00 PM 7.12 44.816 0.072 7.08 3.89 12.21
11/5/2021 4:00:00 PM 7.14 44.852 0.072 7.08 4 12.19
11/5/2021 4:15:00 PM 7.16 44.888 0.072 7.08 3.95 12.17
11/5/2021 4:30:00 PM 7.19 44.942 0.072 7.09 4.33 12.14
11/5/2021 4:45:00 PM 7.21 44.978 0.072 7.08 4.03 12.11
11/5/2021 5:00:00 PM 7.22 44.996 0.072 7.08 4.22 12.07
11/5/2021 5:15:00 PM 7.21 44.978 0.072 7.07 3.92 12.03
11/5/2021 5:30:00 PM 7.2 44.96 0.072 7.07 3.96 11.99
11/5/2021 5:45:00 PM 7.19 44.942 0.072 7.06 4.11 11.95
11/5/2021 6:00:00 PM 7.17 44.906 0.072 7.06 3.92 11.92
11/5/2021 6:15:00 PM 7.17 44.906 0.072 7.06 3.91 11.88
11/5/2021 6:30:00 PM 7.17 44.906 0.072 7.06 4.23 11.85
11/5/2021 6:45:00 PM 7.18 44.924 0.072 7.05 3.96 11.82
11/5/2021 7:00:00 PM 7.19 44.942 0.072 7.05 4.12 11.79
11/5/2021 7:15:00 PM 7.2 44.96 0.054 7.05 3.7 11.77
11/5/2021 7:30:00 PM 7.19 44.942 0.072 7.04 3.9 11.75
11/5/2021 7:45:00 PM 7.18 44.924 0.072 7.04 3.95 11.74
11/5/2021 8:00:00 PM 7.15 44.87 0.072 7.05 3.96 11.72
11/5/2021 8:15:00 PM 7.1 44.78 0.072 7.02 3.9 11.71
11/5/2021 8:30:00 PM 7.05 44.69 0.072 7.02 4.16 11.71
11/5/2021 8:45:00 PM 6.99 44.582 0.072 7.03 4.2 11.7
11/5/2021 9:00:00 PM 6.93 44.474 0.072 7.02 4.19 11.71
11/5/2021 9:15:00 PM 6.87 44.366 0.073 7.01 4.22 11.71
11/5/2021 9:30:00 PM 6.81 44.258 0.073 7.02 4.37 11.73
11/5/2021 9:45:00 PM 6.74 44.132 0.073 7.02 4.5 11.74
11/5/2021 10:00:00 PM 6.68 44.024 0.073 7 4.41 11.75
11/5/2021 10:15:00 PM 6.61 43.898 0.073 7.01 4.41 11.76
11/5/2021 10:30:00 PM 6.55 43.79 0.073 7.02 4.15 11.77
11/5/2021 10:45:00 PM 6.49 43.682 0.073 6.98 33.23 11.79
11/5/2021 11:00:00 PM 6.43 43.574 0.073 6.99 4.39 11.79
11/5/2021 11:15:00 PM 6.37 43.466 0.073 6.99 4.48 11.8
11/5/2021 11:30:00 PM 6.31 43.358 0.073 7 5.81 11.82
11/5/2021 11:45:00 PM 6.25 43.25 0.073 6.98 4.45 11.83
11/6/2021 12:00:00 AM 6.19 43.142 0.073 6.99 4.9 11.85
11/6/2021 12:15:00 AM 6.13 43.034 0.073 7 5.97 11.87
11/6/2021 12:30:00 AM 6.07 42.926 0.041 7 5.96 11.89
11/6/2021 12:45:00 AM 6.01 42.818 0.073 7.01 6.33 11.91
11/6/2021 1:00:00 AM 5.95 42.71 0.073 7 6.66 11.93
11/6/2021 1:15:00 AM 5.89 42.602 0.073 6.99 6.76 11.95
11/6/2021 1:30:00 AM 5.83 42.494 0.073 6.99 6.71 11.96
11/6/2021 1:45:00 AM 5.77 42.386 0.073 6.99 6.61 11.98
11/6/2021 2:00:00 AM 5.71 42.278 0.073 6.99 6.29 12
11/6/2021 2:15:00 AM 5.65 42.17 0.073 6.99 6.14 12.02
11/6/2021 2:30:00 AM 5.59 42.062 0.073 6.99 5.61 12.04
11/6/2021 2:45:00 AM 5.53 41.954 0.073 6.98 5.28 12.06
11/6/2021 3:00:00 AM 5.48 41.864 0.073 6.96 4.13 12.08
11/6/2021 3:15:00 AM 5.42 41.756 0.073 6.98 5.24 12.1
11/6/2021 3:30:00 AM 5.37 41.666 0.073 6.98 5.2 12.12
11/6/2021 3:45:00 AM 5.31 41.558 0.073 6.98 4.71 12.14
11/6/2021 4:00:00 AM 5.26 41.468 0.073 6.98 4.78 12.16
11/6/2021 4:15:00 AM 5.2 41.36 0.073 6.98 4.73 12.18
11/6/2021 4:30:00 AM 5.15 41.27 0.073 6.98 4.2 12.19
11/6/2021 4:45:00 AM 5.1 41.18 0.073 6.99 4.42 12.2
11/6/2021 5:00:00 AM 5.05 41.09 0.073 6.98 4.23 12.22
11/6/2021 5:15:00 AM 5 41 0.073 6.99 4.21 12.23
11/6/2021 5:30:00 AM 4.96 40.928 0.073 6.98 4.19 12.25
11/6/2021 5:45:00 AM 4.91 40.838 0.073 6.99 4.14 12.27
11/6/2021 6:00:00 AM 4.86 40.748 0.073 6.99 4.17 12.29
11/6/2021 6:15:00 AM 4.81 40.658 0.073 6.99 4.04 12.31
11/6/2021 6:30:00 AM 4.77 40.586 0.074 6.99 4.08 12.32
11/6/2021 6:45:00 AM 4.72 40.496 0.073 6.99 3.97 12.35
11/6/2021 7:00:00 AM 4.67 40.406 0.073 6.99 4.14 12.36
11/6/2021 7:15:00 AM 4.63 40.334 0.073 6.99 4.17 12.37
11/6/2021 7:30:00 AM 4.58 40.244 0.074 6.99 4.24 12.39
11/6/2021 7:45:00 AM 4.54 40.172 0.073 6.99 4.09 12.41
11/6/2021 8:00:00 AM 4.5 40.1 0.074 6.99 3.99 12.42
11/6/2021 8:15:00 AM 4.47 40.046 0.074 7 4.1 12.45
11/6/2021 8:30:00 AM 4.44 39.992 0.073 7 4.23 12.48
11/6/2021 8:45:00 AM 4.41 39.938 0.074 7 4.09 12.5
11/6/2021 9:00:00 AM 4.4 39.92 0.074 7 3.97 12.53
11/6/2021 9:15:00 AM 4.38 39.884 0.074 7.01 4.12 12.55
11/6/2021 9:30:00 AM 4.38 39.884 0.074 7.01 3.96 12.58
11/6/2021 9:45:00 AM 4.4 39.92 0.074 7.02 4.03 12.6
11/6/2021 10:00:00 AM 4.42 39.956 0.074 7.02 3.98 12.63
11/6/2021 10:15:00 AM 4.47 40.046 0.074 7.02 3.88 12.64
11/6/2021 10:30:00 AM 4.52 40.136 0.074 7.03 3.98 12.67
11/6/2021 10:45:00 AM 4.59 40.262 0.074 7.03 3.61 12.68
11/6/2021 11:00:00 AM 4.68 40.424 0.074 7.05 3.62 12.69
11/6/2021 11:15:00 AM 4.79 40.622 0.074 7.05 3.94 12.69
11/6/2021 11:30:00 AM 4.93 40.874 0.073 7.06 3.83 12.69
11/6/2021 11:45:00 AM 5.08 41.144 0.073 7.06 3.66 12.69
11/6/2021 12:00:00 PM 5.23 41.414 0.073 7.06 3.78 12.7
11/6/2021 12:15:00 PM 5.4 41.72 0.073 7.07 3.65 12.69
11/6/2021 12:30:00 PM 5.56 42.008 0.073 7.07 3.66 12.66
11/6/2021 12:45:00 PM 5.72 42.296 0.073 7.08 3.61 12.64
11/6/2021 1:00:00 PM 5.88 42.584 0.073 7.08 3.78 12.63
11/6/2021 1:15:00 PM 6.03 42.854 0.073 7.09 3.8 12.61
11/6/2021 1:30:00 PM 6.16 43.088 0.073 7.08 3.81 12.58
11/6/2021 1:45:00 PM 6.29 43.322 0.073 7.09 3.69 12.55
11/6/2021 2:00:00 PM 6.4 43.52 0.073 7.08 3.67 12.53
11/6/2021 2:15:00 PM 6.5 43.7 0.073 7.09 3.55 12.51
11/6/2021 2:30:00 PM 6.59 43.862 0.073 7.1 3.71 12.49
11/6/2021 2:45:00 PM 6.65 43.97 0.073 7.1 3.6 12.46
11/6/2021 3:00:00 PM 6.7 44.06 0.073 7.09 3.63 12.42
11/6/2021 3:15:00 PM 6.75 44.15 0.073 7.1 3.66 12.4
11/6/2021 3:30:00 PM 6.77 44.186 0.073 7.1 3.55 12.37
11/6/2021 3:45:00 PM 6.78 44.204 0.073 7.1 3.87 12.34
11/6/2021 4:00:00 PM 6.77 44.186 0.073 7.1 3.62 12.31
11/6/2021 4:15:00 PM 6.76 44.168 0.073 7.1 3.7 12.28
11/6/2021 4:30:00 PM 6.76 44.168 0.073 7.1 3.65 12.25
11/6/2021 4:45:00 PM 6.76 44.168 0.073 7.09 3.69 12.22
11/6/2021 5:00:00 PM 6.76 44.168 0.073 7.09 3.57 12.19
11/6/2021 5:15:00 PM 6.76 44.168 0.073 7.09 3.55 12.15
11/6/2021 5:30:00 PM 6.75 44.15 0.073 7.08 3.51 12.1
11/6/2021 5:45:00 PM 6.74 44.132 0.073 7.08 3.48 12.06
11/6/2021 6:00:00 PM 6.74 44.132 0.074 7.08 3.63 12.02
11/6/2021 6:15:00 PM 6.74 44.132 0.073 7.07 3.47 11.98
11/6/2021 6:30:00 PM 6.75 44.15 0.073 7.07 3.74 11.95
11/6/2021 6:45:00 PM 6.76 44.168 0.073 7.06 3.76 11.92
11/6/2021 7:00:00 PM 6.77 44.186 0.073 7.06 3.82 11.89
11/6/2021 7:15:00 PM 6.77 44.186 0.073 7.06 3.7 11.86
11/6/2021 7:30:00 PM 6.78 44.204 0.073 7.06 3.86 11.83
11/6/2021 7:45:00 PM 6.77 44.186 0.073 7.05 3.56 11.81
11/6/2021 8:00:00 PM 6.76 44.168 0.074 7.06 3.98 11.8
11/6/2021 8:15:00 PM 6.74 44.132 0.073 7.05 3.56 11.79
11/6/2021 8:30:00 PM 6.71 44.078 0.074 7.04 3.62 11.78
11/6/2021 8:45:00 PM 6.67 44.006 0.074 7.04 3.77 11.78
11/6/2021 9:00:00 PM 6.62 43.916 0.074 7.04 3.78 11.78
11/6/2021 9:15:00 PM 6.56 43.808 0.074 7.04 3.61 11.78
11/6/2021 9:30:00 PM 6.5 43.7 0.074 7.04 3.83 11.78
11/6/2021 9:45:00 PM 6.44 43.592 0.074 7.03 3.7 11.79
11/6/2021 10:00:00 PM 6.37 43.466 0.074 7.03 3.7 11.8
11/6/2021 10:15:00 PM 6.3 43.34 0.074 7.03 3.66 11.81
11/6/2021 10:30:00 PM 6.24 43.232 0.074 7.03 3.67 11.82
11/6/2021 10:45:00 PM 6.17 43.106 0.074 7.02 3.78 11.84
11/6/2021 11:00:00 PM 6.11 42.998 0.074 7.02 3.74 11.86
11/6/2021 11:15:00 PM 6.05 42.89 0.074 7.02 3.73 11.86
11/6/2021 11:30:00 PM 5.99 42.782 0.074 7.02 3.9 11.89
11/6/2021 11:45:00 PM 5.93 42.674 0.074 7.01 3.68 11.9
11/7/2021 12:00:00 AM 5.88 42.584 0.074 7.02 3.86 11.91
11/7/2021 12:15:00 AM 5.82 42.476 0.074 7.02 3.82 11.93
11/7/2021 12:30:00 AM 5.76 42.368 0.074 7.02 3.87 11.94
11/7/2021 12:45:00 AM 5.71 42.278 0.074 7.01 3.92 11.95
11/7/2021 1:00:00 AM 5.66 42.188 0.074 7.01 3.94 11.97
11/7/2021 1:15:00 AM 5.6 42.08 0.074 7.01 3.96 11.99
11/7/2021 1:30:00 AM 5.54 41.972 0.074 7.01 3.86 12.01
11/7/2021 1:45:00 AM 5.49 41.882 0.074 7.01 3.92 12.03
11/7/2021 2:00:00 AM 5.42 41.756 0.074 7.01 3.91 12.05
11/7/2021 2:15:00 AM 5.37 41.666 0.074 7.01 3.84 12.06
11/7/2021 2:30:00 AM 5.31 41.558 0.074 7.01 3.92 12.09
11/7/2021 2:45:00 AM 5.25 41.45 0.075 7.01 3.94 12.1
11/7/2021 3:00:00 AM 5.2 41.36 0.074 7.01 3.95 12.12
11/7/2021 3:15:00 AM 5.14 41.252 0.074 7 3.76 12.14
11/7/2021 3:30:00 AM 5.09 41.162 0.074 7 3.81 12.15
11/7/2021 3:45:00 AM 5.03 41.054 0.074 7 3.8 12.17
11/7/2021 4:00:00 AM 4.77 40.586 0.075 7 4.23 12.26
11/7/2021 4:15:00 AM 4.71 40.478 0.075 7 3.67 12.28
11/7/2021 4:30:00 AM 4.67 40.406 0.075 7 3.7 12.29
11/7/2021 4:45:00 AM 4.63 40.334 0.075 7 3.61 12.31
11/7/2021 5:00:00 AM 4.58 40.244 0.075 7 3.64 12.33
11/7/2021 5:15:00 AM 4.54 40.172 0.075 7 3.66 12.34
11/7/2021 5:30:00 AM 4.49 40.082 0.075 6.99 3.76 12.35
11/7/2021 5:45:00 AM 4.45 40.01 0.075 6.99 3.78 12.37
11/7/2021 6:00:00 AM 4.41 39.938 0.075 6.99 3.68 12.38
11/7/2021 6:15:00 AM 4.37 39.866 0.075 6.99 3.68 12.39
11/7/2021 6:30:00 AM 4.33 39.794 0.075 6.99 3.74 12.4
11/7/2021 6:45:00 AM 4.29 39.722 0.075 6.99 3.67 12.42
11/7/2021 7:00:00 AM 4.26 39.668 0.075 7 3.7 12.45
11/7/2021 7:15:00 AM 4.22 39.596 0.075 7 3.59 12.47
11/7/2021 7:30:00 AM 4.19 39.542 0.075 7 3.46 12.5
11/7/2021 7:45:00 AM 4.17 39.506 0.075 7 3.58 12.53
11/7/2021 8:00:00 AM 4.16 39.488 0.075 7.01 3.59 12.57
11/7/2021 8:15:00 AM 4.15 39.47 0.075 7.01 3.54 12.6
11/7/2021 8:30:00 AM 4.16 39.488 0.075 7.02 3.78 12.62
11/7/2021 8:45:00 AM 4.17 39.506 0.075 7.02 3.48 12.64
11/7/2021 9:00:00 AM 4.21 39.578 0.075 7.02 3.62 12.66
11/7/2021 9:15:00 AM 4.26 39.668 0.075 7.03 3.43 12.67
11/7/2021 9:30:00 AM 4.32 39.776 0.075 7.03 3.54 12.69
11/7/2021 9:45:00 AM 4.39 39.902 0.075 7.04 3.56 12.7
11/7/2021 10:00:00 AM 4.49 40.082 0.075 7.04 3.36 12.72
11/7/2021 10:15:00 AM 4.61 40.298 0.075 7.04 3.5 12.72
11/7/2021 10:30:00 AM 4.74 40.532 0.075 7.05 3.51 12.73
11/7/2021 10:45:00 AM 4.88 40.784 0.075 7.05 3.47 12.72
11/7/2021 11:00:00 AM 5.04 41.072 0.075 7.06 3.4 12.72
11/7/2021 11:15:00 AM 5.21 41.378 0.075 7.06 3.23 12.72
11/7/2021 11:30:00 AM 5.39 41.702 0.075 7.07 3.39 12.71
11/7/2021 11:45:00 AM 5.57 42.026 0.075 7.07 3.46 12.68
11/7/2021 12:00:00 PM 5.74 42.332 0.075 7.06 3.36 12.66
11/7/2021 12:15:00 PM 5.9 42.62 0.075 7.06 3.21 12.64
11/7/2021 12:30:00 PM 6.06 42.908 0.075 7.08 3.29 12.61
11/7/2021 12:45:00 PM 6.2 43.16 0.075 7.08 3.21 12.58
11/7/2021 1:00:00 PM 6.32 43.376 0.075 7.09 3.42 12.56
11/7/2021 1:15:00 PM 6.43 43.574 0.075 7.07 3.26 12.54
11/7/2021 1:30:00 PM 6.53 43.754 0.075 7.09 3.47 12.51
11/7/2021 1:45:00 PM 6.61 43.898 0.075 7.09 3.27 12.48
11/7/2021 2:00:00 PM 6.66 43.988 0.074 7.09 3.26 12.45
11/7/2021 2:15:00 PM 6.71 44.078 0.074 7.09 3.32 12.42
11/7/2021 2:30:00 PM 6.75 44.15 0.075 7.1 3.39 12.4
11/7/2021 2:45:00 PM 6.77 44.186 0.074 7.1 3.75 12.37
11/7/2021 3:00:00 PM 6.77 44.186 0.075 7.1 3.46 12.33
11/7/2021 3:15:00 PM 6.77 44.186 0.075 7.09 3.75 12.3
11/7/2021 3:30:00 PM 6.77 44.186 0.075 7.09 3.42 12.26
11/7/2021 3:45:00 PM 6.77 44.186 0.075 7.09 3.27 12.23
11/7/2021 4:00:00 PM 6.78 44.204 0.075 7.09 3.46 12.2
11/7/2021 4:15:00 PM 6.77 44.186 0.074 7.09 3.45 12.16
11/7/2021 4:30:00 PM 6.76 44.168 0.075 7.07 3.52 12.11
11/7/2021 4:45:00 PM 6.75 44.15 0.075 7.08 3.46 12.06
11/7/2021 5:00:00 PM 6.74 44.132 0.075 7.08 3.3 12.01
11/7/2021 5:15:00 PM 6.75 44.15 0.075 7.07 3.62 11.98
11/7/2021 5:30:00 PM 6.76 44.168 0.075 7.07 3.43 11.94
11/7/2021 5:45:00 PM 6.77 44.186 0.075 7.05 3.27 11.9
11/7/2021 6:00:00 PM 6.78 44.204 0.075 7.06 3.3 11.86
11/7/2021 6:15:00 PM 6.8 44.24 0.075 7.04 3.62 11.83
11/7/2021 6:30:00 PM 6.82 44.276 0.075 7.06 3.53 11.81
11/7/2021 6:45:00 PM 6.83 44.294 0.075 7.05 3.54 11.78
11/7/2021 7:00:00 PM 6.85 44.33 0.075 7.05 3.28 11.76
11/7/2021 7:15:00 PM 6.85 44.33 0.075 7.05 3.43 11.73
11/7/2021 7:30:00 PM 6.84 44.312 0.075 7.05 3.21 11.72
11/7/2021 7:45:00 PM 6.83 44.294 0.075 7.03 3.5 11.71
11/7/2021 8:00:00 PM 6.8 44.24 0.075 7.04 3.38 11.7
11/7/2021 8:15:00 PM 6.78 44.204 0.075 7.04 3.42 11.69
11/7/2021 8:30:00 PM 6.74 44.132 0.075 7.04 3.5 11.7
11/7/2021 8:45:00 PM 6.69 44.042 0.075 7.04 3.61 11.7
11/7/2021 9:00:00 PM 6.64 43.952 0.075 7.03 3.78 11.7
11/7/2021 9:15:00 PM 6.58 43.844 0.075 7.02 3.44 11.72
11/7/2021 9:30:00 PM 6.53 43.754 0.075 7.03 3.66 11.72
11/7/2021 9:45:00 PM 6.47 43.646 0.075 7.03 3.72 11.73
11/7/2021 10:00:00 PM 6.41 43.538 0.075 7.03 3.7 11.73
11/7/2021 10:15:00 PM 6.36 43.448 0.075 7.02 11.76 11.74
11/7/2021 10:30:00 PM 6.31 43.358 0.075 7.02 4.67 11.75
11/7/2021 10:45:00 PM 6.26 43.268 0.075 7.02 4.66 11.76
11/7/2021 11:00:00 PM 6.21 43.178 0.075 7.01 4.38 11.78
11/7/2021 11:15:00 PM 6.16 43.088 0.075 7.02 36.32 11.79
11/7/2021 11:30:00 PM 6.11 42.998 0.074 7.03 3.99 11.8
11/7/2021 11:45:00 PM 6.06 42.908 0.075 7.02 3.76 11.82
11/8/2021 12:00:00 AM 6.02 42.836 0.075 7.02 5.53 11.83
11/8/2021 12:15:00 AM 5.97 42.746 0.075 7.02 5.44 11.84
11/8/2021 12:30:00 AM 5.93 42.674 0.076 7.02 4.65 11.86
11/8/2021 12:45:00 AM 5.88 42.584 0.075 7.02 3.71 11.87
11/8/2021 1:00:00 AM 5.83 42.494 0.075 7.02 3.69 11.88
11/8/2021 1:15:00 AM 5.79 42.422 0.075 7.02 3.66 11.89
11/8/2021 1:30:00 AM 5.74 42.332 0.075 7.02 3.55 11.91
11/8/2021 1:45:00 AM 5.69 42.242 0.075 7.02 3.7 11.92
11/8/2021 2:00:00 AM 5.64 42.152 0.075 7.02 3.55 11.94
11/8/2021 2:15:00 AM 5.59 42.062 0.076 7.02 3.7 11.95
11/8/2021 2:30:00 AM 5.54 41.972 0.076 7.01 3.75 11.97
11/8/2021 2:45:00 AM 5.49 41.882 0.075 7.01 3.8 12
11/8/2021 3:00:00 AM 5.45 41.81 0.076 7.01 3.7 12.01
11/8/2021 3:15:00 AM 5.4 41.72 0.076 7.01 3.76 12.03
11/8/2021 3:30:00 AM 5.35 41.63 0.076 7.01 3.71 12.05
11/8/2021 3:45:00 AM 5.31 41.558 0.076 6.99 3.89 12.06
11/8/2021 4:00:00 AM 5.26 41.468 0.076 7.01 3.88 12.07
11/8/2021 4:15:00 AM 5.22 41.396 0.076 7.01 3.94 12.09
11/8/2021 4:30:00 AM 5.17 41.306 0.076 7.01 4.02 12.1
11/8/2021 4:45:00 AM 5.13 41.234 0.076 7.01 3.91 12.11
11/8/2021 5:00:00 AM 5.09 41.162 0.076 7.01 4 12.13
11/8/2021 5:15:00 AM 5.05 41.09 0.076 7 3.7 12.14
11/8/2021 5:30:00 AM 5.01 41.018 0.076 7 3.89 12.15
11/8/2021 5:45:00 AM 4.97 40.946 0.076 7.01 4.03 12.17
11/8/2021 6:00:00 AM 4.93 40.874 0.076 7 3.81 12.18
11/8/2021 6:15:00 AM 4.89 40.802 0.076 7 3.96 12.19
11/8/2021 6:30:00 AM 4.86 40.748 0.076 7 3.97 12.21
11/8/2021 6:45:00 AM 4.82 40.676 0.076 7 4.11 12.23
11/8/2021 7:00:00 AM 4.79 40.622 0.076 7 3.89 12.25
11/8/2021 7:15:00 AM 4.76 40.568 0.076 7 3.79 12.28
11/8/2021 7:30:00 AM 4.74 40.532 0.076 7.01 3.66 12.32
11/8/2021 7:45:00 AM 4.72 40.496 0.076 7.01 3.63 12.35
11/8/2021 8:00:00 AM 4.71 40.478 0.076 7.01 3.59 12.39
11/8/2021 8:15:00 AM 4.71 40.478 0.076 7.01 3.57 12.42
11/8/2021 8:30:00 AM 4.71 40.478 0.076 7.02 3.63 12.46
11/8/2021 8:45:00 AM 4.73 40.514 0.076 7.03 3.64 12.48
11/8/2021 9:00:00 AM 4.76 40.568 0.076 7.03 3.73 12.51
11/8/2021 9:15:00 AM 4.81 40.658 0.076 7.04 3.73 12.54
11/8/2021 9:30:00 AM 4.87 40.766 0.076 7.04 3.58 12.56
11/8/2021 9:45:00 AM 4.95 40.91 0.076 7.05 3.5 12.56
11/8/2021 10:00:00 AM 5.04 41.072 0.076 7.05 3.55 12.58
11/8/2021 10:15:00 AM 5.15 41.27 0.076 7.06 3.5 12.59
11/8/2021 10:30:00 AM 5.29 41.522 0.076 7.06 3.72 12.6
11/8/2021 10:45:00 AM 5.43 41.774 0.076 7.07 3.38 12.61
11/8/2021 11:00:00 AM 5.59 42.062 0.076 7.08 3.34 12.6
11/8/2021 11:15:00 AM 5.76 42.368 0.076 7.09 3.43 12.6
11/8/2021 11:30:00 AM 5.94 42.692 0.076 7.09 3.47 12.6
11/8/2021 11:45:00 AM 6.13 43.034 0.076 7.1 3.66 12.58
11/8/2021 12:00:00 PM 6.32 43.376 0.076 7.09 3.97 12.56
11/8/2021 12:15:00 PM 6.5 43.7 0.076 7.1 3.86 12.54
11/8/2021 12:30:00 PM 6.67 44.006 0.076 7.11 3.74 12.53
11/8/2021 12:45:00 PM 6.82 44.276 0.076 7.11 3.67 12.49
11/8/2021 1:00:00 PM 6.96 44.528 0.076 7.12 3.65 12.46
11/8/2021 1:15:00 PM 7.08 44.744 0.076 7.12 3.44 12.44
11/8/2021 1:30:00 PM 7.18 44.924 0.076 7.12 3.45 12.42
11/8/2021 1:45:00 PM 7.26 45.068 0.076 7.12 3.43 12.4
11/8/2021 2:00:00 PM 7.33 45.194 0.076 7.13 3.37 12.37
11/8/2021 2:15:00 PM 7.38 45.284 0.076 7.13 3.47 12.33
11/8/2021 2:30:00 PM 7.43 45.374 0.076 7.13 3.47 12.31
11/8/2021 2:45:00 PM 7.46 45.428 0.076 7.13 3.55 12.27
11/8/2021 3:00:00 PM 7.47 45.446 0.076 7.13 3.32 12.23
11/8/2021 3:15:00 PM 7.48 45.464 0.076 7.13 3.34 12.2
11/8/2021 3:30:00 PM 7.48 45.464 0.076 7.13 3.52 12.16
11/8/2021 3:45:00 PM 7.48 45.464 0.076 7.13 3.48 12.12
11/8/2021 4:00:00 PM 7.47 45.446 0.076 7.12 3.39 12.08
11/8/2021 4:15:00 PM 7.47 45.446 0.076 7.12 3.23 12.03
11/8/2021 4:30:00 PM 7.45 45.41 0.076 7.11 3.26 11.98
11/8/2021 4:45:00 PM 7.44 45.392 0.076 7.1 3.28 11.93
11/8/2021 5:00:00 PM 7.44 45.392 0.076 7.1 3.46 11.87
11/8/2021 5:15:00 PM 7.45 45.41 0.076 7.08 3.6 11.83
11/8/2021 5:30:00 PM 7.45 45.41 0.076 7.09 3.48 11.79
11/8/2021 5:45:00 PM 7.46 45.428 0.076 7.08 3.5 11.75
11/8/2021 6:00:00 PM 7.47 45.446 0.076 7.08 3.44 11.71
11/8/2021 6:15:00 PM 7.48 45.464 0.076 7.08 3.43 11.68
11/8/2021 6:30:00 PM 7.5 45.5 0.076 7.08 3.64 11.65
11/8/2021 6:45:00 PM 7.52 45.536 0.076 7.07 3.34 11.62
11/8/2021 7:00:00 PM 7.54 45.572 0.076 7.06 3.32 11.59
11/8/2021 7:15:00 PM 7.56 45.608 0.076 7.06 3.45 11.56
11/8/2021 7:30:00 PM 7.57 45.626 0.076 7.05 3.31 11.54
11/8/2021 7:45:00 PM 7.58 45.644 0.075 7.06 3.46 11.51
11/8/2021 8:00:00 PM 7.58 45.644 0.076 7.05 3.38 11.5
11/8/2021 8:15:00 PM 7.57 45.626 0.076 7.06 3.58 11.48
11/8/2021 8:30:00 PM 7.55 45.59 0.076 7.05 3.55 11.47
11/8/2021 8:45:00 PM 7.52 45.536 0.076 7.05 3.63 11.47
11/8/2021 9:00:00 PM 7.48 45.464 0.077 7.05 3.86 11.46
11/8/2021 9:15:00 PM 7.43 45.374 0.076 7.04 3.69 11.46
11/8/2021 9:30:00 PM 7.39 45.302 0.077 7.05 3.59 11.47
11/8/2021 9:45:00 PM 7.34 45.212 0.077 7.03 3.61 11.47
11/8/2021 10:00:00 PM 7.29 45.122 0.076 7.04 3.65 11.48
11/8/2021 10:15:00 PM 7.24 45.032 0.077 7.04 3.48 11.49
11/8/2021 10:30:00 PM 7.2 44.96 0.077 7.04 3.56 11.49
11/8/2021 10:45:00 PM 7.15 44.87 0.077 7.03 3.56 11.5
11/8/2021 11:00:00 PM 7.1 44.78 0.077 7.03 3.66 11.51
11/8/2021 11:15:00 PM 7.06 44.708 0.077 7.03 3.67 11.52
11/8/2021 11:30:00 PM 7.01 44.618 0.077 7.03 3.7 11.52
11/8/2021 11:45:00 PM 6.97 44.546 0.077 7.03 3.58 11.53
11/9/2021 12:00:00 AM 6.93 44.474 0.076 7.03 3.69 11.54
11/9/2021 12:15:00 AM 6.89 44.402 0.077 7.03 3.59 11.55
11/9/2021 12:30:00 AM 6.85 44.33 0.077 7.03 3.58 11.56
11/9/2021 12:45:00 AM 6.81 44.258 0.077 7.03 3.59 11.57
11/9/2021 1:00:00 AM 6.76 44.168 0.077 7.03 3.79 11.59
11/9/2021 1:15:00 AM 6.72 44.096 0.077 7.03 3.72 11.6
11/9/2021 1:30:00 AM 6.68 44.024 0.077 7.03 3.67 11.61
11/9/2021 1:45:00 AM 6.64 43.952 0.077 7.02 3.69 11.62
11/9/2021 2:00:00 AM 6.6 43.88 0.077 7.01 40.35 11.63
11/9/2021 2:15:00 AM 6.56 43.808 0.077 7.01 7.87 11.64
11/9/2021 2:30:00 AM 6.52 43.736 0.077 7.02 4.98 11.65
11/9/2021 2:45:00 AM 6.48 43.664 0.077 7.01 17.63 11.66
11/9/2021 3:00:00 AM 6.44 43.592 0.077 7.02 24.21 11.68
11/9/2021 3:15:00 AM 6.39 43.502 0.077 7.01 25.59 11.69
11/9/2021 3:30:00 AM 6.35 43.43 0.077 7.02 25.83 11.7
11/9/2021 3:45:00 AM 6.31 43.358 0.077 7.02 26.82 11.72
11/9/2021 4:00:00 AM 6.27 43.286 0.077 7.01 26.94 11.73
11/9/2021 4:15:00 AM 6.23 43.214 0.077 7.02 27.8 11.74
11/9/2021 4:30:00 AM 6.19 43.142 0.077 7.02 28.2 11.76
11/9/2021 4:45:00 AM 6.15 43.07 0.077 7.01 29.48 11.77
11/9/2021 5:00:00 AM 6.12 43.016 0.077 7.01 30.73 11.79
11/9/2021 5:15:00 AM 6.08 42.944 0.077 6.99 1965.88 11.8
11/9/2021 5:30:00 AM 6.05 42.89 0.077 7.01 52.07 11.81
11/9/2021 5:45:00 AM 6.02 42.836 0.077 7.01 5.3 11.82
11/9/2021 6:00:00 AM 5.98 42.764 0.077 7.01 6.72 11.83
11/9/2021 6:15:00 AM 5.95 42.71 0.077 7.01 5.7 11.84
11/9/2021 6:30:00 AM 5.92 42.656 0.077 7 4.99 11.85
11/9/2021 6:45:00 AM 5.89 42.602 0.077 7.01 4.21 11.86
11/9/2021 7:00:00 AM 5.87 42.566 0.077 7.01 3.83 11.89
11/9/2021 7:15:00 AM 5.85 42.53 0.077 7.01 3.78 11.91
11/9/2021 7:30:00 AM 5.83 42.494 0.077 7.02 3.76 11.94
11/9/2021 7:45:00 AM 5.82 42.476 0.077 7.02 3.81 11.98
11/9/2021 8:00:00 AM 5.82 42.476 0.077 7.03 3.71 12.02
11/9/2021 8:15:00 AM 5.82 42.476 0.077 7.03 3.64 12.06
11/9/2021 8:30:00 AM 5.84 42.512 0.077 7.04 3.54 12.09
11/9/2021 8:45:00 AM 5.87 42.566 0.077 7.05 3.56 12.14
11/9/2021 9:00:00 AM 5.91 42.638 0.077 7.05 3.58 12.17
11/9/2021 9:15:00 AM 5.97 42.746 0.077 7.06 3.49 12.2
11/9/2021 9:30:00 AM 6.05 42.89 0.077 7.06 3.53 12.23
11/9/2021 9:45:00 AM 6.13 43.034 0.077 7.07 3.65 12.24
11/9/2021 10:00:00 AM 6.23 43.214 0.077 7.07 3.5 12.25
11/9/2021 10:15:00 AM 6.35 43.43 0.077 7.08 3.52 12.27
11/9/2021 10:30:00 AM 6.48 43.664 0.077 7.09 3.34 12.29
11/9/2021 10:45:00 AM 6.62 43.916 0.077 7.1 3.43 12.3
11/9/2021 11:00:00 AM 6.82 44.276 0.077 7.11 3.38 12.31
11/9/2021 11:15:00 AM 6.94 44.492 0.077 7.11 3.32 12.31
11/9/2021 11:30:00 AM 7.03 44.654 0.077 7.1 3.35 12.32
11/9/2021 11:45:00 AM 7.18 44.924 0.077 7.13 3.34 12.33
11/9/2021 12:00:00 PM 7.36 45.248 0.077 7.13 3.4 12.32
11/9/2021 12:15:00 PM 7.52 45.536 0.077 7.14 3.31 12.29
11/9/2021 12:30:00 PM 7.68 45.824 0.077 7.14 3.39 12.28
11/9/2021 12:45:00 PM 7.83 46.094 0.077 7.15 3.49 12.27
11/9/2021 1:00:00 PM 7.97 46.346 0.077 7.16 3.26 12.25
11/9/2021 1:15:00 PM 8.1 46.58 0.077 7.16 3.54 12.24
11/9/2021 1:30:00 PM 8.15 46.67 0.077 7.17 3.32 12.22
11/9/2021 1:45:00 PM 8.17 46.706 0.077 7.17 3.31 12.19
11/9/2021 2:00:00 PM 8.16 46.688 0.076 7.17 3.32 12.17
11/9/2021 2:15:00 PM 8.2 46.76 0.077 7.17 3.32 12.16
11/9/2021 2:30:00 PM 8.23 46.814 0.077 7.18 3.33 12.14
11/9/2021 2:45:00 PM 8.27 46.886 0.077 7.18 3.42 12.12
11/9/2021 3:00:00 PM 8.32 46.976 0.077 7.18 3.27 12.1
11/9/2021 3:15:00 PM 8.35 47.03 0.077 7.18 3.3 12.04
11/9/2021 3:30:00 PM 8.37 47.066 0.077 7.17 3.43 12
11/9/2021 3:45:00 PM 8.39 47.102 0.077 7.16 3.32 11.96
11/9/2021 4:00:00 PM 8.41 47.138 0.077 7.16 3.32 11.92
11/9/2021 4:15:00 PM 8.43 47.174 0.077 7.15 3.22 11.86
11/9/2021 4:30:00 PM 8.45 47.21 0.077 7.15 3.29 11.81
11/9/2021 4:45:00 PM 8.47 47.246 0.077 7.14 3.33 11.73
11/9/2021 5:00:00 PM 8.5 47.3 0.077 7.13 3.48 11.67
11/9/2021 5:15:00 PM 8.53 47.354 0.077 7.12 3.46 11.61
11/9/2021 5:30:00 PM 8.56 47.408 0.077 7.11 3.57 11.56
11/9/2021 5:45:00 PM 8.59 47.462 0.077 7.11 3.65 11.51
11/9/2021 6:00:00 PM 8.62 47.516 0.077 7.1 3.71 11.46
11/9/2021 6:15:00 PM 8.66 47.588 0.077 7.09 3.78 11.42
11/9/2021 6:30:00 PM 8.7 47.66 0.077 7.09 3.67 11.38
11/9/2021 6:45:00 PM 8.74 47.732 0.077 7.08 3.54 11.34
11/9/2021 7:00:00 PM 8.78 47.804 0.077 7.08 3.55 11.31
11/9/2021 7:15:00 PM 8.81 47.858 0.077 7.07 3.62 11.27
11/9/2021 7:30:00 PM 8.85 47.93 0.077 7.06 3.62 11.23
11/9/2021 7:45:00 PM 8.88 47.984 0.077 7.05 3.52 11.2
11/9/2021 8:00:00 PM 8.91 48.038 0.077 7.05 3.58 11.16
11/9/2021 8:15:00 PM 8.92 48.056 0.077 7.03 3.57 11.13
11/9/2021 8:30:00 PM 8.94 48.092 0.077 7.04 3.48 11.11
11/9/2021 8:45:00 PM 8.95 48.11 0.077 7.04 3.61 11.09
11/9/2021 9:00:00 PM 8.95 48.11 0.077 7.03 3.57 11.08
11/9/2021 9:15:00 PM 8.95 48.11 0.077 7.03 3.54 11.06
11/9/2021 9:30:00 PM 8.96 48.128 0.078 7.03 3.57 11.04
11/9/2021 9:45:00 PM 8.95 48.11 0.078 7.03 3.58 11.03
11/9/2021 10:00:00 PM 8.94 48.092 0.078 7.02 3.56 11.02
11/9/2021 10:15:00 PM 8.93 48.074 0.078 7.02 3.69 11.01
11/9/2021 10:30:00 PM 8.92 48.056 0.078 7.02 3.56 11
11/9/2021 10:45:00 PM 8.91 48.038 0.078 7.01 3.6 10.99
11/9/2021 11:00:00 PM 8.9 48.02 0.078 7.01 3.63 10.99
11/9/2021 11:15:00 PM 8.89 48.002 0.078 7.01 3.58 10.98
11/9/2021 11:30:00 PM 8.88 47.984 0.078 7 3.53 10.98
11/9/2021 11:45:00 PM 8.87 47.966 0.078 7 3.64 10.98
11/10/2021 12:00:00 AM 8.86 47.948 0.078 7 3.68 10.97
11/10/2021 12:15:00 AM 8.84 47.912 0.078 7 3.53 10.96
11/10/2021 12:30:00 AM 8.83 47.894 0.078 7 3.89 10.97
11/10/2021 12:45:00 AM 8.83 47.894 0.078 7 3.77 10.97
11/10/2021 1:00:00 AM 8.81 47.858 0.078 7 3.68 10.97
11/10/2021 1:15:00 AM 8.78 47.804 0.078 6.98 3.83 10.98
11/10/2021 1:30:00 AM 8.76 47.768 0.078 7 3.77 10.98
11/10/2021 1:45:00 AM 8.74 47.732 0.078 7 3.8 10.99
11/10/2021 2:00:00 AM 8.71 47.678 0.078 7 3.9 10.99
11/10/2021 2:15:00 AM 8.68 47.624 0.078 6.99 3.84 10.99
11/10/2021 2:30:00 AM 8.66 47.588 0.078 7 3.71 11
11/10/2021 2:45:00 AM 8.64 47.552 0.078 7 3.78 11.01
11/10/2021 3:00:00 AM 8.62 47.516 0.078 7 3.79 11.02
11/10/2021 3:15:00 AM 8.6 47.48 0.078 6.99 3.8 11.02
11/10/2021 3:30:00 AM 8.59 47.462 0.078 7 3.68 11.03
11/10/2021 3:45:00 AM 8.57 47.426 0.078 7.01 3.7 11.04
11/10/2021 4:00:00 AM 8.56 47.408 0.078 7 3.86 11.04
11/10/2021 4:15:00 AM 8.55 47.39 0.077 7 3.66 11.04
11/10/2021 4:30:00 AM 8.54 47.372 0.078 7 3.88 11.05
11/10/2021 4:45:00 AM 8.53 47.354 0.078 7 3.95 11.06
11/10/2021 5:00:00 AM 8.52 47.336 0.077 7 3.8 11.06
11/10/2021 5:15:00 AM 8.51 47.318 0.077 7 3.9 11.07
11/10/2021 5:30:00 AM 8.51 47.318 0.078 7 3.85 11.07
11/10/2021 5:45:00 AM 8.5 47.3 0.077 7 3.87 11.08
11/10/2021 6:00:00 AM 8.49 47.282 0.077 7 3.82 11.08
11/10/2021 6:15:00 AM 8.49 47.282 0.077 7.01 3.96 11.08
11/10/2021 6:30:00 AM 8.49 47.282 0.077 7.01 3.91 11.09
11/10/2021 6:45:00 AM 8.48 47.264 0.077 7.01 3.91 11.09
11/10/2021 7:00:00 AM 8.48 47.264 0.077 7.02 3.82 11.1
11/10/2021 7:15:00 AM 8.48 47.264 0.077 7.02 3.99 11.1
11/10/2021 7:30:00 AM 8.48 47.264 0.077 7.02 3.94 11.11
11/10/2021 7:45:00 AM 8.47 47.246 0.077 7.03 3.81 11.13
11/10/2021 8:00:00 AM 8.47 47.246 0.077 7.04 3.78 11.15
11/10/2021 8:15:00 AM 8.47 47.246 0.077 7.04 3.75 11.17
11/10/2021 8:30:00 AM 8.48 47.264 0.077 7.04 3.71 11.21
11/10/2021 8:45:00 AM 8.49 47.282 0.077 7.05 3.7 11.26
11/10/2021 9:00:00 AM 8.51 47.318 0.077 7.06 3.66 11.33
11/10/2021 9:15:00 AM 8.53 47.354 0.077 7.07 3.6 11.39
11/10/2021 9:30:00 AM 8.56 47.408 0.077 7.08 3.67 11.44
11/10/2021 9:45:00 AM 8.58 47.444 0.077 7.09 3.58 11.48
11/10/2021 10:00:00 AM 8.61 47.498 0.077 7.11 3.61 11.53
11/10/2021 10:15:00 AM 8.65 47.57 0.077 7.11 3.66 11.56
11/10/2021 10:30:00 AM 8.67 47.606 0.077 7.11 3.64 11.58
11/10/2021 10:45:00 AM 8.73 47.714 0.076 7.13 3.65 11.63
11/10/2021 11:00:00 AM 8.82 47.876 0.076 7.14 3.65 11.66
11/10/2021 11:15:00 AM 8.94 48.092 0.076 7.15 3.6 11.67
11/10/2021 11:30:00 AM 9.03 48.254 0.076 7.15 3.7 11.69
11/10/2021 11:45:00 AM 9.15 48.47 0.076 7.16 3.8 11.72
11/10/2021 12:00:00 PM 9.26 48.668 0.076 7.17 3.78 11.74
11/10/2021 12:15:00 PM 9.38 48.884 0.076 7.18 3.63 11.74
11/10/2021 12:30:00 PM 9.49 49.082 0.076 7.18 3.72 11.75
11/10/2021 12:45:00 PM 9.59 49.262 0.075 7.2 3.59 11.76
11/10/2021 1:00:00 PM 9.68 49.424 0.075 7.2 3.59 11.76
11/10/2021 1:15:00 PM 9.76 49.568 0.075 7.2 3.64 11.76
11/10/2021 1:30:00 PM 9.83 49.694 0.075 7.2 3.52 11.76
11/10/2021 1:45:00 PM 9.86 49.748 0.075 7.22 3.58 11.76
11/10/2021 2:00:00 PM 9.87 49.766 0.075 7.22 3.72 11.75
11/10/2021 2:15:00 PM 9.86 49.748 0.075 7.23 3.56 11.74
11/10/2021 2:30:00 PM 9.84 49.712 0.075 7.23 3.49 11.73
11/10/2021 2:45:00 PM 9.81 49.658 0.075 7.23 3.67 11.73
11/10/2021 3:00:00 PM 9.76 49.568 0.075 7.23 3.6 11.71
11/10/2021 3:15:00 PM 9.7 49.46 0.075 7.23 3.56 11.67
11/10/2021 3:30:00 PM 9.63 49.334 0.075 7.22 3.48 11.64
11/10/2021 3:45:00 PM 9.57 49.226 0.075 7.22 3.56 11.61
11/10/2021 4:00:00 PM 9.52 49.136 0.075 7.21 3.58 11.57
11/10/2021 4:15:00 PM 9.47 49.046 0.075 7.2 3.51 11.53
11/10/2021 4:30:00 PM 9.42 48.956 0.074 7.19 3.44 11.48
11/10/2021 4:45:00 PM 9.36 48.848 0.075 7.18 3.54 11.43
11/10/2021 5:00:00 PM 9.31 48.758 0.075 7.15 3.8 11.38
11/10/2021 5:15:00 PM 9.26 48.668 0.075 7.15 3.64 11.34
11/10/2021 5:30:00 PM 9.2 48.56 0.075 7.15 3.58 11.32
11/10/2021 5:45:00 PM 9.15 48.47 0.075 7.12 3.6 11.29
11/10/2021 6:00:00 PM 9.11 48.398 0.075 7.13 3.7 11.27
11/10/2021 6:15:00 PM 9.06 48.308 0.075 7.12 3.68 11.24
11/10/2021 6:30:00 PM 9.02 48.236 0.075 7.12 3.75 11.22
11/10/2021 6:45:00 PM 8.99 48.182 0.075 7.11 3.6 11.2
11/10/2021 7:00:00 PM 8.96 48.128 0.075 7.11 3.72 11.18
11/10/2021 7:15:00 PM 8.93 48.074 0.075 7.1 3.59 11.16
11/10/2021 7:30:00 PM 8.9 48.02 0.075 7.1 3.7 11.14
11/10/2021 7:45:00 PM 8.88 47.984 0.075 7.1 3.71 11.13
11/10/2021 8:00:00 PM 8.84 47.912 0.075 7.07 3.65 11.12
11/10/2021 8:15:00 PM 8.81 47.858 0.075 7.08 3.75 11.11
11/10/2021 8:30:00 PM 8.76 47.768 0.075 7.08 3.74 11.1
11/10/2021 8:45:00 PM 8.71 47.678 0.075 7.07 4.83 11.1
11/10/2021 9:00:00 PM 8.65 47.57 0.075 7.07 3.96 11.1
11/10/2021 9:15:00 PM 8.59 47.462 0.075 7.07 3.87 11.11
11/10/2021 9:30:00 PM 8.52 47.336 0.075 7.07 3.9 11.12
11/10/2021 9:45:00 PM 8.45 47.21 0.075 7.06 3.86 11.13
11/10/2021 10:00:00 PM 8.37 47.066 0.075 7.06 3.87 11.14
11/10/2021 10:15:00 PM 8.29 46.922 0.075 7.06 3.82 11.15
11/10/2021 10:30:00 PM 8.22 46.796 0.076 7.06 4.04 11.16
11/10/2021 10:45:00 PM 8.14 46.652 0.076 7.05 3.74 11.17
11/10/2021 11:00:00 PM 8.07 46.526 0.076 7.05 3.7 11.2
11/10/2021 11:15:00 PM 8 46.4 0.076 7.05 3.95 11.21
11/10/2021 11:30:00 PM 7.93 46.274 0.076 7.05 3.83 11.23
11/10/2021 11:45:00 PM 7.86 46.148 0.076 7.05 3.88 11.25
11/11/2021 12:00:00 AM 7.79 46.022 0.076 7.05 3.89 11.26
11/11/2021 12:15:00 AM 7.72 45.896 0.076 7.05 4.22 11.28
11/11/2021 12:30:00 AM 7.65 45.77 0.076 7.05 4.08 11.29
11/11/2021 12:45:00 AM 7.59 45.662 0.076 7.05 4.07 11.31
11/11/2021 1:00:00 AM 7.52 45.536 0.076 7.04 4.21 11.32
11/11/2021 1:15:00 AM 7.45 45.41 0.076 7.04 4.43 11.35
11/11/2021 1:30:00 AM 7.39 45.302 0.076 7.05 4.59 11.37
11/11/2021 1:45:00 AM 7.32 45.176 0.076 7.05 4.56 11.4
11/11/2021 2:00:00 AM 7.25 45.05 0.076 7.04 4.7 11.41
11/11/2021 2:15:00 AM 7.18 44.924 0.076 7.04 4.73 11.43
11/11/2021 2:30:00 AM 7.12 44.816 0.076 7.04 4.57 11.44
11/11/2021 2:45:00 AM 7.05 44.69 0.076 7.04 4.42 11.46
11/11/2021 3:00:00 AM 6.99 44.582 0.076 7.04 5.16 11.48
11/11/2021 3:15:00 AM 6.92 44.456 0.076 7.04 4.44 11.5
11/11/2021 3:30:00 AM 6.85 44.33 0.076 7.04 4.34 11.53
11/11/2021 3:45:00 AM 6.79 44.222 0.076 7.04 4.14 11.55
11/11/2021 4:00:00 AM 6.73 44.114 0.076 7.04 4.3 11.57
11/11/2021 4:15:00 AM 6.67 44.006 0.076 7.03 4.38 11.59
11/11/2021 4:30:00 AM 6.61 43.898 0.076 7.04 4.55 11.61
11/11/2021 4:45:00 AM 6.55 43.79 0.076 7.04 4.31 11.63
11/11/2021 5:00:00 AM 6.5 43.7 0.077 7.04 4.19 11.64
11/11/2021 5:15:00 AM 6.45 43.61 0.077 7.03 4.04 11.66
11/11/2021 5:30:00 AM 6.39 43.502 0.077 7.03 4.04 11.68
11/11/2021 5:45:00 AM 6.34 43.412 0.077 7.03 4.05 11.69
11/11/2021 6:00:00 AM 6.29 43.322 0.077 7.03 4.23 11.71
11/11/2021 6:15:00 AM 6.24 43.232 0.077 7.03 4.11 11.72
11/11/2021 6:30:00 AM 6.19 43.142 0.077 7.03 4 11.75
11/11/2021 6:45:00 AM 6.15 43.07 0.077 7.03 3.96 11.76
11/11/2021 7:00:00 AM 6.12 43.016 0.077 7.03 4.3 11.78
11/11/2021 7:15:00 AM 6.08 42.944 0.077 7.04 4.09 11.82
11/11/2021 7:30:00 AM 6.07 42.926 0.077 7.04 3.96 11.87
11/11/2021 7:45:00 AM 6.06 42.908 0.077 7.05 4.04 11.94
11/11/2021 8:00:00 AM 6.06 42.908 0.077 7.06 3.77 11.99
11/11/2021 8:15:00 AM 6.07 42.926 0.077 7.07 3.86 12.05
11/11/2021 8:30:00 AM 6.09 42.962 0.077 7.08 3.69 12.11
11/11/2021 8:45:00 AM 6.11 42.998 0.077 7.09 3.71 12.17
11/11/2021 9:00:00 AM 6.16 43.088 0.077 7.1 3.73 12.24
11/11/2021 9:15:00 AM 6.22 43.196 0.077 7.11 3.59 12.28
11/11/2021 9:30:00 AM 6.26 43.268 0.077 7.12 3.66 12.31
11/11/2021 9:45:00 AM 6.3 43.34 0.077 7.12 3.67 12.35
11/11/2021 10:00:00 AM 6.38 43.484 0.077 7.13 3.61 12.38
11/11/2021 10:15:00 AM 6.45 43.61 0.077 7.14 3.71 12.41
11/11/2021 10:30:00 AM 6.53 43.754 0.077 7.15 3.62 12.44
11/11/2021 10:45:00 AM 6.66 43.988 0.077 7.16 3.73 12.46
11/11/2021 11:00:00 AM 6.78 44.204 0.077 7.17 3.6 12.47
11/11/2021 11:15:00 AM 6.84 44.312 0.077 7.18 3.55 12.49
11/11/2021 11:30:00 AM 6.98 44.564 0.077 7.19 3.48 12.51
11/11/2021 11:45:00 AM 7.1 44.78 0.077 7.2 3.48 12.53
11/11/2021 12:00:00 PM 7.18 44.924 0.077 7.21 3.5 12.53
11/11/2021 12:15:00 PM 7.28 45.104 0.076 7.22 3.46 12.55
11/11/2021 12:30:00 PM 7.39 45.302 0.077 7.22 3.5 12.55
11/11/2021 12:45:00 PM 7.45 45.41 0.076 7.23 3.5 12.54
11/11/2021 1:00:00 PM 7.52 45.536 0.077 7.24 3.38 12.54
11/11/2021 1:15:00 PM 7.61 45.698 0.077 7.24 3.54 12.53
11/11/2021 1:30:00 PM 7.7 45.86 0.076 7.25 3.44 12.54
11/11/2021 1:45:00 PM 7.76 45.968 0.076 7.25 3.48 12.53
11/11/2021 2:00:00 PM 7.8 46.04 0.077 7.26 3.47 12.51
11/11/2021 2:15:00 PM 7.84 46.112 0.077 7.24 3.38 12.49
11/11/2021 2:30:00 PM 7.9 46.22 0.077 7.26 3.41 12.48
11/11/2021 2:45:00 PM 7.94 46.292 0.077 7.26 3.44 12.48
11/11/2021 3:00:00 PM 7.97 46.346 0.076 7.27 3.38 12.44
11/11/2021 3:15:00 PM 7.98 46.364 0.077 7.26 3.42 12.4
11/11/2021 3:30:00 PM 8 46.4 0.077 7.26 3.46 12.36
11/11/2021 3:45:00 PM 8.01 46.418 0.077 7.25 3.48 12.32
11/11/2021 4:00:00 PM 8.02 46.436 0.077 7.25 3.53 12.28
11/11/2021 4:15:00 PM 8.01 46.418 0.077 7.24 3.42 12.2
11/11/2021 4:30:00 PM 8 46.4 0.077 7.22 3.5 12.12
11/11/2021 4:45:00 PM 8 46.4 0.077 7.2 3.52 12.04
11/11/2021 5:00:00 PM 7.99 46.382 0.077 7.2 3.64 11.97
11/11/2021 5:15:00 PM 7.99 46.382 0.077 7.18 3.48 11.89
11/11/2021 5:30:00 PM 7.99 46.382 0.077 7.17 3.43 11.84
11/11/2021 5:45:00 PM 7.99 46.382 0.077 7.16 3.75 11.78
11/11/2021 6:00:00 PM 7.99 46.382 0.077 7.16 3.49 11.74
11/11/2021 6:15:00 PM 7.99 46.382 0.077 7.15 3.75 11.7
11/11/2021 6:30:00 PM 8 46.4 0.077 7.15 3.5 11.67
11/11/2021 6:45:00 PM 8.01 46.418 0.077 7.14 3.82 11.63
11/11/2021 7:00:00 PM 8.01 46.418 0.077 7.14 3.79 11.6
11/11/2021 7:15:00 PM 8.03 46.454 0.077 7.13 3.73 11.57
11/11/2021 7:30:00 PM 8.05 46.49 0.077 7.13 3.82 11.53
11/11/2021 7:45:00 PM 8.06 46.508 0.077 7.13 4.04 11.5
11/11/2021 8:00:00 PM 8.08 46.544 0.077 7.12 3.8 11.47
11/11/2021 8:15:00 PM 8.11 46.598 0.077 7.11 3.79 11.43
11/11/2021 8:30:00 PM 8.14 46.652 0.078 7.11 3.7 11.4
11/11/2021 8:45:00 PM 8.18 46.724 0.078 7.11 3.72 11.36
11/11/2021 9:00:00 PM 8.21 46.778 0.078 7.1 3.71 11.33
11/11/2021 9:15:00 PM 8.24 46.832 0.078 7.1 3.88 11.3
11/11/2021 9:30:00 PM 8.26 46.868 0.078 7.09 3.87 11.27
11/11/2021 9:45:00 PM 8.29 46.922 0.078 7.09 4.71 11.25
11/11/2021 10:00:00 PM 8.32 46.976 0.078 7.09 3.95 11.23
11/11/2021 10:15:00 PM 8.33 46.994 0.078 7.08 3.64 11.21
11/11/2021 10:30:00 PM 8.35 47.03 0.078 7.08 3.92 11.19
11/11/2021 10:45:00 PM 8.38 47.084 0.078 7.08 3.64 11.18
11/11/2021 11:00:00 PM 8.41 47.138 0.078 7.08 3.84 11.16
11/11/2021 11:15:00 PM 8.44 47.192 0.079 7.08 3.76 11.15
11/11/2021 11:30:00 PM 8.47 47.246 0.079 7.07 3.67 11.13
11/11/2021 11:45:00 PM 8.5 47.3 0.079 7.07 3.74 11.12
11/12/2021 12:00:00 AM 8.52 47.336 0.079 7.07 3.64 11.1
11/12/2021 12:15:00 AM 8.55 47.39 0.079 7.07 3.58 11.09
11/12/2021 12:30:00 AM 8.58 47.444 0.079 7.07 3.66 11.07
11/12/2021 12:45:00 AM 8.61 47.498 0.079 7.06 3.55 11.06
11/12/2021 1:00:00 AM 8.62 47.516 0.079 7.07 3.63 11.05
11/12/2021 1:15:00 AM 8.63 47.534 0.079 7.06 3.71 11.04
11/12/2021 1:30:00 AM 8.63 47.534 0.079 7.05 3.63 11.03
11/12/2021 1:45:00 AM 8.64 47.552 0.079 7.07 3.53 11.02
11/12/2021 2:00:00 AM 8.68 47.624 0.079 7.06 3.7 11
11/12/2021 2:15:00 AM 8.71 47.678 0.079 7.06 3.69 11
11/12/2021 2:30:00 AM 8.74 47.732 0.08 7.06 3.65 10.98
11/12/2021 2:45:00 AM 8.78 47.804 0.08 7.06 3.61 10.97
11/12/2021 3:00:00 AM 8.82 47.876 0.08 7.06 3.52 10.95
11/12/2021 3:15:00 AM 8.86 47.948 0.08 7.06 3.7 10.94
11/12/2021 3:30:00 AM 8.91 48.038 0.08 7.06 3.74 10.93
11/12/2021 3:45:00 AM 8.96 48.128 0.08 7.06 3.86 10.91
11/12/2021 4:00:00 AM 9.01 48.218 0.08 7.05 3.92 10.9
11/12/2021 4:15:00 AM 9.05 48.29 0.08 7.06 5.83 10.89
11/12/2021 4:30:00 AM 9.1 48.38 0.08 7.06 4.98 10.89
11/12/2021 4:45:00 AM 9.13 48.434 0.08 7.06 5.97 10.88
11/12/2021 5:00:00 AM 9.16 48.488 0.08 7.07 6.64 10.88
11/12/2021 5:15:00 AM 9.2 48.56 0.08 7.07 8.14 10.87
11/12/2021 5:30:00 AM 9.25 48.65 0.08 7.07 10.3 10.86
11/12/2021 5:45:00 AM 9.3 48.74 0.08 7.08 25.41 10.85
11/12/2021 6:00:00 AM 9.34 48.812 0.08 7.07 42.8 10.84
11/12/2021 6:15:00 AM 9.38 48.884 0.08 7.08 46.02 10.83
11/12/2021 6:30:00 AM 9.44 48.992 0.081 7.08 70.31 10.81
11/12/2021 6:45:00 AM 9.59 49.262 0.084 7.12 232.48 10.81
11/12/2021 7:00:00 AM 9.7 49.46 0.087 7.14 200.04 10.79
11/12/2021 7:15:00 AM 10 50 0.093 7.28 156.1 10.74
11/12/2021 7:30:00 AM 10.01 50.018 0.093 7.26 221.58 10.94
11/12/2021 7:45:00 AM 10.29 50.522 0.083 7.14 4610.01 10.89
11/12/2021 8:00:00 AM 10.28 50.504 0.076 7.11 12129.72 10.9
11/12/2021 8:15:00 AM 10.22 50.396 0.072 7.05 220.29 10.89
11/12/2021 8:30:00 AM 10.16 50.288 0.068 7.04 131.44 10.83
11/12/2021 8:45:00 AM 10.13 50.234 0.066 7.03 157.54 10.87
11/12/2021 9:00:00 AM 10.15 50.27 0.064 7.02 165.03 10.87
11/12/2021 9:15:00 AM 10.22 50.396 0.06 7 159.33 10.82
11/12/2021 9:30:00 AM 10.2 50.36 0.061 6.95 194.41 10.82
11/12/2021 9:45:00 AM 10.16 50.288 0.059 6.94 184.43 10.83
11/12/2021 10:00:00 AM 10.15 50.27 0.059 6.94 189.46 10.83
11/12/2021 10:15:00 AM 10.15 50.27 0.058 6.95 187.54 10.84
11/12/2021 10:30:00 AM 10.14 50.252 0.057 6.91 219.31 10.85
11/12/2021 10:45:00 AM 10.13 50.234 0.057 6.89 255.55 10.85
11/12/2021 11:00:00 AM 10.13 50.234 0.056 6.88 215.67 10.85
11/12/2021 11:15:00 AM 10.12 50.216 0.055 6.88 429.34 10.86
11/12/2021 11:30:00 AM 10.12 50.216 0.055 6.87 14955.19 10.86
11/12/2021 11:45:00 AM 10.13 50.234 0.054 6.85 12336.54 10.85
11/12/2021 12:00:00 PM 10.13 50.234 0.055 6.87 102.32 10.85
11/12/2021 12:15:00 PM 10.15 50.27 0.055 6.86 102.32 10.85
11/12/2021 12:30:00 PM 10.19 50.342 0.055 6.87 93.94 10.84
11/12/2021 12:45:00 PM 10.23 50.414 0.055 6.86 95.87 10.83
11/12/2021 1:00:00 PM 10.26 50.468 0.055 6.87 95.39 10.83
11/12/2021 1:15:00 PM 10.29 50.522 0.055 6.88 160.79 10.82
11/12/2021 1:30:00 PM 10.32 50.576 0.056 6.88 1210.2 10.81
11/12/2021 1:45:00 PM 10.31 50.558 0.056 6.87 101.58 10.8
11/12/2021 2:00:00 PM 10.32 50.576 0.056 6.87 104.78 10.8
11/12/2021 2:15:00 PM 10.32 50.576 0.057 6.86 4710.42 10.79
11/12/2021 2:30:00 PM 10.34 50.612 0.057 6.86 93.84 10.78
11/12/2021 2:45:00 PM 10.36 50.648 0.059 6.88 92.13 10.78
11/12/2021 3:00:00 PM 10.34 50.612 0.058 6.86 86.41 10.78
11/12/2021 3:15:00 PM 10.31 50.558 0.057 6.86 85.49 10.78
11/12/2021 3:30:00 PM 10.27 50.486 0.059 6.85 84.88 10.78
11/12/2021 3:45:00 PM 10.22 50.396 0.06 6.86 114.44 10.78
11/12/2021 4:00:00 PM 10.17 50.306 0.059 6.87 107.51 10.78
11/12/2021 4:15:00 PM 10.12 50.216 0.063 6.88 96.02 10.79
11/12/2021 4:30:00 PM 10.05 50.09 0.063 6.88 62.42 10.8
11/12/2021 4:45:00 PM 9.98 49.964 0.062 6.88 60.77 10.82
11/12/2021 5:00:00 PM 9.91 49.838 0.061 6.88 58.94 10.82
11/12/2021 5:15:00 PM 9.83 49.694 0.059 6.88 57.29 10.83
11/12/2021 5:30:00 PM 9.76 49.568 0.06 6.87 55.42 10.84
11/12/2021 5:45:00 PM 9.67 49.406 0.062 6.87 55.5 10.86
11/12/2021 6:00:00 PM 9.6 49.28 0.064 6.87 537.96 10.87
11/12/2021 6:15:00 PM 9.51 49.118 0.06 6.86 52.29 10.89
11/12/2021 6:30:00 PM 9.43 48.974 0.061 6.88 52.48 10.91
11/12/2021 6:45:00 PM 9.35 48.83 0.061 6.86 52 10.93
11/12/2021 7:00:00 PM 9.27 48.686 0.063 6.85 58.55 10.95
11/12/2021 7:15:00 PM 9.19 48.542 0.061 6.86 53.36 10.98
11/12/2021 7:30:00 PM 9.11 48.398 0.061 6.86 51.13 10.99
11/12/2021 7:45:00 PM 9.03 48.254 0.063 6.86 645.58 11.01
11/12/2021 8:00:00 PM 8.96 48.128 0.065 6.87 404.9 11.02
11/12/2021 8:15:00 PM 8.88 47.984 0.06 6.86 484.77 11.04
11/12/2021 8:30:00 PM 8.81 47.858 0.06 6.85 480.23 11.06
11/12/2021 8:45:00 PM 8.73 47.714 0.061 6.85 407.35 11.09
11/12/2021 9:00:00 PM 8.66 47.588 0.063 6.85 415.93 11.1
11/12/2021 9:15:00 PM 8.59 47.462 0.061 6.85 262.47 11.12
11/12/2021 9:30:00 PM 8.53 47.354 0.06 6.85 191.5 11.14
11/12/2021 9:45:00 PM 8.46 47.228 0.061 6.85 231.19 11.15
11/12/2021 10:00:00 PM 8.39 47.102 0.061 6.85 153.87 11.17
11/12/2021 10:15:00 PM 8.32 46.976 0.061 6.85 138.63 11.18
11/12/2021 10:30:00 PM 8.26 46.868 0.062 6.85 176.91 11.2
11/12/2021 10:45:00 PM 8.2 46.76 0.063 6.85 115.89 11.22
11/12/2021 11:00:00 PM 8.14 46.652 0.063 6.86 124.68 11.24
11/12/2021 11:15:00 PM 8.08 46.544 0.062 6.85 142.43 11.25
11/12/2021 11:30:00 PM 8.02 46.436 0.062 6.85 100.44 11.27
11/12/2021 11:45:00 PM 7.96 46.328 0.063 6.86 141.92 11.28
11/13/2021 12:00:00 AM 7.9 46.22 0.061 6.85 150.57 11.3
11/13/2021 12:15:00 AM 7.85 46.13 0.062 6.85 156.51 11.31
11/13/2021 12:30:00 AM 7.8 46.04 0.062 6.86 126.84 11.33
11/13/2021 12:45:00 AM 7.75 45.95 0.062 6.85 136.1 11.34
11/13/2021 1:00:00 AM 7.7 45.86 0.062 6.86 120.21 11.35
11/13/2021 1:15:00 AM 7.66 45.788 0.062 6.86 98.68 11.36
11/13/2021 1:30:00 AM 7.61 45.698 0.062 6.86 121.63 11.37
11/13/2021 1:45:00 AM 7.58 45.644 0.062 6.86 97.06 11.38
11/13/2021 2:00:00 AM 7.55 45.59 0.062 6.86 100.16 11.38
11/13/2021 2:15:00 AM 7.52 45.536 0.062 6.86 97.32 11.4
11/13/2021 2:30:00 AM 7.49 45.482 0.062 6.86 80.74 11.41
11/13/2021 2:45:00 AM 7.46 45.428 0.062 6.86 75.87 11.42
11/13/2021 3:00:00 AM 7.45 45.41 0.063 6.87 79.57 11.42
11/13/2021 3:15:00 AM 7.43 45.374 0.063 6.86 72.9 11.43
11/13/2021 3:30:00 AM 7.42 45.356 0.063 6.87 98.9 11.43
11/13/2021 3:45:00 AM 7.41 45.338 0.063 6.87 106.92 11.43
11/13/2021 4:00:00 AM 7.41 45.338 0.062 6.87 64.95 11.43
11/13/2021 4:15:00 AM 7.4 45.32 0.062 6.87 79.8 11.43
11/13/2021 4:30:00 AM 7.4 45.32 0.062 6.87 68.45 11.43
11/13/2021 4:45:00 AM 7.41 45.338 0.062 6.87 51.54 11.43
11/13/2021 5:00:00 AM 7.41 45.338 0.062 6.88 65.65 11.43
11/13/2021 5:15:00 AM 7.42 45.356 0.062 6.87 55.21 11.43
11/13/2021 5:30:00 AM 7.43 45.374 0.062 6.87 86.31 11.43
11/13/2021 5:45:00 AM 7.44 45.392 0.062 6.87 66.25 11.42
11/13/2021 6:00:00 AM 7.46 45.428 0.063 6.87 63.64 11.42
11/13/2021 6:15:00 AM 7.47 45.446 0.063 6.87 58.08 11.41
11/13/2021 6:30:00 AM 7.49 45.482 0.063 6.87 95.79 11.41
11/13/2021 6:45:00 AM 7.51 45.518 0.063 6.87 113.08 11.4
11/13/2021 7:00:00 AM 7.53 45.554 0.063 6.87 126.67 11.39
11/13/2021 7:15:00 AM 7.55 45.59 0.063 6.87 113.22 11.39
11/13/2021 7:30:00 AM 7.58 45.644 0.063 6.87 156.89 11.39
11/13/2021 7:45:00 AM 7.6 45.68 0.063 6.87 88.68 11.38
11/13/2021 8:00:00 AM 7.63 45.734 0.063 6.87 73.98 11.38
11/13/2021 8:15:00 AM 7.66 45.788 0.063 6.88 80.84 11.39
11/13/2021 8:30:00 AM 7.68 45.824 0.063 6.88 98.67 11.39
11/13/2021 8:45:00 AM 7.72 45.896 0.063 6.89 104.84 11.4
11/13/2021 9:00:00 AM 7.77 45.986 0.063 6.89 94.14 11.41
11/13/2021 9:15:00 AM 7.81 46.058 0.063 6.88 66.81 11.41
11/13/2021 9:30:00 AM 7.84 46.112 0.063 6.89 59.5 11.41
11/13/2021 9:45:00 AM 7.88 46.184 0.063 6.89 52.21 11.42
11/13/2021 10:00:00 AM 7.91 46.238 0.063 6.9 59.12 11.41
11/13/2021 10:15:00 AM 7.94 46.292 0.063 6.89 53.93 11.4
11/13/2021 10:30:00 AM 7.96 46.328 0.063 6.89 54.44 11.4
11/13/2021 10:45:00 AM 7.98 46.364 0.063 6.9 85.88 11.4
11/13/2021 11:00:00 AM 8 46.4 0.063 6.91 86.14 11.39
11/13/2021 11:15:00 AM 8.01 46.418 0.063 6.91 76.81 11.38
11/13/2021 11:30:00 AM 8.02 46.436 0.063 6.92 76.12 11.38
11/13/2021 11:45:00 AM 8.04 46.472 0.063 6.91 83.86 11.38
11/13/2021 12:00:00 PM 8.06 46.508 0.063 6.92 417.27 11.37
11/13/2021 12:15:00 PM 8.08 46.544 0.063 6.92 189.47 11.37
11/13/2021 12:30:00 PM 8.08 46.544 0.063 6.91 6241 11.36
11/13/2021 12:45:00 PM 8.09 46.562 0.063 6.91 8392.33 11.36
11/13/2021 1:00:00 PM 8.09 46.562 0.063 6.92 478.9 11.36
11/13/2021 1:15:00 PM 8.08 46.544 0.063 6.92 28.41 11.36
11/13/2021 1:30:00 PM 8.07 46.526 0.063 6.92 44.74 11.36
11/13/2021 1:45:00 PM 8.07 46.526 0.063 6.92 31.01 11.36
11/13/2021 2:00:00 PM 8.06 46.508 0.063 6.92 38.78 11.36
11/13/2021 2:15:00 PM 8.05 46.49 0.063 6.92 28.41 11.37
11/13/2021 2:30:00 PM 8.04 46.472 0.064 6.92 22.8 11.36
11/13/2021 2:45:00 PM 8.03 46.454 0.064 6.93 27.85 11.38
11/13/2021 3:00:00 PM 8.02 46.436 0.064 6.93 28.25 11.39
11/13/2021 3:15:00 PM 8.02 46.436 0.064 6.94 27.58 11.41
11/13/2021 3:30:00 PM 8.02 46.436 0.064 6.95 74.73 11.42
11/13/2021 3:45:00 PM 7.99 46.382 0.064 6.94 187.95 11.42
11/13/2021 4:00:00 PM 7.96 46.328 0.064 6.94 28.49 11.41
11/13/2021 4:15:00 PM 7.94 46.292 0.064 6.95 27.64 11.42
11/13/2021 4:30:00 PM 7.91 46.238 0.064 6.94 90.44 11.42
11/13/2021 4:45:00 PM 7.89 46.202 0.063 6.95 22.23 11.42
11/13/2021 5:00:00 PM 7.86 46.148 0.063 6.95 26.44 11.42
11/13/2021 5:15:00 PM 7.82 46.076 0.063 6.94 20.8 11.41
11/13/2021 5:30:00 PM 7.79 46.022 0.063 6.94 25.38 11.41
11/13/2021 5:45:00 PM 7.75 45.95 0.063 6.93 38.31 11.41
11/13/2021 6:00:00 PM 7.71 45.878 0.063 6.93 28.66 11.41
11/13/2021 6:15:00 PM 7.66 45.788 0.063 6.93 41.59 11.41
11/13/2021 6:30:00 PM 7.61 45.698 0.063 6.93 31.27 11.41
11/13/2021 6:45:00 PM 7.57 45.626 0.063 6.93 23.81 11.42
11/13/2021 7:00:00 PM 7.53 45.554 0.063 6.92 20.16 11.42
11/13/2021 7:15:00 PM 7.5 45.5 0.063 6.91 21.03 11.42
11/13/2021 7:30:00 PM 7.46 45.428 0.063 6.91 26.06 11.43
11/13/2021 7:45:00 PM 7.43 45.374 0.063 6.91 22.74 11.43
11/13/2021 8:00:00 PM 7.4 45.32 0.064 6.91 29.66 11.44
11/13/2021 8:15:00 PM 7.36 45.248 0.063 6.91 25.15 11.45
11/13/2021 8:30:00 PM 7.32 45.176 0.063 6.92 22.74 11.46
11/13/2021 8:45:00 PM 7.28 45.104 0.064 6.91 25.97 11.47
11/13/2021 9:00:00 PM 7.25 45.05 0.063 6.91 50.69 11.48
11/13/2021 9:15:00 PM 7.23 45.014 0.064 6.91 11.94 11.49
11/13/2021 9:30:00 PM 7.2 44.96 0.064 6.9 9.24 11.5
11/13/2021 9:45:00 PM 7.17 44.906 0.063 6.9 10.35 11.5
11/13/2021 10:00:00 PM 7.13 44.834 0.064 6.9 9.85 11.51
11/13/2021 10:15:00 PM 7.11 44.798 0.064 6.9 10.81 11.52
11/13/2021 10:30:00 PM 7.09 44.762 0.063 6.9 9.4 11.53
11/13/2021 10:45:00 PM 7.07 44.726 0.064 6.91 9.42 11.53
11/13/2021 11:00:00 PM 7.05 44.69 0.064 6.9 9.37 11.54
11/13/2021 11:15:00 PM 7.02 44.636 0.064 6.9 8.96 11.55
11/13/2021 11:30:00 PM 7 44.6 0.064 6.9 8.99 11.55
11/13/2021 11:45:00 PM 6.99 44.582 0.064 6.9 9.35 11.56
11/14/2021 12:00:00 AM 6.98 44.564 0.064 6.91 8.69 11.56
11/14/2021 12:15:00 AM 6.96 44.528 0.064 6.91 9.92 11.57
11/14/2021 12:30:00 AM 6.95 44.51 0.064 6.9 9.4 11.58
11/14/2021 12:45:00 AM 6.94 44.492 0.064 6.9 9.04 11.58
11/14/2021 1:00:00 AM 6.93 44.474 0.064 6.91 9.15 11.59
11/14/2021 1:15:00 AM 6.91 44.438 0.064 6.9 8.57 11.59
11/14/2021 1:30:00 AM 6.9 44.42 0.064 6.9 8.39 11.59
11/14/2021 1:45:00 AM 6.9 44.42 0.063 6.9 8.22 11.6
11/14/2021 2:00:00 AM 6.89 44.402 0.063 6.91 8.72 11.6
11/14/2021 2:15:00 AM 6.88 44.384 0.064 6.9 8.14 11.6
11/14/2021 2:30:00 AM 6.87 44.366 0.064 6.9 8.01 11.61
11/14/2021 2:45:00 AM 6.87 44.366 0.064 6.9 8.14 11.61
11/14/2021 3:00:00 AM 6.86 44.348 0.064 6.9 7.87 11.62
11/14/2021 3:15:00 AM 6.86 44.348 0.064 6.9 7.86 11.61
11/14/2021 3:30:00 AM 6.85 44.33 0.064 6.9 8.14 11.62
11/14/2021 3:45:00 AM 6.85 44.33 0.063 6.9 15.08 11.62
11/14/2021 4:00:00 AM 6.84 44.312 0.062 6.89 26.77 11.62
11/14/2021 4:15:00 AM 6.84 44.312 0.062 6.9 15.66 11.62
11/14/2021 4:30:00 AM 6.84 44.312 0.063 6.9 12.05 11.63
11/14/2021 4:45:00 AM 6.83 44.294 0.063 6.9 11.75 11.63
11/14/2021 5:00:00 AM 6.83 44.294 0.062 6.9 16.86 11.62
11/14/2021 5:15:00 AM 6.82 44.276 0.062 6.89 13.31 11.63
11/14/2021 5:30:00 AM 6.81 44.258 0.063 6.89 11.47 11.63
11/14/2021 5:45:00 AM 6.81 44.258 0.063 6.89 10.64 11.64
11/14/2021 6:00:00 AM 6.81 44.258 0.063 6.9 10.19 11.64
11/14/2021 6:15:00 AM 6.8 44.24 0.063 6.9 10.33 11.64
11/14/2021 6:30:00 AM 6.8 44.24 0.062 6.9 9.45 11.64
11/14/2021 6:45:00 AM 6.8 44.24 0.062 6.9 9.65 11.64
11/14/2021 7:00:00 AM 6.79 44.222 0.063 6.9 9.45 11.64
11/14/2021 7:15:00 AM 6.8 44.24 0.063 6.9 9.14 11.65
11/14/2021 7:30:00 AM 6.8 44.24 0.062 6.9 9.35 11.66
11/14/2021 7:45:00 AM 6.8 44.24 0.062 6.9 9.2 11.66
11/14/2021 8:00:00 AM 6.8 44.24 0.063 6.9 9.71 11.67
11/14/2021 8:15:00 AM 6.81 44.258 0.063 6.9 9.06 11.68
11/14/2021 8:30:00 AM 6.82 44.276 0.062 6.91 9.99 11.69
11/14/2021 8:45:00 AM 6.82 44.276 0.062 6.91 10.59 11.7
11/14/2021 9:00:00 AM 6.85 44.33 0.062 6.91 9.6 11.73
11/14/2021 9:15:00 AM 6.88 44.384 0.063 6.92 9.11 11.75
11/14/2021 9:30:00 AM 6.91 44.438 0.064 6.92 8.4 11.77
11/14/2021 9:45:00 AM 6.94 44.492 0.064 6.94 8.33 11.78
11/14/2021 10:00:00 AM 6.98 44.564 0.064 6.94 8.03 11.8
11/14/2021 10:15:00 AM 7.03 44.654 0.064 6.94 8.23 11.81
11/14/2021 10:30:00 AM 7.08 44.744 0.063 6.95 8.7 11.83
11/14/2021 10:45:00 AM 7.13 44.834 0.063 6.95 8.81 11.84
11/14/2021 11:00:00 AM 7.18 44.924 0.063 6.95 8.27 11.85
11/14/2021 11:15:00 AM 7.25 45.05 0.064 6.95 13.83 11.85
11/14/2021 11:30:00 AM 7.31 45.158 0.064 6.96 1048.54 11.85
11/14/2021 11:45:00 AM 7.36 45.248 0.063 6.97 9303.18 11.86
11/14/2021 12:00:00 PM 7.41 45.338 0.064 6.97 4412.52 11.85
11/14/2021 12:15:00 PM 7.45 45.41 0.064 6.97 355.43 11.85
11/14/2021 12:30:00 PM 7.49 45.482 0.063 6.97 10824.33 11.84
11/14/2021 12:45:00 PM 7.53 45.554 0.063 6.98 6095.24 11.83
11/14/2021 1:00:00 PM 7.59 45.662 0.063 6.97 35.78 11.82
11/14/2021 1:15:00 PM 7.65 45.77 0.063 6.98 14.29 11.8
11/14/2021 1:30:00 PM 7.68 45.824 0.063 6.98 11.21 11.79
11/14/2021 1:45:00 PM 7.7 45.86 0.063 6.98 12.66 11.77
11/14/2021 2:00:00 PM 7.7 45.86 0.063 6.98 173.16 11.74
11/14/2021 2:15:00 PM 7.71 45.878 0.063 6.98 162.67 11.71
11/14/2021 2:30:00 PM 7.71 45.878 0.063 6.97 1026.27 11.68
11/14/2021 2:45:00 PM 7.72 45.896 0.063 6.98 4507.56 11.66
11/14/2021 3:00:00 PM 7.72 45.896 0.062 6.96 6454.87 11.63
11/14/2021 3:15:00 PM 7.71 45.878 0.063 6.97 41.15 11.61
11/14/2021 3:30:00 PM 7.7 45.86 0.062 6.96 7.06 11.58
11/14/2021 3:45:00 PM 7.69 45.842 0.061 6.96 8.05 11.56
11/14/2021 4:00:00 PM 7.68 45.824 0.036 6.96 51.49 11.55
11/14/2021 4:15:00 PM 7.65 45.77 0.038 6.95 70.79 11.52
11/14/2021 4:30:00 PM 7.62 45.716 0.064 6.95 9.31 11.51
11/14/2021 4:45:00 PM 7.6 45.68 0.065 6.95 7.89 11.49
11/14/2021 5:00:00 PM 7.58 45.644 0.065 6.94 7.7 11.49
11/14/2021 5:15:00 PM 7.55 45.59 0.064 6.94 9.3 11.47
11/14/2021 5:30:00 PM 7.53 45.554 0.064 6.94 7.35 11.47
11/14/2021 5:45:00 PM 7.51 45.518 0.064 6.93 6.5 11.46
11/14/2021 6:00:00 PM 7.48 45.464 0.064 6.93 5.79 11.46
11/14/2021 6:15:00 PM 7.45 45.41 0.064 6.92 5.86 11.46
11/14/2021 6:30:00 PM 7.43 45.374 0.063 6.92 5.88 11.45
11/14/2021 6:45:00 PM 7.4 45.32 0.063 6.92 6.03 11.46
11/14/2021 7:00:00 PM 7.37 45.266 0.062 6.92 6.13 11.46
11/14/2021 7:15:00 PM 7.34 45.212 0.063 6.91 6.64 11.46
11/14/2021 7:30:00 PM 7.31 45.158 0.036 6.92 6.35 11.47
11/14/2021 7:45:00 PM 7.28 45.104 0.039 6.91 7.02 11.47
11/14/2021 8:00:00 PM 7.25 45.05 0.061 6.94 9.25 11.47
11/14/2021 8:15:00 PM 7.19 44.942 0.063 6.92 7.77 11.47
11/14/2021 8:30:00 PM 7.13 44.834 0.062 6.91 8.57 11.48
11/14/2021 8:45:00 PM 7.08 44.744 0.066 6.91 12.21 11.49
11/14/2021 9:00:00 PM 7.04 44.672 0.063 6.91 11.81 11.49
11/14/2021 9:15:00 PM 7.01 44.618 0.064 6.91 11.16 11.5
11/14/2021 9:30:00 PM 6.97 44.546 0.063 6.91 14.49 11.51
11/14/2021 9:45:00 PM 6.94 44.492 0.036 6.91 13.22 11.51
11/14/2021 10:00:00 PM 6.9 44.42 0.062 6.92 20.7 11.53
11/14/2021 10:15:00 PM 6.87 44.366 0.063 6.89 4.73 11.54
11/14/2021 10:30:00 PM 6.84 44.312 0.065 6.93 25.11 11.55
11/14/2021 10:45:00 PM 6.81 44.258 0.064 6.9 20.76 11.56
11/14/2021 11:00:00 PM 6.78 44.204 0.064 6.89 20.79 11.57
11/14/2021 11:15:00 PM 6.76 44.168 0.064 6.92 16.19 11.58
11/14/2021 11:30:00 PM 6.74 44.132 0.064 6.89 16.65 11.59
11/14/2021 11:45:00 PM 6.71 44.078 0.066 6.93 14178.25 11.6
11/15/2021 12:00:00 AM 6.69 44.042 0.064 6.94 3714.22 11.61
11/15/2021 12:15:00 AM 6.67 44.006 0.064 6.93 66.75 11.62
11/15/2021 12:30:00 AM 6.64 43.952 0.066 6.94 562.37 11.63
11/15/2021 12:45:00 AM 6.62 43.916 0.065 6.94 16.41 11.63
11/15/2021 1:00:00 AM 6.6 43.88 0.065 6.94 16.96 11.63
11/15/2021 1:15:00 AM 6.58 43.844 0.065 6.94 14.18 11.64
11/15/2021 1:30:00 AM 6.56 43.808 0.065 6.94 17.04 11.65
11/15/2021 1:45:00 AM 6.54 43.772 0.065 6.94 14.04 11.66
11/15/2021 2:00:00 AM 6.52 43.736 0.065 6.95 16.24 11.66
11/15/2021 2:15:00 AM 6.5 43.7 0.065 6.94 25.32 11.67
11/15/2021 2:30:00 AM 6.48 43.664 0.065 6.95 17.62 11.67
11/15/2021 2:45:00 AM 6.44 43.592 0.065 6.95 16.86 11.68
11/15/2021 3:00:00 AM 6.41 43.538 0.065 6.96 10.91 11.68
11/15/2021 3:15:00 AM 6.38 43.484 0.065 6.95 11 11.68
11/15/2021 3:30:00 AM 6.38 43.484 0.065 6.94 9.98 11.69
11/15/2021 3:45:00 AM 6.37 43.466 0.065 6.93 9.33 11.69
11/15/2021 4:00:00 AM 6.36 43.448 0.065 6.92 9.51 11.69
11/15/2021 4:15:00 AM 6.35 43.43 0.065 6.92 9.09 11.7
11/15/2021 4:30:00 AM 6.33 43.394 0.065 6.91 8.95 11.7
11/15/2021 4:45:00 AM 6.32 43.376 0.065 6.92 8.4 11.71
11/15/2021 5:00:00 AM 6.31 43.358 0.065 6.91 8.42 11.71
11/15/2021 5:15:00 AM 6.3 43.34 0.066 6.92 8.27 11.72
11/15/2021 5:30:00 AM 6.29 43.322 0.065 6.92 8.27 11.72
11/15/2021 5:45:00 AM 6.29 43.322 0.066 6.91 8.12 11.72
11/15/2021 6:00:00 AM 6.28 43.304 0.066 6.91 7.81 11.72
11/15/2021 6:15:00 AM 6.27 43.286 0.066 6.92 7.75 11.73
11/15/2021 6:30:00 AM 6.26 43.268 0.066 6.91 7.27 11.73
11/15/2021 6:45:00 AM 6.25 43.25 0.066 6.93 7.56 11.74
11/15/2021 7:00:00 AM 6.25 43.25 0.066 6.91 7.25 11.74
11/15/2021 7:15:00 AM 6.24 43.232 0.066 6.91 6.99 11.75
11/15/2021 7:30:00 AM 6.24 43.232 0.066 6.92 7.08 11.76
11/15/2021 7:45:00 AM 6.23 43.214 0.066 6.92 6.8 11.78
11/15/2021 8:00:00 AM 6.24 43.232 0.066 6.91 6.63 11.8
11/15/2021 8:15:00 AM 6.26 43.268 0.066 6.93 6.47 11.82
11/15/2021 8:30:00 AM 6.28 43.304 0.065 6.93